<?xml version='1.0' encoding='UTF-8'?><gpx version="1.1" creator="JPX - https://github.com/jenetics/jpx" xmlns="http://www.topografix.com/GPX/1/1"><trk><trkseg><trkpt lat="42.788001301593425" lon="10.284751971878293"><ele>55.0</ele><time>2026-04-23T10:54:00Z</time></trkpt><trkpt lat="42.78807443567308" lon="10.284849569791307"><ele>53.99999999999999</ele><time>2026-04-23T10:54:02Z</time></trkpt><trkpt lat="42.78817493388058" lon="10.284981618666476"><ele>53.0</ele><time>2026-04-23T10:54:04Z</time></trkpt><trkpt lat="42.78823288674667" lon="10.285089663564634"><ele>52.0</ele><time>2026-04-23T10:54:05Z</time></trkpt><trkpt lat="42.788312585767194" lon="10.285158516472368"><ele>51.0</ele><time>2026-04-23T10:54:06Z</time></trkpt><trkpt lat="42.78839610240465" lon="10.28522431912342"><ele>51.0</ele><time>2026-04-23T10:54:07Z</time></trkpt><trkpt lat="42.788486044147525" lon="10.285288902034818"><ele>51.0</ele><time>2026-04-23T10:54:08Z</time></trkpt><trkpt lat="42.78858438788018" lon="10.285358360123553"><ele>51.0</ele><time>2026-04-23T10:54:09Z</time></trkpt><trkpt lat="42.78867870101622" lon="10.28542497154912"><ele>51.0</ele><time>2026-04-23T10:54:10Z</time></trkpt><trkpt lat="42.78876779437581" lon="10.285487693781652"><ele>51.0</ele><time>2026-04-23T10:54:11Z</time></trkpt><trkpt lat="42.78885763138884" lon="10.285550819008163"><ele>51.0</ele><time>2026-04-23T10:54:12Z</time></trkpt><trkpt lat="42.78893241612287" lon="10.285607233505091"><ele>51.0</ele><time>2026-04-23T10:54:13Z</time></trkpt><trkpt lat="42.78900709939585" lon="10.285663470374903"><ele>51.0</ele><time>2026-04-23T10:54:14Z</time></trkpt><trkpt lat="42.78906838260833" lon="10.285714317471674"><ele>51.0</ele><time>2026-04-23T10:54:15Z</time></trkpt><trkpt lat="42.789133770154635" lon="10.285764556346354"><ele>51.0</ele><time>2026-04-23T10:54:16Z</time></trkpt><trkpt lat="42.78918292008937" lon="10.285865241808935"><ele>51.0</ele><time>2026-04-23T10:54:17Z</time></trkpt><trkpt lat="42.78920342545344" lon="10.285988605828036"><ele>51.0</ele><time>2026-04-23T10:54:18Z</time></trkpt><trkpt lat="42.78921138222132" lon="10.28612060016809"><ele>51.0</ele><time>2026-04-23T10:54:19Z</time></trkpt><trkpt lat="42.78923805550289" lon="10.286247993040202"><ele>51.0</ele><time>2026-04-23T10:54:20Z</time></trkpt><trkpt lat="42.789257144617956" lon="10.286376119629162"><ele>51.0</ele><time>2026-04-23T10:54:21Z</time></trkpt><trkpt lat="42.78928788062383" lon="10.286492717082202"><ele>51.0</ele><time>2026-04-23T10:54:22Z</time></trkpt><trkpt lat="42.78932412450221" lon="10.286611520927512"><ele>50.4</ele><time>2026-04-23T10:54:23Z</time></trkpt><trkpt lat="42.78938170495769" lon="10.28671264472095"><ele>49.8</ele><time>2026-04-23T10:54:24Z</time></trkpt><trkpt lat="42.78946306581427" lon="10.286812694101073"><ele>49.199999999999996</ele><time>2026-04-23T10:54:25Z</time></trkpt><trkpt lat="42.78952748689963" lon="10.286906886980367"><ele>48.599999999999994</ele><time>2026-04-23T10:54:26Z</time></trkpt><trkpt lat="42.78961056104164" lon="10.286979644396967"><ele>48.0</ele><time>2026-04-23T10:54:27Z</time></trkpt><trkpt lat="42.78969724002144" lon="10.287057013874705"><ele>48.0</ele><time>2026-04-23T10:54:28Z</time></trkpt><trkpt lat="42.78980909499168" lon="10.287115121000214"><ele>48.0</ele><time>2026-04-23T10:54:29Z</time></trkpt><trkpt lat="42.78989589293724" lon="10.287176873319211"><ele>48.0</ele><time>2026-04-23T10:54:30Z</time></trkpt><trkpt lat="42.79000304896287" lon="10.28722281247985"><ele>48.0</ele><time>2026-04-23T10:54:31Z</time></trkpt><trkpt lat="42.79010231639183" lon="10.287267349160178"><ele>48.0</ele><time>2026-04-23T10:54:32Z</time></trkpt><trkpt lat="42.79020339265809" lon="10.287298920906487"><ele>45.0</ele><time>2026-04-23T10:54:33Z</time></trkpt><trkpt lat="42.790303351578935" lon="10.287334534760165"><ele>42.0</ele><time>2026-04-23T10:54:34Z</time></trkpt><trkpt lat="42.79039697480845" lon="10.28739100240918"><ele>39.0</ele><time>2026-04-23T10:54:35Z</time></trkpt><trkpt lat="42.79048424104774" lon="10.287468098395653"><ele>36.0</ele><time>2026-04-23T10:54:36Z</time></trkpt><trkpt lat="42.790566067812506" lon="10.287565254251184"><ele>33.0</ele><time>2026-04-23T10:54:37Z</time></trkpt><trkpt lat="42.79065195125313" lon="10.287654723012317"><ele>33.0</ele><time>2026-04-23T10:54:38Z</time></trkpt><trkpt lat="42.79073843342259" lon="10.287735673590943"><ele>33.0</ele><time>2026-04-23T10:54:39Z</time></trkpt><trkpt lat="42.79082466867845" lon="10.28780681558588"><ele>33.0</ele><time>2026-04-23T10:54:40Z</time></trkpt><trkpt lat="42.790920809463955" lon="10.287856970465151"><ele>33.0</ele><time>2026-04-23T10:54:41Z</time></trkpt><trkpt lat="42.79103234422619" lon="10.28790043291052"><ele>33.0</ele><time>2026-04-23T10:54:42Z</time></trkpt><trkpt lat="42.79114572336951" lon="10.287932138338729"><ele>32.0</ele><time>2026-04-23T10:54:43Z</time></trkpt><trkpt lat="42.79125504943104" lon="10.287967579230047"><ele>31.0</ele><time>2026-04-23T10:54:44Z</time></trkpt><trkpt lat="42.79137150001696" lon="10.288009402408202"><ele>30.0</ele><time>2026-04-23T10:54:45Z</time></trkpt><trkpt lat="42.791483824309715" lon="10.288045636433619"><ele>29.0</ele><time>2026-04-23T10:54:46Z</time></trkpt><trkpt lat="42.79159141818704" lon="10.288085952873567"><ele>28.25</ele><time>2026-04-23T10:54:47Z</time></trkpt><trkpt lat="42.79169368739856" lon="10.288147805278241"><ele>27.5</ele><time>2026-04-23T10:54:48Z</time></trkpt><trkpt lat="42.791795942992735" lon="10.288205107440147"><ele>26.75</ele><time>2026-04-23T10:54:49Z</time></trkpt><trkpt lat="42.79189834837842" lon="10.28828072755109"><ele>26.0</ele><time>2026-04-23T10:54:50Z</time></trkpt><trkpt lat="42.79199254546578" lon="10.288364106859882"><ele>26.0</ele><time>2026-04-23T10:54:51Z</time></trkpt><trkpt lat="42.7920818803147" lon="10.288453000802356"><ele>26.0</ele><time>2026-04-23T10:54:52Z</time></trkpt><trkpt lat="42.79216834197879" lon="10.288557925259422"><ele>26.0</ele><time>2026-04-23T10:54:53Z</time></trkpt><trkpt lat="42.79223038853799" lon="10.288683492461773"><ele>26.0</ele><time>2026-04-23T10:54:54Z</time></trkpt><trkpt lat="42.79229518436733" lon="10.288820451863186"><ele>25.75</ele><time>2026-04-23T10:54:55Z</time></trkpt><trkpt lat="42.792365223720935" lon="10.288944423352257"><ele>25.5</ele><time>2026-04-23T10:54:56Z</time></trkpt><trkpt lat="42.79241428506828" lon="10.289081443716695"><ele>25.25</ele><time>2026-04-23T10:54:57Z</time></trkpt><trkpt lat="42.79247680772436" lon="10.289216945032145"><ele>25.0</ele><time>2026-04-23T10:54:58Z</time></trkpt><trkpt lat="42.79253782426278" lon="10.289351910461475"><ele>25.0</ele><time>2026-04-23T10:54:59Z</time></trkpt><trkpt lat="42.79260019715436" lon="10.289482583341346"><ele>25.0</ele><time>2026-04-23T10:55:00Z</time></trkpt><trkpt lat="42.79266714068306" lon="10.289615548620457"><ele>25.0</ele><time>2026-04-23T10:55:01Z</time></trkpt><trkpt lat="42.79272924689934" lon="10.289749653455868"><ele>25.0</ele><time>2026-04-23T10:55:02Z</time></trkpt><trkpt lat="42.792791448754166" lon="10.289877178181882"><ele>23.75</ele><time>2026-04-23T10:55:03Z</time></trkpt><trkpt lat="42.79286345145197" lon="10.29001204501342"><ele>22.5</ele><time>2026-04-23T10:55:04Z</time></trkpt><trkpt lat="42.79293737801581" lon="10.29014123014662"><ele>21.25</ele><time>2026-04-23T10:55:05Z</time></trkpt><trkpt lat="42.79303040088053" lon="10.290265721488815"><ele>20.0</ele><time>2026-04-23T10:55:06Z</time></trkpt><trkpt lat="42.793126680873755" lon="10.290390223145993"><ele>20.0</ele><time>2026-04-23T10:55:07Z</time></trkpt><trkpt lat="42.793228683177944" lon="10.290506676609617"><ele>20.0</ele><time>2026-04-23T10:55:08Z</time></trkpt><trkpt lat="42.793332685034976" lon="10.290616960180197"><ele>20.0</ele><time>2026-04-23T10:55:09Z</time></trkpt><trkpt lat="42.79344236148125" lon="10.290720890911892"><ele>20.0</ele><time>2026-04-23T10:55:10Z</time></trkpt><trkpt lat="42.79355090012234" lon="10.290827028060573"><ele>19.75</ele><time>2026-04-23T10:55:11Z</time></trkpt><trkpt lat="42.79365749708214" lon="10.290937014161914"><ele>19.5</ele><time>2026-04-23T10:55:12Z</time></trkpt><trkpt lat="42.79375724886334" lon="10.291040601379965"><ele>19.25</ele><time>2026-04-23T10:55:13Z</time></trkpt><trkpt lat="42.79385953069434" lon="10.291140682318884"><ele>19.0</ele><time>2026-04-23T10:55:14Z</time></trkpt><trkpt lat="42.79394860996132" lon="10.291228627954945"><ele>19.0</ele><time>2026-04-23T10:55:15Z</time></trkpt><trkpt lat="42.79402887131259" lon="10.291320210905916"><ele>19.0</ele><time>2026-04-23T10:55:16Z</time></trkpt><trkpt lat="42.79411000791452" lon="10.29140684858625"><ele>19.0</ele><time>2026-04-23T10:55:17Z</time></trkpt><trkpt lat="42.794176929009794" lon="10.29151223932477"><ele>19.0</ele><time>2026-04-23T10:55:18Z</time></trkpt><trkpt lat="42.79425912349547" lon="10.291606856066176"><ele>19.0</ele><time>2026-04-23T10:55:19Z</time></trkpt><trkpt lat="42.79431016337777" lon="10.291742450737829"><ele>19.0</ele><time>2026-04-23T10:55:20Z</time></trkpt><trkpt lat="42.79436655475018" lon="10.291864270716038"><ele>19.0</ele><time>2026-04-23T10:55:21Z</time></trkpt><trkpt lat="42.794422009927864" lon="10.291994488595318"><ele>19.0</ele><time>2026-04-23T10:55:22Z</time></trkpt><trkpt lat="42.79448875521892" lon="10.292111641517991"><ele>19.0</ele><time>2026-04-23T10:55:23Z</time></trkpt><trkpt lat="42.794542185275304" lon="10.292248236830515"><ele>19.0</ele><time>2026-04-23T10:55:24Z</time></trkpt><trkpt lat="42.7945903633353" lon="10.292386461589889"><ele>19.0</ele><time>2026-04-23T10:55:25Z</time></trkpt><trkpt lat="42.79464882478037" lon="10.292521418529322"><ele>19.0</ele><time>2026-04-23T10:55:26Z</time></trkpt><trkpt lat="42.7946956017937" lon="10.292656010002695"><ele>19.0</ele><time>2026-04-23T10:55:27Z</time></trkpt><trkpt lat="42.794749973388335" lon="10.292793087217152"><ele>19.0</ele><time>2026-04-23T10:55:28Z</time></trkpt><trkpt lat="42.79480000583832" lon="10.292928367187306"><ele>19.0</ele><time>2026-04-23T10:55:29Z</time></trkpt><trkpt lat="42.79485199575227" lon="10.29306216579492"><ele>19.0</ele><time>2026-04-23T10:55:30Z</time></trkpt><trkpt lat="42.794903227206916" lon="10.293202306901108"><ele>19.0</ele><time>2026-04-23T10:55:31Z</time></trkpt><trkpt lat="42.794954255288694" lon="10.2933413623074"><ele>19.0</ele><time>2026-04-23T10:55:32Z</time></trkpt><trkpt lat="42.794984983751135" lon="10.29347984228481"><ele>19.0</ele><time>2026-04-23T10:55:33Z</time></trkpt><trkpt lat="42.79503793537345" lon="10.293614284868534"><ele>19.0</ele><time>2026-04-23T10:55:34Z</time></trkpt><trkpt lat="42.795087696294324" lon="10.293750628325713"><ele>19.0</ele><time>2026-04-23T10:55:35Z</time></trkpt><trkpt lat="42.79513314397967" lon="10.293878548306457"><ele>19.0</ele><time>2026-04-23T10:55:36Z</time></trkpt><trkpt lat="42.79517419136157" lon="10.293999376887792"><ele>19.0</ele><time>2026-04-23T10:55:37Z</time></trkpt><trkpt lat="42.79521199529577" lon="10.29410433174108"><ele>19.0</ele><time>2026-04-23T10:55:38Z</time></trkpt><trkpt lat="42.79524591001221" lon="10.294205586171065"><ele>19.0</ele><time>2026-04-23T10:55:39Z</time></trkpt><trkpt lat="42.795260528289326" lon="10.294300172751287"><ele>19.0</ele><time>2026-04-23T10:55:40Z</time></trkpt><trkpt lat="42.7953150248357" lon="10.294446307148302"><ele>19.0</ele><time>2026-04-23T10:55:42Z</time></trkpt><trkpt lat="42.79538421361839" lon="10.294557502927598"><ele>19.0</ele><time>2026-04-23T10:55:44Z</time></trkpt><trkpt lat="42.79546654926738" lon="10.294641250661089"><ele>19.0</ele><time>2026-04-23T10:55:46Z</time></trkpt><trkpt lat="42.7955288784371" lon="10.29460140597404"><ele>19.0</ele><time>2026-04-23T10:56:04Z</time></trkpt><trkpt lat="42.79559288163218" lon="10.294586062385104"><ele>19.0</ele><time>2026-04-23T10:56:06Z</time></trkpt><trkpt lat="42.795614506733585" lon="10.294708256268242"><ele>19.0</ele><time>2026-04-23T10:56:07Z</time></trkpt><trkpt lat="42.79567897197165" lon="10.294831287573897"><ele>19.0</ele><time>2026-04-23T10:56:09Z</time></trkpt><trkpt lat="42.79573833872064" lon="10.294974695778432"><ele>19.0</ele><time>2026-04-23T10:56:11Z</time></trkpt><trkpt lat="42.795766157912745" lon="10.295057409483892"><ele>18.666666666666664</ele><time>2026-04-23T10:56:12Z</time></trkpt><trkpt lat="42.79579266262769" lon="10.29514263000172"><ele>18.333333333333332</ele><time>2026-04-23T10:56:13Z</time></trkpt><trkpt lat="42.79582227638319" lon="10.29524012842067"><ele>18.0</ele><time>2026-04-23T10:56:14Z</time></trkpt><trkpt lat="42.79584793803831" lon="10.295349834455028"><ele>17.666666666666668</ele><time>2026-04-23T10:56:15Z</time></trkpt><trkpt lat="42.79587235479632" lon="10.295467735680562"><ele>17.333333333333336</ele><time>2026-04-23T10:56:16Z</time></trkpt><trkpt lat="42.795903555303056" lon="10.295597592819526"><ele>17.0</ele><time>2026-04-23T10:56:17Z</time></trkpt><trkpt lat="42.79593987480364" lon="10.295735147371788"><ele>16.5</ele><time>2026-04-23T10:56:18Z</time></trkpt><trkpt lat="42.79596951868283" lon="10.295883860737103"><ele>16.0</ele><time>2026-04-23T10:56:19Z</time></trkpt><trkpt lat="42.795999861365395" lon="10.296034048367995"><ele>15.5</ele><time>2026-04-23T10:56:20Z</time></trkpt><trkpt lat="42.79602940038554" lon="10.296187210458227"><ele>15.0</ele><time>2026-04-23T10:56:21Z</time></trkpt><trkpt lat="42.79606180662252" lon="10.296350433568815"><ele>17.5</ele><time>2026-04-23T10:56:22Z</time></trkpt><trkpt lat="42.79611076538384" lon="10.296514464063366"><ele>20.0</ele><time>2026-04-23T10:56:23Z</time></trkpt><trkpt lat="42.796154799737984" lon="10.296686291978496"><ele>22.5</ele><time>2026-04-23T10:56:24Z</time></trkpt><trkpt lat="42.79620740724405" lon="10.296849991463286"><ele>25.0</ele><time>2026-04-23T10:56:25Z</time></trkpt><trkpt lat="42.79626747451617" lon="10.29701487230654"><ele>25.0</ele><time>2026-04-23T10:56:26Z</time></trkpt><trkpt lat="42.79633123224151" lon="10.29718177010827"><ele>25.0</ele><time>2026-04-23T10:56:27Z</time></trkpt><trkpt lat="42.79638890292061" lon="10.29735408901432"><ele>25.0</ele><time>2026-04-23T10:56:28Z</time></trkpt><trkpt lat="42.79644678971583" lon="10.297516882487637"><ele>25.0</ele><time>2026-04-23T10:56:29Z</time></trkpt><trkpt lat="42.79650232380501" lon="10.297686187108166"><ele>23.25</ele><time>2026-04-23T10:56:30Z</time></trkpt><trkpt lat="42.79655532242276" lon="10.29784911878035"><ele>21.5</ele><time>2026-04-23T10:56:31Z</time></trkpt><trkpt lat="42.79661013293123" lon="10.298012657195825"><ele>19.75</ele><time>2026-04-23T10:56:32Z</time></trkpt><trkpt lat="42.796662053258125" lon="10.298181037344765"><ele>18.0</ele><time>2026-04-23T10:56:33Z</time></trkpt><trkpt lat="42.796721342951614" lon="10.298354454843956"><ele>17.75</ele><time>2026-04-23T10:56:34Z</time></trkpt><trkpt lat="42.79677814065502" lon="10.29852516178009"><ele>17.5</ele><time>2026-04-23T10:56:35Z</time></trkpt><trkpt lat="42.79684384062428" lon="10.298688820750748"><ele>17.25</ele><time>2026-04-23T10:56:36Z</time></trkpt><trkpt lat="42.79690500416532" lon="10.29885603667636"><ele>17.0</ele><time>2026-04-23T10:56:37Z</time></trkpt><trkpt lat="42.79696527015628" lon="10.299016189797875"><ele>16.0</ele><time>2026-04-23T10:56:38Z</time></trkpt><trkpt lat="42.79702207075442" lon="10.299173737051866"><ele>15.0</ele><time>2026-04-23T10:56:39Z</time></trkpt><trkpt lat="42.79708817541369" lon="10.2993293250112"><ele>14.0</ele><time>2026-04-23T10:56:40Z</time></trkpt><trkpt lat="42.79715842667515" lon="10.29948025547846"><ele>13.0</ele><time>2026-04-23T10:56:41Z</time></trkpt><trkpt lat="42.79724261188291" lon="10.29962958213031"><ele>12.5</ele><time>2026-04-23T10:56:42Z</time></trkpt><trkpt lat="42.797328147384995" lon="10.299757530757377"><ele>12.0</ele><time>2026-04-23T10:56:43Z</time></trkpt><trkpt lat="42.797427557745394" lon="10.299875959887173"><ele>11.5</ele><time>2026-04-23T10:56:44Z</time></trkpt><trkpt lat="42.79752446471959" lon="10.299987187318754"><ele>11.0</ele><time>2026-04-23T10:56:45Z</time></trkpt><trkpt lat="42.7976209499276" lon="10.300090350143828"><ele>11.0</ele><time>2026-04-23T10:56:46Z</time></trkpt><trkpt lat="42.79770244161523" lon="10.300191814013"><ele>11.0</ele><time>2026-04-23T10:56:47Z</time></trkpt><trkpt lat="42.79777540154852" lon="10.300295236476043"><ele>11.0</ele><time>2026-04-23T10:56:48Z</time></trkpt><trkpt lat="42.7978403765335" lon="10.30039930638685"><ele>11.0</ele><time>2026-04-23T10:56:49Z</time></trkpt><trkpt lat="42.79788458378359" lon="10.300515691338585"><ele>11.0</ele><time>2026-04-23T10:56:50Z</time></trkpt><trkpt lat="42.79790854111758" lon="10.30064732793171"><ele>11.0</ele><time>2026-04-23T10:56:51Z</time></trkpt><trkpt lat="42.79793982800487" lon="10.3007748264056"><ele>11.0</ele><time>2026-04-23T10:56:52Z</time></trkpt><trkpt lat="42.797942978129235" lon="10.300908401091347"><ele>11.0</ele><time>2026-04-23T10:56:53Z</time></trkpt><trkpt lat="42.7979403248041" lon="10.301041197994639"><ele>11.0</ele><time>2026-04-23T10:56:54Z</time></trkpt><trkpt lat="42.79793548876969" lon="10.301174993128274"><ele>11.0</ele><time>2026-04-23T10:56:55Z</time></trkpt><trkpt lat="42.7979269551108" lon="10.301310250436657"><ele>11.200000000000001</ele><time>2026-04-23T10:56:56Z</time></trkpt><trkpt lat="42.79792000542701" lon="10.30144992831528"><ele>11.4</ele><time>2026-04-23T10:56:57Z</time></trkpt><trkpt lat="42.797898087950074" lon="10.301593503569377"><ele>11.6</ele><time>2026-04-23T10:56:58Z</time></trkpt><trkpt lat="42.797862236624354" lon="10.301736076893548"><ele>11.8</ele><time>2026-04-23T10:56:59Z</time></trkpt><trkpt lat="42.7978498444739" lon="10.30188438163288"><ele>12.0</ele><time>2026-04-23T10:57:00Z</time></trkpt><trkpt lat="42.79783933798052" lon="10.302039981809559"><ele>12.0</ele><time>2026-04-23T10:57:01Z</time></trkpt><trkpt lat="42.797828765319956" lon="10.302189699537092"><ele>12.0</ele><time>2026-04-23T10:57:02Z</time></trkpt><trkpt lat="42.79781732295195" lon="10.302333407504339"><ele>12.0</ele><time>2026-04-23T10:57:03Z</time></trkpt><trkpt lat="42.797805259743626" lon="10.30248822011035"><ele>12.0</ele><time>2026-04-23T10:57:04Z</time></trkpt><trkpt lat="42.797795434178845" lon="10.302645286656102"><ele>12.0</ele><time>2026-04-23T10:57:05Z</time></trkpt><trkpt lat="42.79778300069755" lon="10.30280428216521"><ele>11.6</ele><time>2026-04-23T10:57:06Z</time></trkpt><trkpt lat="42.797783369415875" lon="10.302957201670088"><ele>11.2</ele><time>2026-04-23T10:57:07Z</time></trkpt><trkpt lat="42.79778706611301" lon="10.303108016177283"><ele>10.8</ele><time>2026-04-23T10:57:08Z</time></trkpt><trkpt lat="42.797801442798075" lon="10.30325196733988"><ele>10.4</ele><time>2026-04-23T10:57:09Z</time></trkpt><trkpt lat="42.79783566922411" lon="10.303393580967517"><ele>10.0</ele><time>2026-04-23T10:57:10Z</time></trkpt><trkpt lat="42.797894767782026" lon="10.303534915238885"><ele>9.0</ele><time>2026-04-23T10:57:11Z</time></trkpt><trkpt lat="42.79796431632599" lon="10.303645405717518"><ele>8.0</ele><time>2026-04-23T10:57:12Z</time></trkpt><trkpt lat="42.79805240693643" lon="10.303746832505887"><ele>7.0</ele><time>2026-04-23T10:57:13Z</time></trkpt><trkpt lat="42.79815528738811" lon="10.303835332587633"><ele>6.0</ele><time>2026-04-23T10:57:14Z</time></trkpt><trkpt lat="42.79825844124753" lon="10.303920366442945"><ele>5.75</ele><time>2026-04-23T10:57:15Z</time></trkpt><trkpt lat="42.798370580161325" lon="10.304006816223984"><ele>5.5</ele><time>2026-04-23T10:57:16Z</time></trkpt><trkpt lat="42.79846915713576" lon="10.304094459183007"><ele>5.25</ele><time>2026-04-23T10:57:17Z</time></trkpt><trkpt lat="42.798583211885486" lon="10.304181444102724"><ele>5.0</ele><time>2026-04-23T10:57:18Z</time></trkpt><trkpt lat="42.79870071111048" lon="10.304277651569787"><ele>5.5</ele><time>2026-04-23T10:57:19Z</time></trkpt><trkpt lat="42.79881163066341" lon="10.30436892335273"><ele>6.0</ele><time>2026-04-23T10:57:20Z</time></trkpt><trkpt lat="42.79892364381177" lon="10.30446238959611"><ele>6.5</ele><time>2026-04-23T10:57:21Z</time></trkpt><trkpt lat="42.799047970644004" lon="10.304554263761835"><ele>7.0</ele><time>2026-04-23T10:57:22Z</time></trkpt><trkpt lat="42.79915992063" lon="10.304647755311695"><ele>7.0</ele><time>2026-04-23T10:57:23Z</time></trkpt><trkpt lat="42.79927774831941" lon="10.304732984638417"><ele>7.0</ele><time>2026-04-23T10:57:24Z</time></trkpt><trkpt lat="42.79938501497258" lon="10.304818286316248"><ele>7.0</ele><time>2026-04-23T10:57:25Z</time></trkpt><trkpt lat="42.79948645238857" lon="10.304902450697401"><ele>7.0</ele><time>2026-04-23T10:57:26Z</time></trkpt><trkpt lat="42.79958123562989" lon="10.304991909645603"><ele>6.6</ele><time>2026-04-23T10:57:27Z</time></trkpt><trkpt lat="42.79968729034774" lon="10.305068580470481"><ele>6.199999999999999</ele><time>2026-04-23T10:57:28Z</time></trkpt><trkpt lat="42.79974274905375" lon="10.305175839679405"><ele>5.8</ele><time>2026-04-23T10:57:29Z</time></trkpt><trkpt lat="42.79983549411317" lon="10.305256979981618"><ele>5.4</ele><time>2026-04-23T10:57:30Z</time></trkpt><trkpt lat="42.799936758184614" lon="10.305343679217504"><ele>5.0</ele><time>2026-04-23T10:57:31Z</time></trkpt><trkpt lat="42.800033988575784" lon="10.30543103050549"><ele>5.0</ele><time>2026-04-23T10:57:32Z</time></trkpt><trkpt lat="42.80013051314762" lon="10.305520224008704"><ele>5.0</ele><time>2026-04-23T10:57:33Z</time></trkpt><trkpt lat="42.80022665886015" lon="10.30561051696568"><ele>5.0</ele><time>2026-04-23T10:57:34Z</time></trkpt><trkpt lat="42.80032747973751" lon="10.305695936996802"><ele>5.0</ele><time>2026-04-23T10:57:35Z</time></trkpt><trkpt lat="42.80050439811552" lon="10.305890149388716"><ele>4.8</ele><time>2026-04-23T10:57:37Z</time></trkpt><trkpt lat="42.80058657859435" lon="10.305990903337655"><ele>4.6</ele><time>2026-04-23T10:57:38Z</time></trkpt><trkpt lat="42.80066254986948" lon="10.306087321412129"><ele>4.4</ele><time>2026-04-23T10:57:39Z</time></trkpt><trkpt lat="42.800743773596416" lon="10.306185060450675"><ele>4.2</ele><time>2026-04-23T10:57:40Z</time></trkpt><trkpt lat="42.80083807144405" lon="10.306281838208585"><ele>4.0</ele><time>2026-04-23T10:57:41Z</time></trkpt><trkpt lat="42.800936609050716" lon="10.306379586325885"><ele>4.0</ele><time>2026-04-23T10:57:42Z</time></trkpt><trkpt lat="42.80102782871263" lon="10.30648239588191"><ele>4.0</ele><time>2026-04-23T10:57:43Z</time></trkpt><trkpt lat="42.80112624315801" lon="10.30657410521997"><ele>4.0</ele><time>2026-04-23T10:57:44Z</time></trkpt><trkpt lat="42.801228128454035" lon="10.306675241789968"><ele>4.0</ele><time>2026-04-23T10:57:45Z</time></trkpt><trkpt lat="42.8013106680298" lon="10.306790458590157"><ele>4.0</ele><time>2026-04-23T10:57:46Z</time></trkpt><trkpt lat="42.801401343078886" lon="10.306895970456008"><ele>4.0</ele><time>2026-04-23T10:57:47Z</time></trkpt><trkpt lat="42.801485736547676" lon="10.306987975220721"><ele>4.0</ele><time>2026-04-23T10:57:48Z</time></trkpt><trkpt lat="42.801560266399505" lon="10.307077825660004"><ele>4.0</ele><time>2026-04-23T10:57:49Z</time></trkpt><trkpt lat="42.80162855569193" lon="10.30715398932055"><ele>4.0</ele><time>2026-04-23T10:57:50Z</time></trkpt><trkpt lat="42.80169827256823" lon="10.30722027805632"><ele>3.9999999999999996</ele><time>2026-04-23T10:57:51Z</time></trkpt><trkpt lat="42.801745874701446" lon="10.30728272465802"><ele>4.0</ele><time>2026-04-23T10:57:52Z</time></trkpt><trkpt lat="42.801806499946366" lon="10.307350804172144"><ele>4.0</ele><time>2026-04-23T10:57:54Z</time></trkpt><trkpt lat="42.80186286146283" lon="10.307436636873488"><ele>4.0</ele><time>2026-04-23T10:57:57Z</time></trkpt><trkpt lat="42.80191915992125" lon="10.3075060245973"><ele>3.9999999999999996</ele><time>2026-04-23T10:58:00Z</time></trkpt><trkpt lat="42.80198449369557" lon="10.307492430061924"><ele>4.0</ele><time>2026-04-23T11:00:10Z</time></trkpt><trkpt lat="42.80206579142637" lon="10.307560090767117"><ele>4.0</ele><time>2026-04-23T11:00:41Z</time></trkpt><trkpt lat="42.80211532370474" lon="10.307615123084965"><ele>3.9999999999999996</ele><time>2026-04-23T11:00:42Z</time></trkpt><trkpt lat="42.80214870268229" lon="10.307693128084589"><ele>4.0</ele><time>2026-04-23T11:00:43Z</time></trkpt><trkpt lat="42.802182855172795" lon="10.30777677250309"><ele>4.0</ele><time>2026-04-23T11:00:44Z</time></trkpt><trkpt lat="42.8022119570058" lon="10.307856497414155"><ele>3.9999999999999996</ele><time>2026-04-23T11:00:45Z</time></trkpt><trkpt lat="42.802243838137144" lon="10.307973099167548"><ele>4.0</ele><time>2026-04-23T11:00:47Z</time></trkpt><trkpt lat="42.80226685190977" lon="10.308070850593927"><ele>4.0</ele><time>2026-04-23T11:00:51Z</time></trkpt><trkpt lat="42.802283818520586" lon="10.308169158640824"><ele>3.333333333333333</ele><time>2026-04-23T11:00:53Z</time></trkpt><trkpt lat="42.80230472674066" lon="10.30832765603189"><ele>2.6666666666666665</ele><time>2026-04-23T11:00:55Z</time></trkpt><trkpt lat="42.802314196143975" lon="10.308423878308467"><ele>2.0</ele><time>2026-04-23T11:00:56Z</time></trkpt><trkpt lat="42.802320512571704" lon="10.308531700138236"><ele>1.3333333333333333</ele><time>2026-04-23T11:00:57Z</time></trkpt><trkpt lat="42.802317429007246" lon="10.308641522247395"><ele>0.6666666666666666</ele><time>2026-04-23T11:00:58Z</time></trkpt><trkpt lat="42.80230765062122" lon="10.308736766059464"><ele>0.0</ele><time>2026-04-23T11:00:59Z</time></trkpt><trkpt lat="42.80228550255295" lon="10.308818733726993"><ele>-0.4</ele><time>2026-04-23T11:01:00Z</time></trkpt><trkpt lat="42.80223557804973" lon="10.308948858505124"><ele>-0.8</ele><time>2026-04-23T11:01:02Z</time></trkpt><trkpt lat="42.80218629708263" lon="10.30906478111074"><ele>-1.2000000000000002</ele><time>2026-04-23T11:01:04Z</time></trkpt><trkpt lat="42.80212737097072" lon="10.30920099389054"><ele>-1.6</ele><time>2026-04-23T11:01:06Z</time></trkpt><trkpt lat="42.80207592112213" lon="10.309328398166477"><ele>-2.0</ele><time>2026-04-23T11:01:08Z</time></trkpt><trkpt lat="42.802018370423525" lon="10.309471560646642"><ele>-2.0</ele><time>2026-04-23T11:01:10Z</time></trkpt><trkpt lat="42.801952854092626" lon="10.309627704882987"><ele>-2.0</ele><time>2026-04-23T11:01:12Z</time></trkpt><trkpt lat="42.80191626014498" lon="10.309720322983067"><ele>-2.0</ele><time>2026-04-23T11:01:13Z</time></trkpt><trkpt lat="42.80187344509337" lon="10.309821456054438"><ele>-2.0</ele><time>2026-04-23T11:01:14Z</time></trkpt><trkpt lat="42.801832132788306" lon="10.309904428817974"><ele>-2.0</ele><time>2026-04-23T11:01:15Z</time></trkpt><trkpt lat="42.801762430075414" lon="10.310048261548282"><ele>-1.6666666666666665</ele><time>2026-04-23T11:01:17Z</time></trkpt><trkpt lat="42.801726339527136" lon="10.310133222851503"><ele>-1.3333333333333333</ele><time>2026-04-23T11:01:18Z</time></trkpt><trkpt lat="42.80169197731052" lon="10.310219742535388"><ele>-1.0</ele><time>2026-04-23T11:01:19Z</time></trkpt><trkpt lat="42.80165100351129" lon="10.310312713628296"><ele>-0.6666666666666666</ele><time>2026-04-23T11:01:20Z</time></trkpt><trkpt lat="42.80160486207566" lon="10.310408896946686"><ele>-0.3333333333333333</ele><time>2026-04-23T11:01:21Z</time></trkpt><trkpt lat="42.80155964966547" lon="10.310516151421046"><ele>0.0</ele><time>2026-04-23T11:01:22Z</time></trkpt><trkpt lat="42.80151203327497" lon="10.310633412487078"><ele>0.0</ele><time>2026-04-23T11:01:23Z</time></trkpt><trkpt lat="42.801460146002114" lon="10.310754600035457"><ele>0.0</ele><time>2026-04-23T11:01:24Z</time></trkpt><trkpt lat="42.80140964251636" lon="10.310875172120072"><ele>0.0</ele><time>2026-04-23T11:01:25Z</time></trkpt><trkpt lat="42.801355279204614" lon="10.310995931907732"><ele>0.0</ele><time>2026-04-23T11:01:26Z</time></trkpt><trkpt lat="42.801298981898846" lon="10.311123192942578"><ele>0.0</ele><time>2026-04-23T11:01:27Z</time></trkpt><trkpt lat="42.80124242349662" lon="10.311251354624462"><ele>0.0</ele><time>2026-04-23T11:01:28Z</time></trkpt><trkpt lat="42.80118721324292" lon="10.311380822763843"><ele>0.0</ele><time>2026-04-23T11:01:29Z</time></trkpt><trkpt lat="42.8011252202929" lon="10.311515941284519"><ele>0.0</ele><time>2026-04-23T11:01:30Z</time></trkpt><trkpt lat="42.801063164174934" lon="10.311659683916108"><ele>0.0</ele><time>2026-04-23T11:01:31Z</time></trkpt><trkpt lat="42.80100050038979" lon="10.311807255027338"><ele>0.25</ele><time>2026-04-23T11:01:32Z</time></trkpt><trkpt lat="42.80093505166662" lon="10.311957945964014"><ele>0.5</ele><time>2026-04-23T11:01:33Z</time></trkpt><trkpt lat="42.80087227992471" lon="10.312112120671637"><ele>0.75</ele><time>2026-04-23T11:01:34Z</time></trkpt><trkpt lat="42.800807816182605" lon="10.312265963115808"><ele>1.0</ele><time>2026-04-23T11:01:35Z</time></trkpt><trkpt lat="42.80074541817908" lon="10.31242263653779"><ele>1.0</ele><time>2026-04-23T11:01:36Z</time></trkpt><trkpt lat="42.800678760066596" lon="10.312575869198735"><ele>1.0</ele><time>2026-04-23T11:01:37Z</time></trkpt><trkpt lat="42.800611481327756" lon="10.312731305438026"><ele>1.0</ele><time>2026-04-23T11:01:38Z</time></trkpt><trkpt lat="42.80054226780023" lon="10.312889088963841"><ele>1.0</ele><time>2026-04-23T11:01:39Z</time></trkpt><trkpt lat="42.80047316185982" lon="10.313049652970669"><ele>1.75</ele><time>2026-04-23T11:01:40Z</time></trkpt><trkpt lat="42.80040412589094" lon="10.313215302416339"><ele>2.5</ele><time>2026-04-23T11:01:41Z</time></trkpt><trkpt lat="42.800335153940566" lon="10.31337214515898"><ele>3.25</ele><time>2026-04-23T11:01:42Z</time></trkpt><trkpt lat="42.80026791107414" lon="10.313535285485512"><ele>4.0</ele><time>2026-04-23T11:01:43Z</time></trkpt><trkpt lat="42.80020504547022" lon="10.313701372827943"><ele>4.0</ele><time>2026-04-23T11:01:44Z</time></trkpt><trkpt lat="42.80014651968627" lon="10.313860783615697"><ele>4.0</ele><time>2026-04-23T11:01:45Z</time></trkpt><trkpt lat="42.80009357080962" lon="10.314025570680837"><ele>4.0</ele><time>2026-04-23T11:01:46Z</time></trkpt><trkpt lat="42.80005075821625" lon="10.314194994126689"><ele>4.0</ele><time>2026-04-23T11:01:47Z</time></trkpt><trkpt lat="42.8000189782886" lon="10.31436971366388"><ele>3.75</ele><time>2026-04-23T11:01:48Z</time></trkpt><trkpt lat="42.799998249180184" lon="10.314542779531102"><ele>3.5</ele><time>2026-04-23T11:01:49Z</time></trkpt><trkpt lat="42.79997662865617" lon="10.314720828351483"><ele>3.25</ele><time>2026-04-23T11:01:50Z</time></trkpt><trkpt lat="42.799956227231235" lon="10.314898186736981"><ele>3.0</ele><time>2026-04-23T11:01:51Z</time></trkpt><trkpt lat="42.799934721830454" lon="10.315075317180325"><ele>2.8</ele><time>2026-04-23T11:01:52Z</time></trkpt><trkpt lat="42.799902401124626" lon="10.31524517263795"><ele>2.5999999999999996</ele><time>2026-04-23T11:01:53Z</time></trkpt><trkpt lat="42.799885394657984" lon="10.315402615666528"><ele>2.4000000000000004</ele><time>2026-04-23T11:01:54Z</time></trkpt><trkpt lat="42.79987062175194" lon="10.315542644148032"><ele>2.2</ele><time>2026-04-23T11:01:55Z</time></trkpt><trkpt lat="42.79987260761822" lon="10.315663920443892"><ele>2.0</ele><time>2026-04-23T11:01:56Z</time></trkpt><trkpt lat="42.799857570702414" lon="10.315781656881601"><ele>1.9999999999999998</ele><time>2026-04-23T11:01:57Z</time></trkpt><trkpt lat="42.799843208142434" lon="10.315899408700627"><ele>2.0</ele><time>2026-04-23T11:01:58Z</time></trkpt><trkpt lat="42.799833120322766" lon="10.316012705539794"><ele>2.0</ele><time>2026-04-23T11:01:59Z</time></trkpt><trkpt lat="42.799820884965264" lon="10.316127566787722"><ele>2.0</ele><time>2026-04-23T11:02:00Z</time></trkpt><trkpt lat="42.79980929487472" lon="10.316238470755682"><ele>1.9999999999999998</ele><time>2026-04-23T11:02:01Z</time></trkpt><trkpt lat="42.79979628398185" lon="10.316349623937686"><ele>2.0</ele><time>2026-04-23T11:02:02Z</time></trkpt><trkpt lat="42.79978328990004" lon="10.31646220036718"><ele>1.857142857142857</ele><time>2026-04-23T11:02:03Z</time></trkpt><trkpt lat="42.79977308756544" lon="10.316567402163672"><ele>1.714285714285714</ele><time>2026-04-23T11:02:04Z</time></trkpt><trkpt lat="42.79976185405813" lon="10.316658508233406"><ele>1.5714285714285714</ele><time>2026-04-23T11:02:05Z</time></trkpt><trkpt lat="42.79975093249874" lon="10.316747830827978"><ele>1.4285714285714284</ele><time>2026-04-23T11:02:06Z</time></trkpt><trkpt lat="42.79974054429003" lon="10.316838888134953"><ele>1.2857142857142856</ele><time>2026-04-23T11:02:07Z</time></trkpt><trkpt lat="42.7997315051084" lon="10.316933673181802"><ele>1.1428571428571428</ele><time>2026-04-23T11:02:08Z</time></trkpt><trkpt lat="42.79972099235668" lon="10.317027003057715"><ele>1.0</ele><time>2026-04-23T11:02:09Z</time></trkpt><trkpt lat="42.79971275506694" lon="10.317115100680923"><ele>1.4</ele><time>2026-04-23T11:02:10Z</time></trkpt><trkpt lat="42.799695956569" lon="10.317279708225955"><ele>1.8</ele><time>2026-04-23T11:02:12Z</time></trkpt><trkpt lat="42.79967631974939" lon="10.317448518857587"><ele>2.1999999999999997</ele><time>2026-04-23T11:02:14Z</time></trkpt><trkpt lat="42.79965626956256" lon="10.31760886717969"><ele>2.6</ele><time>2026-04-23T11:02:16Z</time></trkpt><trkpt lat="42.799645769714196" lon="10.317699246651353"><ele>3.0</ele><time>2026-04-23T11:02:17Z</time></trkpt><trkpt lat="42.79963567677751" lon="10.317784351418856"><ele>3.0</ele><time>2026-04-23T11:02:18Z</time></trkpt><trkpt lat="42.79962217937595" lon="10.317924029051596"><ele>3.0</ele><time>2026-04-23T11:02:20Z</time></trkpt><trkpt lat="42.799611657458485" lon="10.318069317219"><ele>3.0</ele><time>2026-04-23T11:02:22Z</time></trkpt><trkpt lat="42.79960625005121" lon="10.318232836596863"><ele>3.0</ele><time>2026-04-23T11:02:24Z</time></trkpt><trkpt lat="42.799599361277444" lon="10.318386728529484"><ele>3.0</ele><time>2026-04-23T11:02:26Z</time></trkpt><trkpt lat="42.79959388962813" lon="10.318476577199156"><ele>3.0</ele><time>2026-04-23T11:02:27Z</time></trkpt><trkpt lat="42.799594564150475" lon="10.318564617523215"><ele>3.0</ele><time>2026-04-23T11:02:28Z</time></trkpt><trkpt lat="42.79959215879158" lon="10.31865079739359"><ele>3.0</ele><time>2026-04-23T11:02:29Z</time></trkpt><trkpt lat="42.79955539130106" lon="10.318820986430385"><ele>3.0</ele><time>2026-04-23T11:02:31Z</time></trkpt><trkpt lat="42.79952827698169" lon="10.318912106142932"><ele>3.0</ele><time>2026-04-23T11:02:32Z</time></trkpt><trkpt lat="42.79950407322141" lon="10.319017202700138"><ele>3.0</ele><time>2026-04-23T11:02:33Z</time></trkpt><trkpt lat="42.79948705282821" lon="10.319129675067886"><ele>3.0</ele><time>2026-04-23T11:02:34Z</time></trkpt><trkpt lat="42.79947161023637" lon="10.319257564740383"><ele>3.0</ele><time>2026-04-23T11:02:35Z</time></trkpt><trkpt lat="42.79945759340141" lon="10.319389664097958"><ele>3.0</ele><time>2026-04-23T11:02:36Z</time></trkpt><trkpt lat="42.79944146287554" lon="10.319528895711425"><ele>3.0</ele><time>2026-04-23T11:02:37Z</time></trkpt><trkpt lat="42.79942740144566" lon="10.319681430695097"><ele>3.0</ele><time>2026-04-23T11:02:38Z</time></trkpt><trkpt lat="42.79941266340459" lon="10.319839214643238"><ele>3.0</ele><time>2026-04-23T11:02:39Z</time></trkpt><trkpt lat="42.79939397783397" lon="10.319994161027184"><ele>3.0</ele><time>2026-04-23T11:02:40Z</time></trkpt><trkpt lat="42.79937499129843" lon="10.320154151461923"><ele>3.0</ele><time>2026-04-23T11:02:41Z</time></trkpt><trkpt lat="42.799355979717085" lon="10.320314232365716"><ele>3.0</ele><time>2026-04-23T11:02:42Z</time></trkpt><trkpt lat="42.79933876053696" lon="10.320476589397366"><ele>3.75</ele><time>2026-04-23T11:02:43Z</time></trkpt><trkpt lat="42.79932042266444" lon="10.320649316746977"><ele>4.5</ele><time>2026-04-23T11:02:44Z</time></trkpt><trkpt lat="42.79930456895294" lon="10.3208202303339"><ele>5.25</ele><time>2026-04-23T11:02:45Z</time></trkpt><trkpt lat="42.79928936902097" lon="10.320994988338853"><ele>6.0</ele><time>2026-04-23T11:02:46Z</time></trkpt><trkpt lat="42.7992723413326" lon="10.321168254060513"><ele>6.0</ele><time>2026-04-23T11:02:47Z</time></trkpt><trkpt lat="42.79925732666151" lon="10.321344393606275"><ele>6.0</ele><time>2026-04-23T11:02:48Z</time></trkpt><trkpt lat="42.79924011852336" lon="10.321515977798036"><ele>6.0</ele><time>2026-04-23T11:02:49Z</time></trkpt><trkpt lat="42.799219604061875" lon="10.321687105889545"><ele>6.0</ele><time>2026-04-23T11:02:50Z</time></trkpt><trkpt lat="42.79920010319531" lon="10.32185230511762"><ele>5.75</ele><time>2026-04-23T11:02:51Z</time></trkpt><trkpt lat="42.79918499301317" lon="10.322013217496288"><ele>5.5</ele><time>2026-04-23T11:02:52Z</time></trkpt><trkpt lat="42.79916791926541" lon="10.322176418262222"><ele>5.25</ele><time>2026-04-23T11:02:53Z</time></trkpt><trkpt lat="42.799150820416294" lon="10.322344413795848"><ele>5.0</ele><time>2026-04-23T11:02:54Z</time></trkpt><trkpt lat="42.79913418805512" lon="10.322507420371831"><ele>5.5</ele><time>2026-04-23T11:02:55Z</time></trkpt><trkpt lat="42.799115872438705" lon="10.322670856223498"><ele>6.0</ele><time>2026-04-23T11:02:56Z</time></trkpt><trkpt lat="42.79909904971566" lon="10.322835336722838"><ele>6.5</ele><time>2026-04-23T11:02:57Z</time></trkpt><trkpt lat="42.79907911238068" lon="10.32300216420345"><ele>7.0</ele><time>2026-04-23T11:02:58Z</time></trkpt><trkpt lat="42.799062689578605" lon="10.323171485455667"><ele>7.0</ele><time>2026-04-23T11:02:59Z</time></trkpt><trkpt lat="42.7990419653799" lon="10.32334037933281"><ele>7.0</ele><time>2026-04-23T11:03:00Z</time></trkpt><trkpt lat="42.799021782302944" lon="10.323509155640759"><ele>7.0</ele><time>2026-04-23T11:03:01Z</time></trkpt><trkpt lat="42.799000670122666" lon="10.323681744370841"><ele>7.0</ele><time>2026-04-23T11:03:02Z</time></trkpt><trkpt lat="42.798983801580064" lon="10.323856293596279"><ele>7.0</ele><time>2026-04-23T11:03:03Z</time></trkpt><trkpt lat="42.798965248393955" lon="10.324037652140468"><ele>7.0</ele><time>2026-04-23T11:03:04Z</time></trkpt><trkpt lat="42.7989489000203" lon="10.324210653904892"><ele>7.0</ele><time>2026-04-23T11:03:05Z</time></trkpt><trkpt lat="42.79892877765732" lon="10.324389861441878"><ele>7.0</ele><time>2026-04-23T11:03:06Z</time></trkpt><trkpt lat="42.79890891987449" lon="10.324572754247571"><ele>7.0</ele><time>2026-04-23T11:03:07Z</time></trkpt><trkpt lat="42.79889075495867" lon="10.324752141530741"><ele>7.0</ele><time>2026-04-23T11:03:08Z</time></trkpt><trkpt lat="42.798871043170216" lon="10.324934000140205"><ele>7.0</ele><time>2026-04-23T11:03:09Z</time></trkpt><trkpt lat="42.798850715904095" lon="10.325113874142241"><ele>7.0</ele><time>2026-04-23T11:03:10Z</time></trkpt><trkpt lat="42.79883142368029" lon="10.325300431128213"><ele>7.0</ele><time>2026-04-23T11:03:11Z</time></trkpt><trkpt lat="42.798814053377136" lon="10.325486346548589"><ele>7.0</ele><time>2026-04-23T11:03:12Z</time></trkpt><trkpt lat="42.798792530803865" lon="10.325667256385781"><ele>7.0</ele><time>2026-04-23T11:03:13Z</time></trkpt><trkpt lat="42.79877174654983" lon="10.325846456041813"><ele>7.0</ele><time>2026-04-23T11:03:14Z</time></trkpt><trkpt lat="42.7987511743441" lon="10.326024860890108"><ele>6.75</ele><time>2026-04-23T11:03:15Z</time></trkpt><trkpt lat="42.79873245495542" lon="10.32619824298578"><ele>6.5</ele><time>2026-04-23T11:03:16Z</time></trkpt><trkpt lat="42.79871352858202" lon="10.32637068790267"><ele>6.25</ele><time>2026-04-23T11:03:17Z</time></trkpt><trkpt lat="42.798694348942895" lon="10.326530327640814"><ele>6.0</ele><time>2026-04-23T11:03:18Z</time></trkpt><trkpt lat="42.79867664664177" lon="10.326673225726953"><ele>5.833333333333333</ele><time>2026-04-23T11:03:19Z</time></trkpt><trkpt lat="42.79866020055804" lon="10.326790777519847"><ele>5.666666666666667</ele><time>2026-04-23T11:03:20Z</time></trkpt><trkpt lat="42.79864926165888" lon="10.326879721311625"><ele>5.5</ele><time>2026-04-23T11:03:21Z</time></trkpt><trkpt lat="42.7986340331991" lon="10.326994833862331"><ele>5.333333333333334</ele><time>2026-04-23T11:03:23Z</time></trkpt><trkpt lat="42.79862360262003" lon="10.327084473571468"><ele>5.166666666666667</ele><time>2026-04-23T11:03:25Z</time></trkpt><trkpt lat="42.79861028493487" lon="10.32722685158362"><ele>5.0</ele><time>2026-04-23T11:03:27Z</time></trkpt><trkpt lat="42.79859675144048" lon="10.32733659001449"><ele>5.333333333333334</ele><time>2026-04-23T11:03:29Z</time></trkpt><trkpt lat="42.798572255102535" lon="10.327461380363513"><ele>5.666666666666667</ele><time>2026-04-23T11:04:26Z</time></trkpt><trkpt lat="42.798561481047805" lon="10.32761857737176"><ele>6.0</ele><time>2026-04-23T11:04:28Z</time></trkpt><trkpt lat="42.7985496786347" lon="10.327713563841673"><ele>6.333333333333334</ele><time>2026-04-23T11:04:29Z</time></trkpt><trkpt lat="42.79853554553329" lon="10.327821069552915"><ele>6.666666666666667</ele><time>2026-04-23T11:04:30Z</time></trkpt><trkpt lat="42.79851486879542" lon="10.327935847921616"><ele>7.0</ele><time>2026-04-23T11:04:31Z</time></trkpt><trkpt lat="42.79846953002216" lon="10.328056967232326"><ele>8.399999999999999</ele><time>2026-04-23T11:04:32Z</time></trkpt><trkpt lat="42.79841307013652" lon="10.328164586561101"><ele>9.799999999999999</ele><time>2026-04-23T11:04:33Z</time></trkpt><trkpt lat="42.79835372716358" lon="10.328281547992837"><ele>11.2</ele><time>2026-04-23T11:04:34Z</time></trkpt><trkpt lat="42.798293149956265" lon="10.328403645974088"><ele>12.6</ele><time>2026-04-23T11:04:35Z</time></trkpt><trkpt lat="42.798229843086354" lon="10.328527558071965"><ele>14.0</ele><time>2026-04-23T11:04:36Z</time></trkpt><trkpt lat="42.79816230349342" lon="10.32865400560407"><ele>14.0</ele><time>2026-04-23T11:04:37Z</time></trkpt><trkpt lat="42.79809440563645" lon="10.328781072171314"><ele>14.0</ele><time>2026-04-23T11:04:38Z</time></trkpt><trkpt lat="42.79803001033165" lon="10.328911831702847"><ele>14.0</ele><time>2026-04-23T11:04:39Z</time></trkpt><trkpt lat="42.797966543573004" lon="10.329042954853215"><ele>14.0</ele><time>2026-04-23T11:04:40Z</time></trkpt><trkpt lat="42.797900777814675" lon="10.329170464380201"><ele>15.399999999999999</ele><time>2026-04-23T11:04:41Z</time></trkpt><trkpt lat="42.79783807883813" lon="10.329293877638245"><ele>16.799999999999997</ele><time>2026-04-23T11:04:42Z</time></trkpt><trkpt lat="42.79776574057779" lon="10.32940286682275"><ele>18.200000000000003</ele><time>2026-04-23T11:04:43Z</time></trkpt><trkpt lat="42.79768318040503" lon="10.329496270885121"><ele>19.6</ele><time>2026-04-23T11:04:44Z</time></trkpt><trkpt lat="42.79758399074322" lon="10.329559154371157"><ele>21.0</ele><time>2026-04-23T11:04:45Z</time></trkpt><trkpt lat="42.79747900728209" lon="10.329606852411144"><ele>21.6</ele><time>2026-04-23T11:04:46Z</time></trkpt><trkpt lat="42.79737767247532" lon="10.329649575299593"><ele>22.200000000000003</ele><time>2026-04-23T11:04:47Z</time></trkpt><trkpt lat="42.79727509915188" lon="10.329682482133443"><ele>22.799999999999997</ele><time>2026-04-23T11:04:48Z</time></trkpt><trkpt lat="42.79717236298504" lon="10.329690617375375"><ele>23.4</ele><time>2026-04-23T11:04:49Z</time></trkpt><trkpt lat="42.79706897469148" lon="10.329679077687425"><ele>24.0</ele><time>2026-04-23T11:04:50Z</time></trkpt><trkpt lat="42.79697863731633" lon="10.329668403200584"><ele>24.0</ele><time>2026-04-23T11:04:51Z</time></trkpt><trkpt lat="42.79690577478969" lon="10.329666057996493"><ele>24.0</ele><time>2026-04-23T11:04:52Z</time></trkpt><trkpt lat="42.79684348385523" lon="10.329684358033871"><ele>24.0</ele><time>2026-04-23T11:04:53Z</time></trkpt><trkpt lat="42.79674482889528" lon="10.32980966402638"><ele>24.0</ele><time>2026-04-23T11:04:55Z</time></trkpt><trkpt lat="42.796726795771015" lon="10.32990906494176"><ele>24.0</ele><time>2026-04-23T11:04:56Z</time></trkpt><trkpt lat="42.79673763638368" lon="10.330009675992574"><ele>24.0</ele><time>2026-04-23T11:04:57Z</time></trkpt><trkpt lat="42.796780739407616" lon="10.330090189926928"><ele>25.0</ele><time>2026-04-23T11:04:58Z</time></trkpt><trkpt lat="42.79684072488268" lon="10.330150002230818"><ele>26.0</ele><time>2026-04-23T11:04:59Z</time></trkpt><trkpt lat="42.796916272964" lon="10.330176731552388"><ele>27.0</ele><time>2026-04-23T11:05:00Z</time></trkpt><trkpt lat="42.79700028581311" lon="10.3301675909574"><ele>28.0</ele><time>2026-04-23T11:05:01Z</time></trkpt><trkpt lat="42.797088502915855" lon="10.33013349690376"><ele>29.0</ele><time>2026-04-23T11:05:02Z</time></trkpt><trkpt lat="42.79717496816349" lon="10.330088375709455"><ele>30.0</ele><time>2026-04-23T11:05:03Z</time></trkpt><trkpt lat="42.79726519519004" lon="10.330048516261233"><ele>30.0</ele><time>2026-04-23T11:05:04Z</time></trkpt><trkpt lat="42.797359229550594" lon="10.33001650187536"><ele>30.0</ele><time>2026-04-23T11:05:05Z</time></trkpt><trkpt lat="42.797447989738295" lon="10.329982838054207"><ele>30.0</ele><time>2026-04-23T11:05:06Z</time></trkpt><trkpt lat="42.79752763487294" lon="10.329960354328362"><ele>30.0</ele><time>2026-04-23T11:05:07Z</time></trkpt><trkpt lat="42.79760688531237" lon="10.329965674295185"><ele>30.0</ele><time>2026-04-23T11:05:08Z</time></trkpt><trkpt lat="42.79768741782672" lon="10.330011217370574"><ele>30.0</ele><time>2026-04-23T11:05:09Z</time></trkpt><trkpt lat="42.79775973060647" lon="10.330082116595156"><ele>30.0</ele><time>2026-04-23T11:05:10Z</time></trkpt><trkpt lat="42.79781435123485" lon="10.330176374686223"><ele>30.0</ele><time>2026-04-23T11:05:11Z</time></trkpt><trkpt lat="42.79785583037629" lon="10.330274951661792"><ele>30.0</ele><time>2026-04-23T11:05:12Z</time></trkpt><trkpt lat="42.797900226329126" lon="10.33036479208678"><ele>30.0</ele><time>2026-04-23T11:05:13Z</time></trkpt><trkpt lat="42.797951024953626" lon="10.330439241653123"><ele>30.0</ele><time>2026-04-23T11:05:14Z</time></trkpt><trkpt lat="42.79800728152509" lon="10.330489519841606"><ele>30.0</ele><time>2026-04-23T11:05:15Z</time></trkpt><trkpt lat="42.79808113222081" lon="10.330524198779768"><ele>30.0</ele><time>2026-04-23T11:05:16Z</time></trkpt><trkpt lat="42.79815985106576" lon="10.330547341459452"><ele>30.0</ele><time>2026-04-23T11:05:17Z</time></trkpt><trkpt lat="42.7982403630841" lon="10.330535804187473"><ele>30.0</ele><time>2026-04-23T11:05:18Z</time></trkpt><trkpt lat="42.798316829441845" lon="10.330491752455513"><ele>30.0</ele><time>2026-04-23T11:05:19Z</time></trkpt><trkpt lat="42.798386029247055" lon="10.330418906750774"><ele>30.0</ele><time>2026-04-23T11:05:20Z</time></trkpt><trkpt lat="42.798447322883064" lon="10.330339574650337"><ele>30.0</ele><time>2026-04-23T11:05:21Z</time></trkpt><trkpt lat="42.798505096835434" lon="10.330253511689243"><ele>29.5</ele><time>2026-04-23T11:05:22Z</time></trkpt><trkpt lat="42.798570657966906" lon="10.330176599167045"><ele>29.0</ele><time>2026-04-23T11:05:23Z</time></trkpt><trkpt lat="42.7986473247284" lon="10.33012466298704"><ele>28.5</ele><time>2026-04-23T11:05:24Z</time></trkpt><trkpt lat="42.79873066496873" lon="10.330108863406762"><ele>28.0</ele><time>2026-04-23T11:05:25Z</time></trkpt><trkpt lat="42.79881269664543" lon="10.330137944978178"><ele>27.5</ele><time>2026-04-23T11:05:26Z</time></trkpt><trkpt lat="42.79888040689719" lon="10.330204160227067"><ele>27.0</ele><time>2026-04-23T11:05:27Z</time></trkpt><trkpt lat="42.79893093475871" lon="10.330294964872317"><ele>27.0</ele><time>2026-04-23T11:05:28Z</time></trkpt><trkpt lat="42.79896787051766" lon="10.330406258418584"><ele>27.000000000000004</ele><time>2026-04-23T11:05:29Z</time></trkpt><trkpt lat="42.79898585281269" lon="10.330531391017802"><ele>27.000000000000004</ele><time>2026-04-23T11:05:30Z</time></trkpt><trkpt lat="42.79899229283351" lon="10.330664675696589"><ele>27.0</ele><time>2026-04-23T11:05:31Z</time></trkpt><trkpt lat="42.79900068258651" lon="10.330802168628965"><ele>27.0</ele><time>2026-04-23T11:05:32Z</time></trkpt><trkpt lat="42.799012972995364" lon="10.330938328937027"><ele>29.6</ele><time>2026-04-23T11:05:33Z</time></trkpt><trkpt lat="42.79903964024201" lon="10.331072029124353"><ele>32.2</ele><time>2026-04-23T11:05:34Z</time></trkpt><trkpt lat="42.79908120396037" lon="10.33119315424351"><ele>34.8</ele><time>2026-04-23T11:05:35Z</time></trkpt><trkpt lat="42.79914158290736" lon="10.331294936065271"><ele>37.4</ele><time>2026-04-23T11:05:36Z</time></trkpt><trkpt lat="42.799222535399814" lon="10.331385046519522"><ele>40.0</ele><time>2026-04-23T11:05:37Z</time></trkpt><trkpt lat="42.79931567802593" lon="10.331460362608222"><ele>41.0</ele><time>2026-04-23T11:05:38Z</time></trkpt><trkpt lat="42.79940961083181" lon="10.331521442434418"><ele>42.0</ele><time>2026-04-23T11:05:39Z</time></trkpt><trkpt lat="42.799498476919624" lon="10.331587401727063"><ele>43.0</ele><time>2026-04-23T11:05:40Z</time></trkpt><trkpt lat="42.799569363736936" lon="10.331688160923672"><ele>44.0</ele><time>2026-04-23T11:05:41Z</time></trkpt><trkpt lat="42.79962903590205" lon="10.331804991978462"><ele>45.0</ele><time>2026-04-23T11:05:42Z</time></trkpt><trkpt lat="42.799688759853225" lon="10.331920930677226"><ele>45.0</ele><time>2026-04-23T11:05:43Z</time></trkpt><trkpt lat="42.799742571734846" lon="10.33203089192946"><ele>45.0</ele><time>2026-04-23T11:05:44Z</time></trkpt><trkpt lat="42.799781977656664" lon="10.332138687070112"><ele>45.0</ele><time>2026-04-23T11:05:45Z</time></trkpt><trkpt lat="42.799792795041476" lon="10.33225445952625"><ele>45.0</ele><time>2026-04-23T11:05:46Z</time></trkpt><trkpt lat="42.79977346115026" lon="10.332374112236673"><ele>45.0</ele><time>2026-04-23T11:05:47Z</time></trkpt><trkpt lat="42.799729194623374" lon="10.332484212977253"><ele>44.6</ele><time>2026-04-23T11:05:48Z</time></trkpt><trkpt lat="42.79966572599157" lon="10.332552738546285"><ele>44.2</ele><time>2026-04-23T11:05:49Z</time></trkpt><trkpt lat="42.79958549422413" lon="10.332591389436377"><ele>43.8</ele><time>2026-04-23T11:05:50Z</time></trkpt><trkpt lat="42.79948897182951" lon="10.332587523249934"><ele>43.4</ele><time>2026-04-23T11:05:51Z</time></trkpt><trkpt lat="42.799385262497594" lon="10.332550974867182"><ele>43.0</ele><time>2026-04-23T11:05:52Z</time></trkpt><trkpt lat="42.79928020362081" lon="10.332490579903945"><ele>44.2</ele><time>2026-04-23T11:05:53Z</time></trkpt><trkpt lat="42.79916398582832" lon="10.332441704039072"><ele>45.4</ele><time>2026-04-23T11:05:54Z</time></trkpt><trkpt lat="42.7990514395707" lon="10.332402064561927"><ele>46.6</ele><time>2026-04-23T11:05:55Z</time></trkpt><trkpt lat="42.798945172059746" lon="10.332372430617948"><ele>47.800000000000004</ele><time>2026-04-23T11:05:56Z</time></trkpt><trkpt lat="42.798846410340346" lon="10.332367292685444"><ele>49.0</ele><time>2026-04-23T11:05:57Z</time></trkpt><trkpt lat="42.79875259514255" lon="10.332396201839078"><ele>49.0</ele><time>2026-04-23T11:05:58Z</time></trkpt><trkpt lat="42.798665130984126" lon="10.332456427730355"><ele>49.0</ele><time>2026-04-23T11:05:59Z</time></trkpt><trkpt lat="42.79858701031753" lon="10.332547002950127"><ele>49.0</ele><time>2026-04-23T11:06:00Z</time></trkpt><trkpt lat="42.7985223952144" lon="10.332663049356265"><ele>49.0</ele><time>2026-04-23T11:06:01Z</time></trkpt><trkpt lat="42.798472289151164" lon="10.332793674721836"><ele>49.0</ele><time>2026-04-23T11:06:02Z</time></trkpt><trkpt lat="42.798435679032174" lon="10.332931582033549"><ele>48.166666666666664</ele><time>2026-04-23T11:06:03Z</time></trkpt><trkpt lat="42.79840593427304" lon="10.333052173992963"><ele>47.33333333333333</ele><time>2026-04-23T11:06:04Z</time></trkpt><trkpt lat="42.79836937797951" lon="10.33314507847362"><ele>46.5</ele><time>2026-04-23T11:06:05Z</time></trkpt><trkpt lat="42.79831122892257" lon="10.333221753693968"><ele>45.666666666666664</ele><time>2026-04-23T11:06:06Z</time></trkpt><trkpt lat="42.798235757143125" lon="10.333262520304078"><ele>44.83333333333333</ele><time>2026-04-23T11:06:07Z</time></trkpt><trkpt lat="42.79815297708757" lon="10.333266622752637"><ele>44.0</ele><time>2026-04-23T11:06:08Z</time></trkpt><trkpt lat="42.79806581367524" lon="10.333230399402899"><ele>44.0</ele><time>2026-04-23T11:06:09Z</time></trkpt><trkpt lat="42.79798021700723" lon="10.333181949796185"><ele>44.0</ele><time>2026-04-23T11:06:10Z</time></trkpt><trkpt lat="42.79789299192274" lon="10.333118623361862"><ele>44.0</ele><time>2026-04-23T11:06:11Z</time></trkpt><trkpt lat="42.797794609327994" lon="10.333084399980214"><ele>44.0</ele><time>2026-04-23T11:06:12Z</time></trkpt><trkpt lat="42.79768982633972" lon="10.333090129367372"><ele>44.0</ele><time>2026-04-23T11:06:13Z</time></trkpt><trkpt lat="42.79758483935482" lon="10.33312121936792"><ele>44.6</ele><time>2026-04-23T11:06:14Z</time></trkpt><trkpt lat="42.7974838272654" lon="10.333177557525781"><ele>45.2</ele><time>2026-04-23T11:06:15Z</time></trkpt><trkpt lat="42.797388808482296" lon="10.333255427762866"><ele>45.800000000000004</ele><time>2026-04-23T11:06:16Z</time></trkpt><trkpt lat="42.79730178906955" lon="10.33333019274067"><ele>46.400000000000006</ele><time>2026-04-23T11:06:17Z</time></trkpt><trkpt lat="42.79721159552134" lon="10.333377214011797"><ele>47.0</ele><time>2026-04-23T11:06:18Z</time></trkpt><trkpt lat="42.7971083370931" lon="10.333391501325165"><ele>47.0</ele><time>2026-04-23T11:06:19Z</time></trkpt><trkpt lat="42.79700012073882" lon="10.333377061239933"><ele>47.0</ele><time>2026-04-23T11:06:20Z</time></trkpt><trkpt lat="42.79688826339418" lon="10.33335463644269"><ele>47.0</ele><time>2026-04-23T11:06:21Z</time></trkpt><trkpt lat="42.796781091103874" lon="10.33333454746157"><ele>47.0</ele><time>2026-04-23T11:06:22Z</time></trkpt><trkpt lat="42.79668265071766" lon="10.333322573292863"><ele>47.0</ele><time>2026-04-23T11:06:23Z</time></trkpt><trkpt lat="42.79659921566012" lon="10.333337666865255"><ele>48.0</ele><time>2026-04-23T11:06:24Z</time></trkpt><trkpt lat="42.79653063640714" lon="10.3333730593952"><ele>49.0</ele><time>2026-04-23T11:06:25Z</time></trkpt><trkpt lat="42.796467817250814" lon="10.33344387233292"><ele>50.0</ele><time>2026-04-23T11:06:26Z</time></trkpt><trkpt lat="42.79642464976859" lon="10.333545991841063"><ele>51.0</ele><time>2026-04-23T11:06:27Z</time></trkpt><trkpt lat="42.79640438119459" lon="10.333668959861294"><ele>52.00000000000001</ele><time>2026-04-23T11:06:28Z</time></trkpt><trkpt lat="42.79640801153254" lon="10.333805316807872"><ele>53.0</ele><time>2026-04-23T11:06:29Z</time></trkpt><trkpt lat="42.79641712569471" lon="10.333949689891083"><ele>50.599999999999994</ele><time>2026-04-23T11:06:30Z</time></trkpt><trkpt lat="42.79641730096068" lon="10.334102751164473"><ele>48.199999999999996</ele><time>2026-04-23T11:06:31Z</time></trkpt><trkpt lat="42.796415338906584" lon="10.334257045144984"><ele>45.8</ele><time>2026-04-23T11:06:32Z</time></trkpt><trkpt lat="42.79641258506697" lon="10.33441298990385"><ele>43.4</ele><time>2026-04-23T11:06:33Z</time></trkpt><trkpt lat="42.79641118542692" lon="10.33455827381159"><ele>41.0</ele><time>2026-04-23T11:06:34Z</time></trkpt><trkpt lat="42.79641325720381" lon="10.334699705994073"><ele>40.0</ele><time>2026-04-23T11:06:35Z</time></trkpt><trkpt lat="42.796415234010745" lon="10.334830596119174"><ele>39.0</ele><time>2026-04-23T11:06:36Z</time></trkpt><trkpt lat="42.79641256884795" lon="10.334958156924879"><ele>38.0</ele><time>2026-04-23T11:06:37Z</time></trkpt><trkpt lat="42.79641063185024" lon="10.335074069787575"><ele>37.0</ele><time>2026-04-23T11:06:38Z</time></trkpt><trkpt lat="42.796402995806304" lon="10.335184670975952"><ele>36.0</ele><time>2026-04-23T11:06:39Z</time></trkpt><trkpt lat="42.796377222275716" lon="10.335283910516605"><ele>35.0</ele><time>2026-04-23T11:06:40Z</time></trkpt><trkpt lat="42.79632050323654" lon="10.335357200528819"><ele>35.0</ele><time>2026-04-23T11:06:41Z</time></trkpt><trkpt lat="42.79624712014778" lon="10.335398112257804"><ele>35.0</ele><time>2026-04-23T11:06:42Z</time></trkpt><trkpt lat="42.79616596858557" lon="10.3353947134761"><ele>35.0</ele><time>2026-04-23T11:06:43Z</time></trkpt><trkpt lat="42.79608183973647" lon="10.335358392249084"><ele>35.0</ele><time>2026-04-23T11:06:44Z</time></trkpt><trkpt lat="42.79599639864771" lon="10.335290489827038"><ele>35.0</ele><time>2026-04-23T11:06:45Z</time></trkpt><trkpt lat="42.79591072156219" lon="10.335205441935729"><ele>37.8</ele><time>2026-04-23T11:06:46Z</time></trkpt><trkpt lat="42.79581350651289" lon="10.335123814215498"><ele>40.6</ele><time>2026-04-23T11:06:47Z</time></trkpt><trkpt lat="42.79571943968685" lon="10.33505301778009"><ele>43.400000000000006</ele><time>2026-04-23T11:06:48Z</time></trkpt><trkpt lat="42.79563283881925" lon="10.335007346377271"><ele>46.2</ele><time>2026-04-23T11:06:49Z</time></trkpt><trkpt lat="42.79554634172366" lon="10.334991592703858"><ele>49.0</ele><time>2026-04-23T11:06:50Z</time></trkpt><trkpt lat="42.79546059795108" lon="10.335003249516484"><ele>49.0</ele><time>2026-04-23T11:06:51Z</time></trkpt><trkpt lat="42.79538782538843" lon="10.335040569616234"><ele>49.0</ele><time>2026-04-23T11:06:52Z</time></trkpt><trkpt lat="42.79532276304411" lon="10.335112402412124"><ele>49.0</ele><time>2026-04-23T11:06:53Z</time></trkpt><trkpt lat="42.79527272592545" lon="10.335212141512043"><ele>49.0</ele><time>2026-04-23T11:06:54Z</time></trkpt><trkpt lat="42.795232121441785" lon="10.335335045398912"><ele>49.0</ele><time>2026-04-23T11:06:55Z</time></trkpt><trkpt lat="42.79519945640881" lon="10.335474671108"><ele>49.0</ele><time>2026-04-23T11:06:56Z</time></trkpt><trkpt lat="42.79516806041482" lon="10.335619950498039"><ele>49.0</ele><time>2026-04-23T11:06:57Z</time></trkpt><trkpt lat="42.795135223155455" lon="10.335766936664225"><ele>49.0</ele><time>2026-04-23T11:06:58Z</time></trkpt><trkpt lat="42.79509991966412" lon="10.335915393071165"><ele>49.0</ele><time>2026-04-23T11:06:59Z</time></trkpt><trkpt lat="42.7950606167568" lon="10.336064069797915"><ele>49.0</ele><time>2026-04-23T11:07:00Z</time></trkpt><trkpt lat="42.79501832324243" lon="10.336218036499867"><ele>49.0</ele><time>2026-04-23T11:07:01Z</time></trkpt><trkpt lat="42.79498112188879" lon="10.336372531146889"><ele>49.0</ele><time>2026-04-23T11:07:02Z</time></trkpt><trkpt lat="42.79494751549423" lon="10.336516635220146"><ele>49.0</ele><time>2026-04-23T11:07:03Z</time></trkpt><trkpt lat="42.79491394262768" lon="10.336655308747636"><ele>48.0</ele><time>2026-04-23T11:07:04Z</time></trkpt><trkpt lat="42.7948821964535" lon="10.3367843085162"><ele>47.0</ele><time>2026-04-23T11:07:05Z</time></trkpt><trkpt lat="42.79484810899776" lon="10.3369093604079"><ele>46.0</ele><time>2026-04-23T11:07:06Z</time></trkpt><trkpt lat="42.794815526537434" lon="10.337035091499478"><ele>45.0</ele><time>2026-04-23T11:07:07Z</time></trkpt><trkpt lat="42.79478549026557" lon="10.33715307005286"><ele>44.0</ele><time>2026-04-23T11:07:08Z</time></trkpt><trkpt lat="42.79474899256732" lon="10.33723772328596"><ele>44.0</ele><time>2026-04-23T11:07:09Z</time></trkpt><trkpt lat="42.794699833722085" lon="10.337301028975448"><ele>44.0</ele><time>2026-04-23T11:07:10Z</time></trkpt><trkpt lat="42.794631181947196" lon="10.337341969203937"><ele>44.0</ele><time>2026-04-23T11:07:11Z</time></trkpt><trkpt lat="42.794556700359706" lon="10.337368212431638"><ele>44.0</ele><time>2026-04-23T11:07:12Z</time></trkpt><trkpt lat="42.794474517329235" lon="10.337330541575826"><ele>44.0</ele><time>2026-04-23T11:07:13Z</time></trkpt><trkpt lat="42.79439468279067" lon="10.337284503206577"><ele>44.0</ele><time>2026-04-23T11:07:14Z</time></trkpt><trkpt lat="42.794308033974225" lon="10.337222998094326"><ele>44.800000000000004</ele><time>2026-04-23T11:07:15Z</time></trkpt><trkpt lat="42.79420773736133" lon="10.33717302539804"><ele>45.6</ele><time>2026-04-23T11:07:16Z</time></trkpt><trkpt lat="42.79411389587036" lon="10.337097423637912"><ele>46.4</ele><time>2026-04-23T11:07:17Z</time></trkpt><trkpt lat="42.79402518656044" lon="10.337026463639065"><ele>47.2</ele><time>2026-04-23T11:07:18Z</time></trkpt><trkpt lat="42.793955995259545" lon="10.336917272828838"><ele>48.0</ele><time>2026-04-23T11:07:19Z</time></trkpt><trkpt lat="42.79388151719611" lon="10.336798696304768"><ele>48.0</ele><time>2026-04-23T11:07:20Z</time></trkpt><trkpt lat="42.79381357668325" lon="10.336667425845881"><ele>48.0</ele><time>2026-04-23T11:07:21Z</time></trkpt><trkpt lat="42.79374621659537" lon="10.336531892232951"><ele>48.0</ele><time>2026-04-23T11:07:22Z</time></trkpt><trkpt lat="42.793679211825705" lon="10.336404597646201"><ele>48.0</ele><time>2026-04-23T11:07:23Z</time></trkpt><trkpt lat="42.79361075649403" lon="10.336280609345444"><ele>48.8</ele><time>2026-04-23T11:07:24Z</time></trkpt><trkpt lat="42.79354786853245" lon="10.336157354184406"><ele>49.599999999999994</ele><time>2026-04-23T11:07:25Z</time></trkpt><trkpt lat="42.79348673668036" lon="10.336035397900314"><ele>50.400000000000006</ele><time>2026-04-23T11:07:26Z</time></trkpt><trkpt lat="42.793424975043656" lon="10.335923265338531"><ele>51.2</ele><time>2026-04-23T11:07:27Z</time></trkpt><trkpt lat="42.793374941865686" lon="10.335814064020079"><ele>52.0</ele><time>2026-04-23T11:07:28Z</time></trkpt><trkpt lat="42.79332416923127" lon="10.335721300020491"><ele>50.666666666666664</ele><time>2026-04-23T11:07:29Z</time></trkpt><trkpt lat="42.793270489667215" lon="10.335645387189789"><ele>49.33333333333333</ele><time>2026-04-23T11:07:30Z</time></trkpt><trkpt lat="42.79320569110117" lon="10.335595196620634"><ele>48.0</ele><time>2026-04-23T11:07:31Z</time></trkpt><trkpt lat="42.79314205973208" lon="10.335558807626601"><ele>46.666666666666664</ele><time>2026-04-23T11:07:32Z</time></trkpt><trkpt lat="42.79307478217783" lon="10.33554215195386"><ele>45.33333333333333</ele><time>2026-04-23T11:07:33Z</time></trkpt><trkpt lat="42.7929831769922" lon="10.3355346827825"><ele>44.0</ele><time>2026-04-23T11:07:35Z</time></trkpt><trkpt lat="42.79288813607311" lon="10.335555550546513"><ele>42.800000000000004</ele><time>2026-04-23T11:07:40Z</time></trkpt><trkpt lat="42.7927991898509" lon="10.335586431816951"><ele>41.6</ele><time>2026-04-23T11:07:42Z</time></trkpt><trkpt lat="42.79277275576108" lon="10.335707534664602"><ele>40.4</ele><time>2026-04-23T11:07:44Z</time></trkpt><trkpt lat="42.79283000370325" lon="10.335816452367238"><ele>39.2</ele><time>2026-04-23T11:07:46Z</time></trkpt><trkpt lat="42.79293107675724" lon="10.335883279685973"><ele>38.0</ele><time>2026-04-23T11:07:48Z</time></trkpt><trkpt lat="42.79296264222065" lon="10.335958368398332"><ele>38.0</ele><time>2026-04-23T11:07:49Z</time></trkpt><trkpt lat="42.79298391307784" lon="10.336051556572928"><ele>38.0</ele><time>2026-04-23T11:07:50Z</time></trkpt><trkpt lat="42.79300049806476" lon="10.336162611919773"><ele>38.0</ele><time>2026-04-23T11:07:51Z</time></trkpt><trkpt lat="42.793021627335335" lon="10.33628476279352"><ele>38.0</ele><time>2026-04-23T11:07:52Z</time></trkpt><trkpt lat="42.793044094143596" lon="10.33641749701278"><ele>38.0</ele><time>2026-04-23T11:07:53Z</time></trkpt><trkpt lat="42.793066127053244" lon="10.336548180132857"><ele>38.0</ele><time>2026-04-23T11:07:54Z</time></trkpt><trkpt lat="42.79308591875257" lon="10.336674193524829"><ele>37.0</ele><time>2026-04-23T11:07:55Z</time></trkpt><trkpt lat="42.793109432383126" lon="10.336807790629125"><ele>36.0</ele><time>2026-04-23T11:07:56Z</time></trkpt><trkpt lat="42.793137566797576" lon="10.336951162546109"><ele>35.0</ele><time>2026-04-23T11:07:57Z</time></trkpt><trkpt lat="42.79316345458339" lon="10.337101171136434"><ele>34.0</ele><time>2026-04-23T11:07:58Z</time></trkpt><trkpt lat="42.793190375581744" lon="10.33724472742869"><ele>33.0</ele><time>2026-04-23T11:07:59Z</time></trkpt><trkpt lat="42.7932162182789" lon="10.337382193370509"><ele>31.799999999999997</ele><time>2026-04-23T11:08:00Z</time></trkpt><trkpt lat="42.79323967395062" lon="10.337515336078184"><ele>30.599999999999998</ele><time>2026-04-23T11:08:01Z</time></trkpt><trkpt lat="42.79325142558129" lon="10.337662448041591"><ele>29.400000000000002</ele><time>2026-04-23T11:08:02Z</time></trkpt><trkpt lat="42.79323885831075" lon="10.337815217864689"><ele>28.200000000000003</ele><time>2026-04-23T11:08:03Z</time></trkpt><trkpt lat="42.79321292465653" lon="10.33796346594789"><ele>27.0</ele><time>2026-04-23T11:08:04Z</time></trkpt><trkpt lat="42.793178678079784" lon="10.338101158389563"><ele>26.400000000000002</ele><time>2026-04-23T11:08:05Z</time></trkpt><trkpt lat="42.7931454002656" lon="10.338235446010332"><ele>25.800000000000004</ele><time>2026-04-23T11:08:06Z</time></trkpt><trkpt lat="42.7931168339193" lon="10.338365697375663"><ele>25.2</ele><time>2026-04-23T11:08:07Z</time></trkpt><trkpt lat="42.79309100218206" lon="10.338505304675504"><ele>24.6</ele><time>2026-04-23T11:08:08Z</time></trkpt><trkpt lat="42.79306241073433" lon="10.338647110460302"><ele>24.0</ele><time>2026-04-23T11:08:09Z</time></trkpt><trkpt lat="42.79303522313851" lon="10.338794631243253"><ele>24.5</ele><time>2026-04-23T11:08:10Z</time></trkpt><trkpt lat="42.79300031123211" lon="10.33894637522107"><ele>25.0</ele><time>2026-04-23T11:08:11Z</time></trkpt><trkpt lat="42.79296976226649" lon="10.33909001953358"><ele>25.5</ele><time>2026-04-23T11:08:12Z</time></trkpt><trkpt lat="42.79294357061193" lon="10.339235153860859"><ele>26.0</ele><time>2026-04-23T11:08:13Z</time></trkpt><trkpt lat="42.79290856354084" lon="10.339383648084873"><ele>26.0</ele><time>2026-04-23T11:08:14Z</time></trkpt><trkpt lat="42.79287291654307" lon="10.339530033134986"><ele>26.0</ele><time>2026-04-23T11:08:15Z</time></trkpt><trkpt lat="42.792842744505116" lon="10.33968313359015"><ele>26.0</ele><time>2026-04-23T11:08:16Z</time></trkpt><trkpt lat="42.79281880524742" lon="10.339843879971076"><ele>26.0</ele><time>2026-04-23T11:08:17Z</time></trkpt><trkpt lat="42.792808920135656" lon="10.34001473259808"><ele>25.25</ele><time>2026-04-23T11:08:18Z</time></trkpt><trkpt lat="42.79281690051364" lon="10.340188991490741"><ele>24.5</ele><time>2026-04-23T11:08:19Z</time></trkpt><trkpt lat="42.7928326296357" lon="10.340368175820025"><ele>23.75</ele><time>2026-04-23T11:08:20Z</time></trkpt><trkpt lat="42.7928604666209" lon="10.340546757508681"><ele>23.0</ele><time>2026-04-23T11:08:21Z</time></trkpt><trkpt lat="42.792881028268475" lon="10.340724357515299"><ele>22.0</ele><time>2026-04-23T11:08:22Z</time></trkpt><trkpt lat="42.79290052332074" lon="10.340891938044287"><ele>21.0</ele><time>2026-04-23T11:08:23Z</time></trkpt><trkpt lat="42.79292110311584" lon="10.341056476341615"><ele>20.0</ele><time>2026-04-23T11:08:24Z</time></trkpt><trkpt lat="42.79294407882096" lon="10.341231704090687"><ele>19.0</ele><time>2026-04-23T11:08:25Z</time></trkpt><trkpt lat="42.792965767397575" lon="10.341403916107051"><ele>18.5</ele><time>2026-04-23T11:08:26Z</time></trkpt><trkpt lat="42.792986373047654" lon="10.341582169425019"><ele>18.0</ele><time>2026-04-23T11:08:27Z</time></trkpt><trkpt lat="42.79301009252315" lon="10.34175935597409"><ele>17.5</ele><time>2026-04-23T11:08:28Z</time></trkpt><trkpt lat="42.79303312013395" lon="10.341928992193921"><ele>17.0</ele><time>2026-04-23T11:08:29Z</time></trkpt><trkpt lat="42.793054919714656" lon="10.342092123937245"><ele>16.0</ele><time>2026-04-23T11:08:30Z</time></trkpt><trkpt lat="42.793082378041014" lon="10.342254843575414"><ele>15.0</ele><time>2026-04-23T11:08:31Z</time></trkpt><trkpt lat="42.79312735835254" lon="10.342416422103403"><ele>14.0</ele><time>2026-04-23T11:08:32Z</time></trkpt><trkpt lat="42.79318143180896" lon="10.342572490010879"><ele>13.0</ele><time>2026-04-23T11:08:33Z</time></trkpt><trkpt lat="42.79324559459096" lon="10.342732570005799"><ele>13.0</ele><time>2026-04-23T11:08:34Z</time></trkpt><trkpt lat="42.793314389241644" lon="10.342886732196732"><ele>13.0</ele><time>2026-04-23T11:08:35Z</time></trkpt><trkpt lat="42.793384743669776" lon="10.343044871325601"><ele>13.0</ele><time>2026-04-23T11:08:36Z</time></trkpt><trkpt lat="42.79345304558676" lon="10.343197700295454"><ele>13.0</ele><time>2026-04-23T11:08:37Z</time></trkpt><trkpt lat="42.79352150995882" lon="10.343347368890372"><ele>11.75</ele><time>2026-04-23T11:08:38Z</time></trkpt><trkpt lat="42.79358857784247" lon="10.343487464424042"><ele>10.5</ele><time>2026-04-23T11:08:39Z</time></trkpt><trkpt lat="42.79366039409303" lon="10.343619927313854"><ele>9.25</ele><time>2026-04-23T11:08:40Z</time></trkpt><trkpt lat="42.79373971497488" lon="10.343746564041666"><ele>8.0</ele><time>2026-04-23T11:08:41Z</time></trkpt><trkpt lat="42.793820564142216" lon="10.343879108805332"><ele>7.5</ele><time>2026-04-23T11:08:42Z</time></trkpt><trkpt lat="42.793903522077244" lon="10.344007956158919"><ele>7.0</ele><time>2026-04-23T11:08:43Z</time></trkpt><trkpt lat="42.79398365860045" lon="10.344130965810812"><ele>6.5</ele><time>2026-04-23T11:08:44Z</time></trkpt><trkpt lat="42.794056407794336" lon="10.344243101178023"><ele>6.0</ele><time>2026-04-23T11:08:45Z</time></trkpt><trkpt lat="42.794121019802404" lon="10.344346523339548"><ele>6.0</ele><time>2026-04-23T11:08:46Z</time></trkpt><trkpt lat="42.794168855841036" lon="10.344447875935234"><ele>6.0</ele><time>2026-04-23T11:08:47Z</time></trkpt><trkpt lat="42.79420023964864" lon="10.344554844207755"><ele>6.0</ele><time>2026-04-23T11:08:48Z</time></trkpt><trkpt lat="42.79420894270642" lon="10.344668589187995"><ele>6.0</ele><time>2026-04-23T11:08:49Z</time></trkpt><trkpt lat="42.794190605253426" lon="10.344783012429904"><ele>6.0</ele><time>2026-04-23T11:08:50Z</time></trkpt><trkpt lat="42.79413107050189" lon="10.34488495465454"><ele>6.0</ele><time>2026-04-23T11:08:51Z</time></trkpt><trkpt lat="42.79406438586502" lon="10.344971696977264"><ele>5.8</ele><time>2026-04-23T11:08:52Z</time></trkpt><trkpt lat="42.79399059243078" lon="10.345067313525425"><ele>5.6</ele><time>2026-04-23T11:08:53Z</time></trkpt><trkpt lat="42.7939096266909" lon="10.345168811537887"><ele>5.4</ele><time>2026-04-23T11:08:54Z</time></trkpt><trkpt lat="42.79382904556414" lon="10.345273760206858"><ele>5.2</ele><time>2026-04-23T11:08:55Z</time></trkpt><trkpt lat="42.79375230772619" lon="10.345385661682762"><ele>5.0</ele><time>2026-04-23T11:08:56Z</time></trkpt><trkpt lat="42.793684844599" lon="10.345508706052305"><ele>4.75</ele><time>2026-04-23T11:08:57Z</time></trkpt><trkpt lat="42.79361729408046" lon="10.34563904010202"><ele>4.5</ele><time>2026-04-23T11:08:58Z</time></trkpt><trkpt lat="42.79354262545096" lon="10.345777678407353"><ele>4.25</ele><time>2026-04-23T11:08:59Z</time></trkpt><trkpt lat="42.79346915640943" lon="10.345915132148136"><ele>4.0</ele><time>2026-04-23T11:09:00Z</time></trkpt><trkpt lat="42.79339619186071" lon="10.346065743194142"><ele>4.5</ele><time>2026-04-23T11:09:01Z</time></trkpt><trkpt lat="42.793326497898796" lon="10.346217421827378"><ele>5.0</ele><time>2026-04-23T11:09:02Z</time></trkpt><trkpt lat="42.79325519396465" lon="10.346373208231253"><ele>5.5</ele><time>2026-04-23T11:09:03Z</time></trkpt><trkpt lat="42.79319232403034" lon="10.34653786256584"><ele>6.0</ele><time>2026-04-23T11:09:04Z</time></trkpt><trkpt lat="42.793132527206595" lon="10.346700156003841"><ele>5.0</ele><time>2026-04-23T11:09:05Z</time></trkpt><trkpt lat="42.79307664707565" lon="10.34686540232829"><ele>4.0</ele><time>2026-04-23T11:09:06Z</time></trkpt><trkpt lat="42.79302487193779" lon="10.347025333321646"><ele>3.0</ele><time>2026-04-23T11:09:07Z</time></trkpt><trkpt lat="42.79297031751677" lon="10.347178781939007"><ele>2.0</ele><time>2026-04-23T11:09:08Z</time></trkpt><trkpt lat="42.79291283782648" lon="10.347317509952093"><ele>2.0</ele><time>2026-04-23T11:09:09Z</time></trkpt><trkpt lat="42.79285535684468" lon="10.347445058477394"><ele>2.0</ele><time>2026-04-23T11:09:10Z</time></trkpt><trkpt lat="42.79278641387985" lon="10.347563103102498"><ele>2.0</ele><time>2026-04-23T11:09:11Z</time></trkpt><trkpt lat="42.7927057632421" lon="10.347677234234506"><ele>2.0</ele><time>2026-04-23T11:09:12Z</time></trkpt><trkpt lat="42.79260863823221" lon="10.34777630568327"><ele>2.25</ele><time>2026-04-23T11:09:13Z</time></trkpt><trkpt lat="42.79250641280963" lon="10.34787065082955"><ele>2.5</ele><time>2026-04-23T11:09:14Z</time></trkpt><trkpt lat="42.79239969244775" lon="10.34796989119166"><ele>2.75</ele><time>2026-04-23T11:09:15Z</time></trkpt><trkpt lat="42.79229226925732" lon="10.348072427525874"><ele>3.0</ele><time>2026-04-23T11:09:16Z</time></trkpt><trkpt lat="42.79219121441374" lon="10.348165651637865"><ele>3.0</ele><time>2026-04-23T11:09:17Z</time></trkpt><trkpt lat="42.792095938715605" lon="10.348252287918525"><ele>3.0</ele><time>2026-04-23T11:09:18Z</time></trkpt><trkpt lat="42.79200599253581" lon="10.348333982923473"><ele>3.0</ele><time>2026-04-23T11:09:19Z</time></trkpt><trkpt lat="42.79192554841196" lon="10.348404071626677"><ele>3.0</ele><time>2026-04-23T11:09:20Z</time></trkpt><trkpt lat="42.79186134498291" lon="10.348459806478935"><ele>3.0</ele><time>2026-04-23T11:09:21Z</time></trkpt><trkpt lat="42.79177868687509" lon="10.34853205203851"><ele>3.3333333333333335</ele><time>2026-04-23T11:09:23Z</time></trkpt><trkpt lat="42.791726170685415" lon="10.348582042127815"><ele>3.666666666666667</ele><time>2026-04-23T11:09:27Z</time></trkpt><trkpt lat="42.7916936755297" lon="10.348679525337642"><ele>4.0</ele><time>2026-04-23T11:09:45Z</time></trkpt><trkpt lat="42.79163006086632" lon="10.348806632093883"><ele>4.333333333333334</ele><time>2026-04-23T11:09:47Z</time></trkpt><trkpt lat="42.79159166078256" lon="10.348894137533911"><ele>4.666666666666667</ele><time>2026-04-23T11:09:48Z</time></trkpt><trkpt lat="42.79156697716094" lon="10.349004795584731"><ele>5.0</ele><time>2026-04-23T11:09:49Z</time></trkpt><trkpt lat="42.791553442979605" lon="10.349120380176597"><ele>5.0</ele><time>2026-04-23T11:09:50Z</time></trkpt><trkpt lat="42.7915538118102" lon="10.349237496905209"><ele>5.0</ele><time>2026-04-23T11:09:51Z</time></trkpt><trkpt lat="42.79156074373699" lon="10.349350957304305"><ele>5.0</ele><time>2026-04-23T11:09:52Z</time></trkpt><trkpt lat="42.791570898606736" lon="10.349471080045522"><ele>5.0</ele><time>2026-04-23T11:09:53Z</time></trkpt><trkpt lat="42.79157914133413" lon="10.349578502932808"><ele>5.0</ele><time>2026-04-23T11:09:54Z</time></trkpt><trkpt lat="42.79158840954469" lon="10.349667132196942"><ele>5.0</ele><time>2026-04-23T11:09:55Z</time></trkpt><trkpt lat="42.791593786276195" lon="10.349775242810425"><ele>4.5</ele><time>2026-04-23T11:09:57Z</time></trkpt><trkpt lat="42.79159317003361" lon="10.349918244222293"><ele>4.0</ele><time>2026-04-23T11:12:52Z</time></trkpt><trkpt lat="42.79161757603792" lon="10.350027428474316"><ele>3.5</ele><time>2026-04-23T11:12:54Z</time></trkpt><trkpt lat="42.791629978122785" lon="10.35018510270813"><ele>3.0</ele><time>2026-04-23T11:12:56Z</time></trkpt><trkpt lat="42.791643893950116" lon="10.350275362430288"><ele>2.5</ele><time>2026-04-23T11:12:57Z</time></trkpt><trkpt lat="42.79165718986981" lon="10.35037603290379"><ele>2.0</ele><time>2026-04-23T11:12:58Z</time></trkpt><trkpt lat="42.79167350850616" lon="10.350489633477334"><ele>2.2</ele><time>2026-04-23T11:12:59Z</time></trkpt><trkpt lat="42.791706329450896" lon="10.350602134941285"><ele>2.4000000000000004</ele><time>2026-04-23T11:13:00Z</time></trkpt><trkpt lat="42.791747241419465" lon="10.350719052292957"><ele>2.5999999999999996</ele><time>2026-04-23T11:13:01Z</time></trkpt><trkpt lat="42.79180050469742" lon="10.35084559125186"><ele>2.8</ele><time>2026-04-23T11:13:02Z</time></trkpt><trkpt lat="42.79187114428481" lon="10.350962604948897"><ele>3.0</ele><time>2026-04-23T11:13:03Z</time></trkpt><trkpt lat="42.79194529404616" lon="10.35108753077626"><ele>3.0</ele><time>2026-04-23T11:13:04Z</time></trkpt><trkpt lat="42.79202766503382" lon="10.351202658084938"><ele>3.0</ele><time>2026-04-23T11:13:05Z</time></trkpt><trkpt lat="42.792117914333275" lon="10.351321759766735"><ele>3.0</ele><time>2026-04-23T11:13:06Z</time></trkpt><trkpt lat="42.79221247857184" lon="10.351445314496194"><ele>3.0</ele><time>2026-04-23T11:13:07Z</time></trkpt><trkpt lat="42.79230578770617" lon="10.351570948368803"><ele>2.75</ele><time>2026-04-23T11:13:08Z</time></trkpt><trkpt lat="42.79240211298655" lon="10.35169780592978"><ele>2.5</ele><time>2026-04-23T11:13:09Z</time></trkpt><trkpt lat="42.79249852730007" lon="10.351827495104425"><ele>2.25</ele><time>2026-04-23T11:13:10Z</time></trkpt><trkpt lat="42.79259414217599" lon="10.351955987612627"><ele>2.0</ele><time>2026-04-23T11:13:11Z</time></trkpt><trkpt lat="42.79269091356822" lon="10.352077331139503"><ele>2.0</ele><time>2026-04-23T11:13:12Z</time></trkpt><trkpt lat="42.792787783815875" lon="10.35220376275025"><ele>2.0</ele><time>2026-04-23T11:13:13Z</time></trkpt><trkpt lat="42.79288555615749" lon="10.352333279589491"><ele>2.0</ele><time>2026-04-23T11:13:14Z</time></trkpt><trkpt lat="42.79298229656067" lon="10.352461205437336"><ele>2.0</ele><time>2026-04-23T11:13:15Z</time></trkpt><trkpt lat="42.79308164411315" lon="10.352588288291399"><ele>2.5</ele><time>2026-04-23T11:13:16Z</time></trkpt><trkpt lat="42.793180555746375" lon="10.352718590777194"><ele>3.0</ele><time>2026-04-23T11:13:17Z</time></trkpt><trkpt lat="42.79327712706005" lon="10.35285092421135"><ele>3.5</ele><time>2026-04-23T11:13:18Z</time></trkpt><trkpt lat="42.79337266388659" lon="10.352983653607716"><ele>4.0</ele><time>2026-04-23T11:13:19Z</time></trkpt><trkpt lat="42.79346765383768" lon="10.353119294916935"><ele>4.75</ele><time>2026-04-23T11:13:20Z</time></trkpt><trkpt lat="42.79356371079501" lon="10.353248339004109"><ele>5.5</ele><time>2026-04-23T11:13:21Z</time></trkpt><trkpt lat="42.79365893160615" lon="10.35337650874755"><ele>6.25</ele><time>2026-04-23T11:13:22Z</time></trkpt><trkpt lat="42.7937583437952" lon="10.353506764931707"><ele>7.0</ele><time>2026-04-23T11:13:23Z</time></trkpt><trkpt lat="42.793855922585614" lon="10.353638080191413"><ele>7.0</ele><time>2026-04-23T11:13:24Z</time></trkpt><trkpt lat="42.79395246963472" lon="10.35376871338979"><ele>7.0</ele><time>2026-04-23T11:13:25Z</time></trkpt><trkpt lat="42.79404826750254" lon="10.353897402152967"><ele>7.0</ele><time>2026-04-23T11:13:26Z</time></trkpt><trkpt lat="42.794141793455964" lon="10.354025874821508"><ele>7.0</ele><time>2026-04-23T11:13:27Z</time></trkpt><trkpt lat="42.79422354650147" lon="10.354160871603428"><ele>7.25</ele><time>2026-04-23T11:13:28Z</time></trkpt><trkpt lat="42.79428964693931" lon="10.354306698384953"><ele>7.5</ele><time>2026-04-23T11:13:29Z</time></trkpt><trkpt lat="42.794340894674775" lon="10.354461822933079"><ele>7.75</ele><time>2026-04-23T11:13:30Z</time></trkpt><trkpt lat="42.79438464845351" lon="10.354621888167893"><ele>8.0</ele><time>2026-04-23T11:13:31Z</time></trkpt><trkpt lat="42.794427439165595" lon="10.354783592264031"><ele>8.0</ele><time>2026-04-23T11:13:32Z</time></trkpt><trkpt lat="42.7944732575006" lon="10.354943441274038"><ele>8.0</ele><time>2026-04-23T11:13:33Z</time></trkpt><trkpt lat="42.79452042676898" lon="10.355105099212759"><ele>8.0</ele><time>2026-04-23T11:13:34Z</time></trkpt><trkpt lat="42.79456631740976" lon="10.355273580818086"><ele>8.0</ele><time>2026-04-23T11:13:35Z</time></trkpt><trkpt lat="42.79461000688089" lon="10.355436837318859"><ele>7.75</ele><time>2026-04-23T11:13:36Z</time></trkpt><trkpt lat="42.79464695809434" lon="10.3555960442111"><ele>7.5</ele><time>2026-04-23T11:13:37Z</time></trkpt><trkpt lat="42.794678257359905" lon="10.355749697768019"><ele>7.25</ele><time>2026-04-23T11:13:38Z</time></trkpt><trkpt lat="42.79469832578246" lon="10.355909658749479"><ele>7.0</ele><time>2026-04-23T11:13:39Z</time></trkpt><trkpt lat="42.79472140920142" lon="10.356072416059805"><ele>7.0</ele><time>2026-04-23T11:13:40Z</time></trkpt><trkpt lat="42.79474230836702" lon="10.35624391295867"><ele>7.0</ele><time>2026-04-23T11:13:41Z</time></trkpt><trkpt lat="42.794763399722704" lon="10.356417315752418"><ele>7.0</ele><time>2026-04-23T11:13:42Z</time></trkpt><trkpt lat="42.794782272315786" lon="10.356596397560095"><ele>7.0</ele><time>2026-04-23T11:13:43Z</time></trkpt><trkpt lat="42.79479903366618" lon="10.356775942846637"><ele>6.75</ele><time>2026-04-23T11:13:44Z</time></trkpt><trkpt lat="42.79481935716694" lon="10.356959703082309"><ele>6.5</ele><time>2026-04-23T11:13:45Z</time></trkpt><trkpt lat="42.794838626316206" lon="10.357147680385028"><ele>6.25</ele><time>2026-04-23T11:13:46Z</time></trkpt><trkpt lat="42.79485930326334" lon="10.35733054221397"><ele>6.0</ele><time>2026-04-23T11:13:47Z</time></trkpt><trkpt lat="42.79488158851646" lon="10.357510057458887"><ele>6.5</ele><time>2026-04-23T11:13:48Z</time></trkpt><trkpt lat="42.79490092919897" lon="10.357690621456728"><ele>7.0</ele><time>2026-04-23T11:13:49Z</time></trkpt><trkpt lat="42.79491872935422" lon="10.357869811290039"><ele>7.5</ele><time>2026-04-23T11:13:50Z</time></trkpt><trkpt lat="42.794929883142295" lon="10.358049857917923"><ele>8.0</ele><time>2026-04-23T11:13:51Z</time></trkpt><trkpt lat="42.79492268570539" lon="10.35823223412855"><ele>8.5</ele><time>2026-04-23T11:13:52Z</time></trkpt><trkpt lat="42.794907999071505" lon="10.358415753688728"><ele>9.0</ele><time>2026-04-23T11:13:53Z</time></trkpt><trkpt lat="42.79488959000536" lon="10.358604241211797"><ele>9.5</ele><time>2026-04-23T11:13:54Z</time></trkpt><trkpt lat="42.794870597208764" lon="10.358788654572145"><ele>10.0</ele><time>2026-04-23T11:13:55Z</time></trkpt><trkpt lat="42.79485232961897" lon="10.358967464079377"><ele>10.75</ele><time>2026-04-23T11:13:56Z</time></trkpt><trkpt lat="42.794837157123496" lon="10.359152397635837"><ele>11.5</ele><time>2026-04-23T11:13:57Z</time></trkpt><trkpt lat="42.79483427686122" lon="10.359337567720246"><ele>12.25</ele><time>2026-04-23T11:13:58Z</time></trkpt><trkpt lat="42.79484817544986" lon="10.359525633912163"><ele>13.0</ele><time>2026-04-23T11:13:59Z</time></trkpt><trkpt lat="42.79487127652954" lon="10.359714853261272"><ele>13.5</ele><time>2026-04-23T11:14:00Z</time></trkpt><trkpt lat="42.7948937589629" lon="10.359904795309472"><ele>14.0</ele><time>2026-04-23T11:14:01Z</time></trkpt><trkpt lat="42.79491468820226" lon="10.360088522924793"><ele>14.5</ele><time>2026-04-23T11:14:02Z</time></trkpt><trkpt lat="42.79493311805694" lon="10.360277179152536"><ele>15.0</ele><time>2026-04-23T11:14:03Z</time></trkpt><trkpt lat="42.79495242659862" lon="10.360464236024823"><ele>15.5</ele><time>2026-04-23T11:14:04Z</time></trkpt><trkpt lat="42.79497124320693" lon="10.360651483063759"><ele>16.0</ele><time>2026-04-23T11:14:05Z</time></trkpt><trkpt lat="42.79499109968912" lon="10.360834638896197"><ele>16.5</ele><time>2026-04-23T11:14:06Z</time></trkpt><trkpt lat="42.79500372119538" lon="10.361011551986898"><ele>17.0</ele><time>2026-04-23T11:14:07Z</time></trkpt><trkpt lat="42.79502087847496" lon="10.361166837835187"><ele>17.0</ele><time>2026-04-23T11:14:08Z</time></trkpt><trkpt lat="42.79503381408828" lon="10.361309141420389"><ele>17.0</ele><time>2026-04-23T11:14:09Z</time></trkpt><trkpt lat="42.79505243432025" lon="10.361427123652694"><ele>17.0</ele><time>2026-04-23T11:14:10Z</time></trkpt><trkpt lat="42.795086705093325" lon="10.361530717979592"><ele>17.0</ele><time>2026-04-23T11:14:11Z</time></trkpt><trkpt lat="42.79513836951835" lon="10.361615794442944"><ele>17.0</ele><time>2026-04-23T11:14:12Z</time></trkpt><trkpt lat="42.79520774619326" lon="10.361677596917694"><ele>17.0</ele><time>2026-04-23T11:14:13Z</time></trkpt><trkpt lat="42.795288602939166" lon="10.361712590506116"><ele>18.2</ele><time>2026-04-23T11:14:14Z</time></trkpt><trkpt lat="42.79538077655713" lon="10.361712340026312"><ele>19.4</ele><time>2026-04-23T11:14:15Z</time></trkpt><trkpt lat="42.79548028700625" lon="10.361687276677692"><ele>20.599999999999998</ele><time>2026-04-23T11:14:16Z</time></trkpt><trkpt lat="42.79558300631592" lon="10.36165171755291"><ele>21.799999999999997</ele><time>2026-04-23T11:14:17Z</time></trkpt><trkpt lat="42.79569002048298" lon="10.361623303272872"><ele>23.0</ele><time>2026-04-23T11:14:18Z</time></trkpt><trkpt lat="42.79579820824851" lon="10.361595458739977"><ele>23.0</ele><time>2026-04-23T11:14:19Z</time></trkpt><trkpt lat="42.79590680679136" lon="10.361564593993076"><ele>23.0</ele><time>2026-04-23T11:14:20Z</time></trkpt><trkpt lat="42.79601503433071" lon="10.3615376134287"><ele>23.0</ele><time>2026-04-23T11:14:21Z</time></trkpt><trkpt lat="42.796122718600145" lon="10.361510152357356"><ele>23.0</ele><time>2026-04-23T11:14:22Z</time></trkpt><trkpt lat="42.796225292777784" lon="10.361483555928569"><ele>23.0</ele><time>2026-04-23T11:14:23Z</time></trkpt><trkpt lat="42.796331570956276" lon="10.36145435883441"><ele>23.2</ele><time>2026-04-23T11:14:24Z</time></trkpt><trkpt lat="42.796441538037996" lon="10.361424169922403"><ele>23.4</ele><time>2026-04-23T11:14:25Z</time></trkpt><trkpt lat="42.79655125570603" lon="10.361388093177768"><ele>23.599999999999998</ele><time>2026-04-23T11:14:26Z</time></trkpt><trkpt lat="42.7966613967969" lon="10.361348788275558"><ele>23.799999999999997</ele><time>2026-04-23T11:14:27Z</time></trkpt><trkpt lat="42.79676027348222" lon="10.361309225192796"><ele>24.0</ele><time>2026-04-23T11:14:28Z</time></trkpt><trkpt lat="42.79686198879779" lon="10.361267669821709"><ele>23.0</ele><time>2026-04-23T11:14:29Z</time></trkpt><trkpt lat="42.79696508893716" lon="10.361216751618677"><ele>22.0</ele><time>2026-04-23T11:14:30Z</time></trkpt><trkpt lat="42.79706103589317" lon="10.361146630158409"><ele>21.0</ele><time>2026-04-23T11:14:31Z</time></trkpt><trkpt lat="42.7971516200668" lon="10.361062884006516"><ele>20.0</ele><time>2026-04-23T11:14:32Z</time></trkpt><trkpt lat="42.79723786220489" lon="10.360960537786216"><ele>19.0</ele><time>2026-04-23T11:14:33Z</time></trkpt><trkpt lat="42.797318738073834" lon="10.360851747395774"><ele>19.0</ele><time>2026-04-23T11:14:34Z</time></trkpt><trkpt lat="42.797406394424996" lon="10.360748574731911"><ele>19.0</ele><time>2026-04-23T11:14:35Z</time></trkpt><trkpt lat="42.79749018528805" lon="10.360648660242912"><ele>19.0</ele><time>2026-04-23T11:14:36Z</time></trkpt><trkpt lat="42.797571590764974" lon="10.360542619422683"><ele>19.0</ele><time>2026-04-23T11:14:37Z</time></trkpt><trkpt lat="42.797655724122734" lon="10.360435671189336"><ele>18.4</ele><time>2026-04-23T11:14:38Z</time></trkpt><trkpt lat="42.79774320869905" lon="10.36033330333572"><ele>17.799999999999997</ele><time>2026-04-23T11:14:39Z</time></trkpt><trkpt lat="42.797826742917444" lon="10.360236158470684"><ele>17.200000000000003</ele><time>2026-04-23T11:14:40Z</time></trkpt><trkpt lat="42.797906793285605" lon="10.360140632073652"><ele>16.6</ele><time>2026-04-23T11:14:41Z</time></trkpt><trkpt lat="42.79798114325627" lon="10.360050676646708"><ele>16.0</ele><time>2026-04-23T11:14:42Z</time></trkpt><trkpt lat="42.79805446950845" lon="10.359963208240584"><ele>16.0</ele><time>2026-04-23T11:14:43Z</time></trkpt><trkpt lat="42.798121987084215" lon="10.359885168675646"><ele>16.0</ele><time>2026-04-23T11:14:44Z</time></trkpt><trkpt lat="42.798200615954286" lon="10.359831425345499"><ele>16.0</ele><time>2026-04-23T11:14:45Z</time></trkpt><trkpt lat="42.798289407294014" lon="10.359789859085247"><ele>16.0</ele><time>2026-04-23T11:14:46Z</time></trkpt><trkpt lat="42.79837975438538" lon="10.359808234776109"><ele>16.0</ele><time>2026-04-23T11:14:47Z</time></trkpt><trkpt lat="42.79846886328659" lon="10.359848819121602"><ele>17.4</ele><time>2026-04-23T11:14:48Z</time></trkpt><trkpt lat="42.79856407801384" lon="10.359895603454513"><ele>18.8</ele><time>2026-04-23T11:14:49Z</time></trkpt><trkpt lat="42.79866581259719" lon="10.359950664161342"><ele>20.2</ele><time>2026-04-23T11:14:50Z</time></trkpt><trkpt lat="42.798759062689065" lon="10.36000674502968"><ele>21.599999999999998</ele><time>2026-04-23T11:14:51Z</time></trkpt><trkpt lat="42.798856217602896" lon="10.360029564960037"><ele>23.0</ele><time>2026-04-23T11:14:52Z</time></trkpt><trkpt lat="42.798951464533445" lon="10.360008792051598"><ele>23.0</ele><time>2026-04-23T11:14:53Z</time></trkpt><trkpt lat="42.799041422784995" lon="10.359955141286703"><ele>23.0</ele><time>2026-04-23T11:14:54Z</time></trkpt><trkpt lat="42.79912245306173" lon="10.359877970220813"><ele>23.0</ele><time>2026-04-23T11:14:55Z</time></trkpt><trkpt lat="42.79919536245161" lon="10.359817028863162"><ele>23.0</ele><time>2026-04-23T11:14:56Z</time></trkpt><trkpt lat="42.799275084586384" lon="10.359796211411643"><ele>23.0</ele><time>2026-04-23T11:14:57Z</time></trkpt><trkpt lat="42.799360900498485" lon="10.359806278492833"><ele>22.833333333333336</ele><time>2026-04-23T11:14:58Z</time></trkpt><trkpt lat="42.799429012953304" lon="10.35986031507752"><ele>22.666666666666668</ele><time>2026-04-23T11:14:59Z</time></trkpt><trkpt lat="42.799478145175016" lon="10.359931357286275"><ele>22.5</ele><time>2026-04-23T11:15:00Z</time></trkpt><trkpt lat="42.79950251072969" lon="10.360017429123534"><ele>22.333333333333332</ele><time>2026-04-23T11:15:01Z</time></trkpt><trkpt lat="42.79950304549375" lon="10.360118506001491"><ele>22.166666666666664</ele><time>2026-04-23T11:15:02Z</time></trkpt><trkpt lat="42.79948400348225" lon="10.360224444093506"><ele>22.0</ele><time>2026-04-23T11:15:03Z</time></trkpt><trkpt lat="42.79946131948399" lon="10.36033640296849"><ele>22.0</ele><time>2026-04-23T11:15:04Z</time></trkpt><trkpt lat="42.799436342806345" lon="10.360456912959126"><ele>22.0</ele><time>2026-04-23T11:15:05Z</time></trkpt><trkpt lat="42.799409071454676" lon="10.360581080416383"><ele>22.0</ele><time>2026-04-23T11:15:06Z</time></trkpt><trkpt lat="42.79938252073281" lon="10.360704773298304"><ele>22.0</ele><time>2026-04-23T11:15:07Z</time></trkpt><trkpt lat="42.79935557379324" lon="10.360832922820329"><ele>22.0</ele><time>2026-04-23T11:15:08Z</time></trkpt><trkpt lat="42.799326202666414" lon="10.36096207774163"><ele>22.200000000000003</ele><time>2026-04-23T11:15:09Z</time></trkpt><trkpt lat="42.799301865884765" lon="10.361095316816325"><ele>22.4</ele><time>2026-04-23T11:15:10Z</time></trkpt><trkpt lat="42.79929298022471" lon="10.361234611170683"><ele>22.6</ele><time>2026-04-23T11:15:11Z</time></trkpt><trkpt lat="42.79930178943444" lon="10.361381163244701"><ele>22.799999999999997</ele><time>2026-04-23T11:15:12Z</time></trkpt><trkpt lat="42.799331443469015" lon="10.361529904481008"><ele>23.0</ele><time>2026-04-23T11:15:13Z</time></trkpt><trkpt lat="42.79937005112678" lon="10.36167516070843"><ele>23.0</ele><time>2026-04-23T11:15:14Z</time></trkpt><trkpt lat="42.799414448327454" lon="10.361812076155486"><ele>23.0</ele><time>2026-04-23T11:15:15Z</time></trkpt><trkpt lat="42.7994515245498" lon="10.361952981526235"><ele>23.0</ele><time>2026-04-23T11:15:16Z</time></trkpt><trkpt lat="42.79947822697236" lon="10.362096087574267"><ele>23.0</ele><time>2026-04-23T11:15:17Z</time></trkpt><trkpt lat="42.79948817485938" lon="10.362249042968713"><ele>23.0</ele><time>2026-04-23T11:15:18Z</time></trkpt><trkpt lat="42.79949114711014" lon="10.36239760671739"><ele>23.2</ele><time>2026-04-23T11:15:19Z</time></trkpt><trkpt lat="42.799486350461315" lon="10.362533050853417"><ele>23.4</ele><time>2026-04-23T11:15:20Z</time></trkpt><trkpt lat="42.799482828519366" lon="10.362674146580458"><ele>23.599999999999998</ele><time>2026-04-23T11:15:21Z</time></trkpt><trkpt lat="42.79947856323324" lon="10.362817956774684"><ele>23.799999999999997</ele><time>2026-04-23T11:15:22Z</time></trkpt><trkpt lat="42.79948328126546" lon="10.362964948844262"><ele>24.0</ele><time>2026-04-23T11:15:23Z</time></trkpt><trkpt lat="42.79948910344534" lon="10.363103417184986"><ele>23.5</ele><time>2026-04-23T11:15:24Z</time></trkpt><trkpt lat="42.799486464335516" lon="10.363217492800317"><ele>23.0</ele><time>2026-04-23T11:15:25Z</time></trkpt><trkpt lat="42.79949004304501" lon="10.363318338386755"><ele>22.5</ele><time>2026-04-23T11:15:26Z</time></trkpt><trkpt lat="42.79949339688507" lon="10.363404428704039"><ele>22.0</ele><time>2026-04-23T11:15:27Z</time></trkpt><trkpt lat="42.79950378842491" lon="10.363555400845268"><ele>21.5</ele><time>2026-04-23T11:15:29Z</time></trkpt><trkpt lat="42.799509518986625" lon="10.36370803608639"><ele>21.0</ele><time>2026-04-23T11:15:31Z</time></trkpt><trkpt lat="42.79950968426101" lon="10.363873391019517"><ele>21.0</ele><time>2026-04-23T11:15:33Z</time></trkpt><trkpt lat="42.799512563888456" lon="10.36404589575438"><ele>21.0</ele><time>2026-04-23T11:15:35Z</time></trkpt><trkpt lat="42.79951693324352" lon="10.364139364512065"><ele>21.0</ele><time>2026-04-23T11:15:36Z</time></trkpt><trkpt lat="42.79951730458245" lon="10.364232169599122"><ele>21.0</ele><time>2026-04-23T11:15:37Z</time></trkpt><trkpt lat="42.799505488428665" lon="10.364322061930906"><ele>21.0</ele><time>2026-04-23T11:15:38Z</time></trkpt><trkpt lat="42.799505240711206" lon="10.364417953067159"><ele>21.0</ele><time>2026-04-23T11:15:39Z</time></trkpt><trkpt lat="42.79950498785998" lon="10.364515832463104"><ele>21.0</ele><time>2026-04-23T11:15:40Z</time></trkpt><trkpt lat="42.799504757375104" lon="10.364605053616888"><ele>21.0</ele><time>2026-04-23T11:15:41Z</time></trkpt><trkpt lat="42.79951190265428" lon="10.364757976744928"><ele>21.0</ele><time>2026-04-23T11:15:43Z</time></trkpt><trkpt lat="42.799513840751686" lon="10.364892756789159"><ele>21.0</ele><time>2026-04-23T11:15:45Z</time></trkpt><trkpt lat="42.79950834584313" lon="10.365021087203925"><ele>21.0</ele><time>2026-04-23T11:15:47Z</time></trkpt><trkpt lat="42.79950659130158" lon="10.365133420463092"><ele>21.666666666666668</ele><time>2026-04-23T11:15:49Z</time></trkpt><trkpt lat="42.799515587532305" lon="10.36522080367547"><ele>22.333333333333336</ele><time>2026-04-23T11:15:56Z</time></trkpt><trkpt lat="42.799498995125994" lon="10.365361980140774"><ele>23.0</ele><time>2026-04-23T11:17:23Z</time></trkpt><trkpt lat="42.799502118828606" lon="10.365518734773115"><ele>23.666666666666668</ele><time>2026-04-23T11:17:25Z</time></trkpt><trkpt lat="42.79950988512087" lon="10.365612987896803"><ele>24.333333333333336</ele><time>2026-04-23T11:17:26Z</time></trkpt><trkpt lat="42.79953555687018" lon="10.365724012838555"><ele>25.0</ele><time>2026-04-23T11:17:27Z</time></trkpt><trkpt lat="42.79958554783476" lon="10.365827944892313"><ele>26.000000000000004</ele><time>2026-04-23T11:17:28Z</time></trkpt><trkpt lat="42.799654503745366" lon="10.365908338342201"><ele>27.0</ele><time>2026-04-23T11:17:29Z</time></trkpt><trkpt lat="42.799735886240605" lon="10.365970424102635"><ele>28.0</ele><time>2026-04-23T11:17:30Z</time></trkpt><trkpt lat="42.799828465154334" lon="10.365995670821743"><ele>29.0</ele><time>2026-04-23T11:17:31Z</time></trkpt><trkpt lat="42.799912775361996" lon="10.36602922169742"><ele>30.000000000000004</ele><time>2026-04-23T11:17:32Z</time></trkpt><trkpt lat="42.799985474363645" lon="10.36606213016334"><ele>31.0</ele><time>2026-04-23T11:17:33Z</time></trkpt><trkpt lat="42.80005118393264" lon="10.366101427728257"><ele>31.000000000000004</ele><time>2026-04-23T11:17:34Z</time></trkpt><trkpt lat="42.80010731792939" lon="10.366150180811237"><ele>31.0</ele><time>2026-04-23T11:17:35Z</time></trkpt><trkpt lat="42.80013923406408" lon="10.366239910716036"><ele>31.0</ele><time>2026-04-23T11:17:36Z</time></trkpt><trkpt lat="42.80017662105823" lon="10.36632018548157"><ele>31.0</ele><time>2026-04-23T11:17:37Z</time></trkpt><trkpt lat="42.80019370220928" lon="10.366408372994215"><ele>31.000000000000004</ele><time>2026-04-23T11:17:38Z</time></trkpt><trkpt lat="42.800203266577554" lon="10.366497774510398"><ele>31.0</ele><time>2026-04-23T11:17:39Z</time></trkpt><trkpt lat="42.800215839541586" lon="10.366668862839985"><ele>33.285714285714285</ele><time>2026-04-23T11:17:41Z</time></trkpt><trkpt lat="42.80022320240208" lon="10.366767004335609"><ele>35.57142857142858</ele><time>2026-04-23T11:17:42Z</time></trkpt><trkpt lat="42.800230423699745" lon="10.366863259497187"><ele>37.85714285714286</ele><time>2026-04-23T11:17:43Z</time></trkpt><trkpt lat="42.800251163005505" lon="10.3669608117403"><ele>40.142857142857146</ele><time>2026-04-23T11:17:44Z</time></trkpt><trkpt lat="42.800246367480526" lon="10.367067509664835"><ele>42.42857142857143</ele><time>2026-04-23T11:17:45Z</time></trkpt><trkpt lat="42.80023976473409" lon="10.367164078408274"><ele>44.714285714285715</ele><time>2026-04-23T11:17:46Z</time></trkpt><trkpt lat="42.800236632956256" lon="10.36725219450671"><ele>47.0</ele><time>2026-04-23T11:17:47Z</time></trkpt><trkpt lat="42.800230821349324" lon="10.367344396437847"><ele>48.33333333333333</ele><time>2026-04-23T11:17:48Z</time></trkpt><trkpt lat="42.800221659463226" lon="10.367440043006205"><ele>49.666666666666664</ele><time>2026-04-23T11:17:49Z</time></trkpt><trkpt lat="42.80021034997954" lon="10.367539137823563"><ele>51.0</ele><time>2026-04-23T11:17:50Z</time></trkpt><trkpt lat="42.80020031418001" lon="10.367642432393263"><ele>52.33333333333333</ele><time>2026-04-23T11:17:51Z</time></trkpt><trkpt lat="42.800190124949474" lon="10.367744745730791"><ele>53.666666666666664</ele><time>2026-04-23T11:17:52Z</time></trkpt><trkpt lat="42.800181537073065" lon="10.367841416779427"><ele>55.0</ele><time>2026-04-23T11:17:53Z</time></trkpt><trkpt lat="42.800164835484665" lon="10.367972227503838"><ele>56.8</ele><time>2026-04-23T11:17:55Z</time></trkpt><trkpt lat="42.8001599779561" lon="10.368087848277062"><ele>58.6</ele><time>2026-04-23T11:19:37Z</time></trkpt><trkpt lat="42.80018670975467" lon="10.368221974398244"><ele>60.400000000000006</ele><time>2026-04-23T11:19:39Z</time></trkpt><trkpt lat="42.800236790711025" lon="10.36835206057344"><ele>62.2</ele><time>2026-04-23T11:19:41Z</time></trkpt><trkpt lat="42.80029789286003" lon="10.368487120827327"><ele>64.0</ele><time>2026-04-23T11:19:43Z</time></trkpt><trkpt lat="42.80036484711222" lon="10.368632591508824"><ele>64.0</ele><time>2026-04-23T11:19:45Z</time></trkpt><trkpt lat="42.80040511553128" lon="10.368707796689911"><ele>63.99999999999999</ele><time>2026-04-23T11:19:46Z</time></trkpt><trkpt lat="42.800460762192245" lon="10.368764951384122"><ele>64.0</ele><time>2026-04-23T11:19:47Z</time></trkpt><trkpt lat="42.80050317157851" lon="10.368838777084436"><ele>64.0</ele><time>2026-04-23T11:19:48Z</time></trkpt><trkpt lat="42.80054000208633" lon="10.368916684695371"><ele>63.99999999999999</ele><time>2026-04-23T11:19:49Z</time></trkpt><trkpt lat="42.800568918018215" lon="10.369005219270539"><ele>64.0</ele><time>2026-04-23T11:19:50Z</time></trkpt><trkpt lat="42.80058664774994" lon="10.369098695857964"><ele>64.0</ele><time>2026-04-23T11:19:51Z</time></trkpt><trkpt lat="42.80059029589672" lon="10.36919704019526"><ele>64.83333333333333</ele><time>2026-04-23T11:19:52Z</time></trkpt><trkpt lat="42.800585907983844" lon="10.36930036604195"><ele>65.66666666666666</ele><time>2026-04-23T11:19:53Z</time></trkpt><trkpt lat="42.80057576994098" lon="10.369400036957142"><ele>66.5</ele><time>2026-04-23T11:19:54Z</time></trkpt><trkpt lat="42.80056782583918" lon="10.36949750519446"><ele>67.33333333333333</ele><time>2026-04-23T11:19:55Z</time></trkpt><trkpt lat="42.80057874041778" lon="10.369596729963975"><ele>68.16666666666667</ele><time>2026-04-23T11:19:56Z</time></trkpt><trkpt lat="42.80059087337378" lon="10.36970392883214"><ele>69.0</ele><time>2026-04-23T11:19:57Z</time></trkpt><trkpt lat="42.800642125371276" lon="10.36979042329774"><ele>69.5</ele><time>2026-04-23T11:19:58Z</time></trkpt><trkpt lat="42.800683670069574" lon="10.369886898469398"><ele>70.0</ele><time>2026-04-23T11:19:59Z</time></trkpt><trkpt lat="42.80071561009335" lon="10.36999092816506"><ele>70.5</ele><time>2026-04-23T11:20:00Z</time></trkpt><trkpt lat="42.80073065429275" lon="10.370102293564637"><ele>71.0</ele><time>2026-04-23T11:20:01Z</time></trkpt><trkpt lat="42.800736896353236" lon="10.370214050136305"><ele>71.5</ele><time>2026-04-23T11:20:02Z</time></trkpt><trkpt lat="42.8007585831542" lon="10.370321076825029"><ele>72.0</ele><time>2026-04-23T11:20:03Z</time></trkpt><trkpt lat="42.8007807669983" lon="10.370432642010847"><ele>72.33333333333333</ele><time>2026-04-23T11:20:04Z</time></trkpt><trkpt lat="42.80082920485289" lon="10.37053238663038"><ele>72.66666666666667</ele><time>2026-04-23T11:20:05Z</time></trkpt><trkpt lat="42.80089424427572" lon="10.370612044677314"><ele>73.0</ele><time>2026-04-23T11:20:06Z</time></trkpt><trkpt lat="42.8009501011565" lon="10.370697716332524"><ele>73.33333333333334</ele><time>2026-04-23T11:20:07Z</time></trkpt><trkpt lat="42.80100886286628" lon="10.370777041444452"><ele>73.66666666666667</ele><time>2026-04-23T11:20:08Z</time></trkpt><trkpt lat="42.80106167346373" lon="10.370854800199258"><ele>74.0</ele><time>2026-04-23T11:20:09Z</time></trkpt><trkpt lat="42.801107292784266" lon="10.370941903353987"><ele>78.66666666666667</ele><time>2026-04-23T11:20:10Z</time></trkpt><trkpt lat="42.80113123756189" lon="10.371041534558634"><ele>83.33333333333334</ele><time>2026-04-23T11:20:11Z</time></trkpt><trkpt lat="42.80113619107471" lon="10.3711473499091"><ele>88.0</ele><time>2026-04-23T11:20:12Z</time></trkpt><trkpt lat="42.80112179047264" lon="10.3712554355591"><ele>92.66666666666667</ele><time>2026-04-23T11:20:13Z</time></trkpt><trkpt lat="42.80111169642475" lon="10.371366375224369"><ele>97.33333333333333</ele><time>2026-04-23T11:20:14Z</time></trkpt><trkpt lat="42.80112399839103" lon="10.37147774424666"><ele>102.0</ele><time>2026-04-23T11:20:15Z</time></trkpt><trkpt lat="42.80115840554881" lon="10.371583543137136"><ele>102.33333333333333</ele><time>2026-04-23T11:20:16Z</time></trkpt><trkpt lat="42.801199685391076" lon="10.371687071965338"><ele>102.66666666666666</ele><time>2026-04-23T11:20:17Z</time></trkpt><trkpt lat="42.80123935176127" lon="10.371791731961943"><ele>103.0</ele><time>2026-04-23T11:20:18Z</time></trkpt><trkpt lat="42.80127546910228" lon="10.371901309075971"><ele>103.33333333333333</ele><time>2026-04-23T11:20:19Z</time></trkpt><trkpt lat="42.80131798715229" lon="10.372008101408271"><ele>103.66666666666666</ele><time>2026-04-23T11:20:20Z</time></trkpt><trkpt lat="42.80136092996278" lon="10.372115253814915"><ele>104.0</ele><time>2026-04-23T11:20:21Z</time></trkpt><trkpt lat="42.80139170450275" lon="10.372229668432382"><ele>104.0</ele><time>2026-04-23T11:20:22Z</time></trkpt><trkpt lat="42.801451979157314" lon="10.372323103536344"><ele>104.0</ele><time>2026-04-23T11:20:23Z</time></trkpt><trkpt lat="42.80151101531966" lon="10.372415148660513"><ele>104.0</ele><time>2026-04-23T11:20:24Z</time></trkpt><trkpt lat="42.80156972144966" lon="10.372508349263056"><ele>104.0</ele><time>2026-04-23T11:20:25Z</time></trkpt><trkpt lat="42.801627468259746" lon="10.372600796678231"><ele>104.0</ele><time>2026-04-23T11:20:26Z</time></trkpt><trkpt lat="42.80168891577119" lon="10.372690068581418"><ele>104.0</ele><time>2026-04-23T11:20:27Z</time></trkpt><trkpt lat="42.80175083639885" lon="10.372783012687746"><ele>104.0</ele><time>2026-04-23T11:20:28Z</time></trkpt><trkpt lat="42.801814651239255" lon="10.372877405325026"><ele>104.0</ele><time>2026-04-23T11:20:29Z</time></trkpt><trkpt lat="42.801878739161225" lon="10.372968714572732"><ele>104.0</ele><time>2026-04-23T11:20:30Z</time></trkpt><trkpt lat="42.80194052690583" lon="10.373064472508496"><ele>104.0</ele><time>2026-04-23T11:20:31Z</time></trkpt><trkpt lat="42.80200053026251" lon="10.373161639364733"><ele>108.16666666666666</ele><time>2026-04-23T11:20:32Z</time></trkpt><trkpt lat="42.80206165245364" lon="10.373256307159439"><ele>112.33333333333333</ele><time>2026-04-23T11:20:33Z</time></trkpt><trkpt lat="42.80211867046712" lon="10.373352925458253"><ele>116.5</ele><time>2026-04-23T11:20:34Z</time></trkpt><trkpt lat="42.802167721821604" lon="10.37345542437919"><ele>120.66666666666666</ele><time>2026-04-23T11:20:35Z</time></trkpt><trkpt lat="42.80221284658521" lon="10.37355943614948"><ele>124.83333333333333</ele><time>2026-04-23T11:20:36Z</time></trkpt><trkpt lat="42.8022599748233" lon="10.373659987110237"><ele>129.0</ele><time>2026-04-23T11:20:37Z</time></trkpt><trkpt lat="42.80231105993376" lon="10.373753628657427"><ele>129.0</ele><time>2026-04-23T11:20:38Z</time></trkpt><trkpt lat="42.802360851873324" lon="10.373847038122543"><ele>129.0</ele><time>2026-04-23T11:20:39Z</time></trkpt><trkpt lat="42.802407835930495" lon="10.373939208698882"><ele>129.0</ele><time>2026-04-23T11:20:40Z</time></trkpt><trkpt lat="42.80245109669868" lon="10.374035266533815"><ele>129.0</ele><time>2026-04-23T11:20:41Z</time></trkpt><trkpt lat="42.80248258874224" lon="10.374126906625838"><ele>129.0</ele><time>2026-04-23T11:20:42Z</time></trkpt><trkpt lat="42.80251897730342" lon="10.374277614235188"><ele>129.0</ele><time>2026-04-23T11:20:44Z</time></trkpt><trkpt lat="42.802527818575754" lon="10.374370271485748"><ele>130.0</ele><time>2026-04-23T11:20:45Z</time></trkpt><trkpt lat="42.80252857370036" lon="10.37446580076521"><ele>131.0</ele><time>2026-04-23T11:20:46Z</time></trkpt><trkpt lat="42.8025119574612" lon="10.374566502633405"><ele>132.0</ele><time>2026-04-23T11:20:47Z</time></trkpt><trkpt lat="42.80248083971777" lon="10.374668558618549"><ele>133.0</ele><time>2026-04-23T11:20:48Z</time></trkpt><trkpt lat="42.80244460973162" lon="10.374763452832354"><ele>134.0</ele><time>2026-04-23T11:20:49Z</time></trkpt><trkpt lat="42.80240730474577" lon="10.37486705306603"><ele>135.0</ele><time>2026-04-23T11:20:50Z</time></trkpt><trkpt lat="42.80236172162358" lon="10.374972355334197"><ele>135.0</ele><time>2026-04-23T11:20:51Z</time></trkpt><trkpt lat="42.80230450370565" lon="10.375071140399957"><ele>135.0</ele><time>2026-04-23T11:20:52Z</time></trkpt><trkpt lat="42.80224948168918" lon="10.375166328051638"><ele>135.0</ele><time>2026-04-23T11:20:53Z</time></trkpt><trkpt lat="42.802190575014784" lon="10.375258403078512"><ele>135.0</ele><time>2026-04-23T11:20:54Z</time></trkpt><trkpt lat="42.80212515640314" lon="10.375341385020413"><ele>135.0</ele><time>2026-04-23T11:20:55Z</time></trkpt><trkpt lat="42.80205474117625" lon="10.37540964369945"><ele>135.0</ele><time>2026-04-23T11:20:56Z</time></trkpt><trkpt lat="42.801979906530704" lon="10.375468865444292"><ele>138.33333333333334</ele><time>2026-04-23T11:20:57Z</time></trkpt><trkpt lat="42.801910592635" lon="10.375529507720607"><ele>141.66666666666666</ele><time>2026-04-23T11:20:58Z</time></trkpt><trkpt lat="42.80185912179576" lon="10.375609584895953"><ele>145.0</ele><time>2026-04-23T11:20:59Z</time></trkpt><trkpt lat="42.80183490239487" lon="10.375706806952719"><ele>148.33333333333331</ele><time>2026-04-23T11:21:00Z</time></trkpt><trkpt lat="42.80183419135238" lon="10.375811820776303"><ele>151.66666666666666</ele><time>2026-04-23T11:21:01Z</time></trkpt><trkpt lat="42.801848658767774" lon="10.375913953556147"><ele>155.0</ele><time>2026-04-23T11:21:02Z</time></trkpt><trkpt lat="42.80186569409601" lon="10.376017396448496"><ele>155.0</ele><time>2026-04-23T11:21:03Z</time></trkpt><trkpt lat="42.80186252048197" lon="10.37612334795912"><ele>155.0</ele><time>2026-04-23T11:21:04Z</time></trkpt><trkpt lat="42.80183998139085" lon="10.376226020063084"><ele>155.0</ele><time>2026-04-23T11:21:05Z</time></trkpt><trkpt lat="42.801795728465834" lon="10.376316175961641"><ele>155.0</ele><time>2026-04-23T11:21:06Z</time></trkpt><trkpt lat="42.80173332604083" lon="10.376383083018244"><ele>155.0</ele><time>2026-04-23T11:21:07Z</time></trkpt><trkpt lat="42.801663449252885" lon="10.376433491993195"><ele>155.0</ele><time>2026-04-23T11:21:08Z</time></trkpt><trkpt lat="42.801596870778205" lon="10.376477623007197"><ele>204.0</ele><time>2026-04-23T11:21:09Z</time></trkpt><trkpt lat="42.79953881789402" lon="10.380256671349873"><ele>204.0</ele><time>2026-04-23T11:23:17Z</time></trkpt><trkpt lat="42.799595021737" lon="10.380319414010126"><ele>204.0</ele><time>2026-04-23T11:23:18Z</time></trkpt><trkpt lat="42.799644127601084" lon="10.380376764796909"><ele>204.0</ele><time>2026-04-23T11:23:19Z</time></trkpt><trkpt lat="42.799723574071216" lon="10.380434995602913"><ele>204.0</ele><time>2026-04-23T11:23:21Z</time></trkpt><trkpt lat="42.79977726831408" lon="10.380479876399193"><ele>204.0</ele><time>2026-04-23T11:24:10Z</time></trkpt><trkpt lat="42.799916495494955" lon="10.380459741011638"><ele>204.0</ele><time>2026-04-23T11:24:13Z</time></trkpt><trkpt lat="42.800012143918046" lon="10.380398016010686"><ele>204.0</ele><time>2026-04-23T11:24:15Z</time></trkpt><trkpt lat="42.80011291022768" lon="10.38028825464489"><ele>204.0</ele><time>2026-04-23T11:24:17Z</time></trkpt><trkpt lat="42.80016582261771" lon="10.380237192738594"><ele>204.0</ele><time>2026-04-23T11:24:18Z</time></trkpt><trkpt lat="42.800221533128685" lon="10.380191018569825"><ele>204.0</ele><time>2026-04-23T11:24:19Z</time></trkpt><trkpt lat="42.80028110103234" lon="10.380155856087061"><ele>204.0</ele><time>2026-04-23T11:24:20Z</time></trkpt><trkpt lat="42.800342487887626" lon="10.38013145057734"><ele>204.0</ele><time>2026-04-23T11:24:21Z</time></trkpt><trkpt lat="42.800409571419394" lon="10.38011983646194"><ele>205.85714285714286</ele><time>2026-04-23T11:24:22Z</time></trkpt><trkpt lat="42.80047855933446" lon="10.380115435121592"><ele>207.71428571428572</ele><time>2026-04-23T11:24:23Z</time></trkpt><trkpt lat="42.800547205265204" lon="10.380118771717779"><ele>209.57142857142856</ele><time>2026-04-23T11:24:24Z</time></trkpt><trkpt lat="42.80061466103126" lon="10.380138027307677"><ele>211.42857142857144</ele><time>2026-04-23T11:24:25Z</time></trkpt><trkpt lat="42.80067645068622" lon="10.380181865819134"><ele>213.28571428571428</ele><time>2026-04-23T11:24:26Z</time></trkpt><trkpt lat="42.80072913901091" lon="10.380244387991919"><ele>215.14285714285714</ele><time>2026-04-23T11:24:27Z</time></trkpt><trkpt lat="42.800772219597356" lon="10.380319134024386"><ele>217.0</ele><time>2026-04-23T11:24:28Z</time></trkpt><trkpt lat="42.8007994900335" lon="10.380412773529963"><ele>216.99999999999997</ele><time>2026-04-23T11:24:29Z</time></trkpt><trkpt lat="42.8008141420969" lon="10.380508019633846"><ele>217.0</ele><time>2026-04-23T11:24:30Z</time></trkpt><trkpt lat="42.80080587620951" lon="10.380605064207202"><ele>217.0</ele><time>2026-04-23T11:24:31Z</time></trkpt><trkpt lat="42.80074496145698" lon="10.380788620298816"><ele>217.0</ele><time>2026-04-23T11:24:33Z</time></trkpt><trkpt lat="42.80071034069537" lon="10.380881007820658"><ele>216.99999999999997</ele><time>2026-04-23T11:24:34Z</time></trkpt><trkpt lat="42.80067807941736" lon="10.38098161056974"><ele>217.0</ele><time>2026-04-23T11:24:35Z</time></trkpt><trkpt lat="42.800646711576135" lon="10.381082936443207"><ele>218.0</ele><time>2026-04-23T11:24:36Z</time></trkpt><trkpt lat="42.80061975607595" lon="10.381181543597846"><ele>219.0</ele><time>2026-04-23T11:24:37Z</time></trkpt><trkpt lat="42.80060059369556" lon="10.381284707483301"><ele>220.0</ele><time>2026-04-23T11:24:38Z</time></trkpt><trkpt lat="42.80058134144204" lon="10.381384953013962"><ele>221.0</ele><time>2026-04-23T11:24:39Z</time></trkpt><trkpt lat="42.80055650811719" lon="10.381477050872325"><ele>222.0</ele><time>2026-04-23T11:24:40Z</time></trkpt><trkpt lat="42.800521252667686" lon="10.38156396289281"><ele>223.0</ele><time>2026-04-23T11:24:41Z</time></trkpt><trkpt lat="42.80048622073887" lon="10.381650729560418"><ele>224.0</ele><time>2026-04-23T11:24:42Z</time></trkpt><trkpt lat="42.800461848600875" lon="10.381741074335544"><ele>226.00000000000003</ele><time>2026-04-23T11:24:43Z</time></trkpt><trkpt lat="42.80045104242282" lon="10.381833033613024"><ele>228.0</ele><time>2026-04-23T11:24:44Z</time></trkpt><trkpt lat="42.80046741418507" lon="10.381925203907885"><ele>230.0</ele><time>2026-04-23T11:24:45Z</time></trkpt><trkpt lat="42.800504565444975" lon="10.382009982661605"><ele>232.0</ele><time>2026-04-23T11:24:46Z</time></trkpt><trkpt lat="42.80055445637361" lon="10.382095609504221"><ele>234.00000000000003</ele><time>2026-04-23T11:24:47Z</time></trkpt><trkpt lat="42.8006026302539" lon="10.382189589795578"><ele>236.0</ele><time>2026-04-23T11:24:48Z</time></trkpt><trkpt lat="42.800646566833656" lon="10.382287774966308"><ele>237.4</ele><time>2026-04-23T11:24:49Z</time></trkpt><trkpt lat="42.80068892926657" lon="10.382389426929876"><ele>238.8</ele><time>2026-04-23T11:24:50Z</time></trkpt><trkpt lat="42.80072297034619" lon="10.382489237364343"><ele>240.20000000000002</ele><time>2026-04-23T11:24:51Z</time></trkpt><trkpt lat="42.800750721310095" lon="10.382598702757775"><ele>241.60000000000002</ele><time>2026-04-23T11:24:52Z</time></trkpt><trkpt lat="42.8007863294403" lon="10.382830651711755"><ele>243.0</ele><time>2026-04-23T11:24:54Z</time></trkpt><trkpt lat="42.80081554847819" lon="10.382945951036664"><ele>243.0</ele><time>2026-04-23T11:24:55Z</time></trkpt><trkpt lat="42.800845548235806" lon="10.383059287854904"><ele>243.0</ele><time>2026-04-23T11:24:56Z</time></trkpt><trkpt lat="42.8008740133769" lon="10.383161496263869"><ele>243.0</ele><time>2026-04-23T11:24:57Z</time></trkpt><trkpt lat="42.80090587189639" lon="10.383308244358881"><ele>243.0</ele><time>2026-04-23T11:24:59Z</time></trkpt><trkpt lat="42.800868837014114" lon="10.383454479332178"><ele>243.0</ele><time>2026-04-23T11:25:01Z</time></trkpt><trkpt lat="42.80081872687527" lon="10.383517261610674"><ele>243.0</ele><time>2026-04-23T11:25:02Z</time></trkpt><trkpt lat="42.800759340057105" lon="10.383577215867373"><ele>243.0</ele><time>2026-04-23T11:25:03Z</time></trkpt><trkpt lat="42.8007038100448" lon="10.38364973879682"><ele>243.0</ele><time>2026-04-23T11:25:04Z</time></trkpt><trkpt lat="42.8006529905867" lon="10.383733244730902"><ele>243.0</ele><time>2026-04-23T11:25:05Z</time></trkpt><trkpt lat="42.80061406690162" lon="10.383825676385934"><ele>243.0</ele><time>2026-04-23T11:25:06Z</time></trkpt><trkpt lat="42.80059094315154" lon="10.383926556292497"><ele>243.0</ele><time>2026-04-23T11:25:07Z</time></trkpt><trkpt lat="42.800585103675566" lon="10.384036848305406"><ele>244.5</ele><time>2026-04-23T11:25:08Z</time></trkpt><trkpt lat="42.80059101537894" lon="10.38414220960364"><ele>246.0</ele><time>2026-04-23T11:25:09Z</time></trkpt><trkpt lat="42.8006008716078" lon="10.384246037376172"><ele>247.5</ele><time>2026-04-23T11:25:10Z</time></trkpt><trkpt lat="42.80061397958565" lon="10.38435006385032"><ele>249.0</ele><time>2026-04-23T11:25:11Z</time></trkpt><trkpt lat="42.80063146748044" lon="10.384454489172425"><ele>250.5</ele><time>2026-04-23T11:25:12Z</time></trkpt><trkpt lat="42.80065358195137" lon="10.384559052587981"><ele>252.0</ele><time>2026-04-23T11:25:13Z</time></trkpt><trkpt lat="42.80072015448323" lon="10.384759555180025"><ele>252.5</ele><time>2026-04-23T11:25:15Z</time></trkpt><trkpt lat="42.800757674176346" lon="10.384855062680407"><ele>253.0</ele><time>2026-04-23T11:25:16Z</time></trkpt><trkpt lat="42.80080181956135" lon="10.384951866562615"><ele>253.5</ele><time>2026-04-23T11:25:17Z</time></trkpt><trkpt lat="42.800846195371314" lon="10.38505193609993"><ele>254.0</ele><time>2026-04-23T11:25:18Z</time></trkpt><trkpt lat="42.80089013387954" lon="10.385145575927309"><ele>254.5</ele><time>2026-04-23T11:25:19Z</time></trkpt><trkpt lat="42.80093127018286" lon="10.385235518282638"><ele>255.0</ele><time>2026-04-23T11:25:20Z</time></trkpt><trkpt lat="42.800961901261026" lon="10.38532506289306"><ele>255.0</ele><time>2026-04-23T11:25:21Z</time></trkpt><trkpt lat="42.80097803668364" lon="10.385413974525381"><ele>255.00000000000003</ele><time>2026-04-23T11:25:22Z</time></trkpt><trkpt lat="42.800974237498075" lon="10.385500416484712"><ele>255.0</ele><time>2026-04-23T11:25:23Z</time></trkpt><trkpt lat="42.80095101440053" lon="10.385586484931858"><ele>255.0</ele><time>2026-04-23T11:25:24Z</time></trkpt><trkpt lat="42.8009131778093" lon="10.385666142455477"><ele>255.00000000000003</ele><time>2026-04-23T11:25:25Z</time></trkpt><trkpt lat="42.80087468517399" lon="10.385744218399328"><ele>255.0</ele><time>2026-04-23T11:25:26Z</time></trkpt><trkpt lat="42.800840108998585" lon="10.385830116120259"><ele>255.0</ele><time>2026-04-23T11:25:27Z</time></trkpt><trkpt lat="42.80081112813832" lon="10.385917195728078"><ele>255.71428571428572</ele><time>2026-04-23T11:25:28Z</time></trkpt><trkpt lat="42.80079119210053" lon="10.386012108851162"><ele>256.42857142857144</ele><time>2026-04-23T11:25:29Z</time></trkpt><trkpt lat="42.800782162434096" lon="10.386111883738424"><ele>257.14285714285717</ele><time>2026-04-23T11:25:30Z</time></trkpt><trkpt lat="42.800784033285225" lon="10.3862109410427"><ele>257.8571428571429</ele><time>2026-04-23T11:25:31Z</time></trkpt><trkpt lat="42.80080197114716" lon="10.386305541918007"><ele>258.57142857142856</ele><time>2026-04-23T11:25:32Z</time></trkpt><trkpt lat="42.80083156542736" lon="10.386393737949113"><ele>259.28571428571433</ele><time>2026-04-23T11:25:33Z</time></trkpt><trkpt lat="42.80086706152046" lon="10.386469037721493"><ele>260.0</ele><time>2026-04-23T11:25:34Z</time></trkpt><trkpt lat="42.80098888140597" lon="10.38666535008984"><ele>261.6666666666667</ele><time>2026-04-23T11:25:37Z</time></trkpt><trkpt lat="42.801010584093326" lon="10.386753091143214"><ele>263.33333333333337</ele><time>2026-04-23T11:25:38Z</time></trkpt><trkpt lat="42.80098730521581" lon="10.386852064863492"><ele>265.0</ele><time>2026-04-23T11:25:39Z</time></trkpt><trkpt lat="42.80099621708911" lon="10.386956747940943"><ele>266.6666666666667</ele><time>2026-04-23T11:25:40Z</time></trkpt><trkpt lat="42.80099622437847" lon="10.38705528497388"><ele>268.3333333333333</ele><time>2026-04-23T11:25:41Z</time></trkpt><trkpt lat="42.80098957196247" lon="10.387200733299531"><ele>270.0</ele><time>2026-04-23T11:25:43Z</time></trkpt><trkpt lat="42.80090257881887" lon="10.387284952543897"><ele>272.2857142857143</ele><time>2026-04-23T11:25:45Z</time></trkpt><trkpt lat="42.80083556341631" lon="10.387284033862194"><ele>274.57142857142856</ele><time>2026-04-23T11:25:46Z</time></trkpt><trkpt lat="42.800766834737836" lon="10.387263973621296"><ele>276.85714285714283</ele><time>2026-04-23T11:25:47Z</time></trkpt><trkpt lat="42.800698422277925" lon="10.387270639228808"><ele>279.1428571428571</ele><time>2026-04-23T11:25:48Z</time></trkpt><trkpt lat="42.80062895713511" lon="10.387298530945227"><ele>281.42857142857144</ele><time>2026-04-23T11:25:49Z</time></trkpt><trkpt lat="42.80055679280122" lon="10.387336856714022"><ele>283.71428571428567</ele><time>2026-04-23T11:25:50Z</time></trkpt><trkpt lat="42.800490240248436" lon="10.387378150394769"><ele>286.0</ele><time>2026-04-23T11:25:51Z</time></trkpt><trkpt lat="42.80042730173727" lon="10.387412202591225"><ele>286.0</ele><time>2026-04-23T11:25:52Z</time></trkpt><trkpt lat="42.80036293021083" lon="10.387450453959604"><ele>286.0</ele><time>2026-04-23T11:25:53Z</time></trkpt><trkpt lat="42.80028575924265" lon="10.387541211825102"><ele>286.0</ele><time>2026-04-23T11:25:55Z</time></trkpt><trkpt lat="42.80038240729434" lon="10.387690354621364"><ele>286.0</ele><time>2026-04-23T11:27:25Z</time></trkpt><trkpt lat="42.800600051274266" lon="10.387578050784981"><ele>286.0</ele><time>2026-04-23T11:27:29Z</time></trkpt><trkpt lat="42.80066196906465" lon="10.387561267964116"><ele>286.0</ele><time>2026-04-23T11:27:30Z</time></trkpt><trkpt lat="42.80078864000838" lon="10.387571803832191"><ele>286.0</ele><time>2026-04-23T11:27:32Z</time></trkpt><trkpt lat="42.80085951948162" lon="10.387605635531912"><ele>286.0</ele><time>2026-04-23T11:27:33Z</time></trkpt><trkpt lat="42.80093017147152" lon="10.387651409719183"><ele>286.0</ele><time>2026-04-23T11:27:34Z</time></trkpt><trkpt lat="42.80098414268975" lon="10.387713380688913"><ele>286.0</ele><time>2026-04-23T11:27:35Z</time></trkpt><trkpt lat="42.80104425202667" lon="10.387757023029582"><ele>291.2</ele><time>2026-04-23T11:27:36Z</time></trkpt><trkpt lat="42.80114327415247" lon="10.387786888983838"><ele>296.40000000000003</ele><time>2026-04-23T11:27:38Z</time></trkpt><trkpt lat="42.80123142050475" lon="10.387733820445737"><ele>301.6</ele><time>2026-04-23T11:27:40Z</time></trkpt><trkpt lat="42.80133312824258" lon="10.387723003828297"><ele>306.8</ele><time>2026-04-23T11:27:42Z</time></trkpt><trkpt lat="42.80143281124912" lon="10.387666043156523"><ele>312.0</ele><time>2026-04-23T11:27:44Z</time></trkpt><trkpt lat="42.80146692710673" lon="10.387533817117166"><ele>312.0</ele><time>2026-04-23T11:27:46Z</time></trkpt><trkpt lat="42.80147470313767" lon="10.387270940808577"><ele>312.0</ele><time>2026-04-23T11:27:49Z</time></trkpt><trkpt lat="42.80148726081512" lon="10.387097138336486"><ele>312.0</ele><time>2026-04-23T11:27:51Z</time></trkpt><trkpt lat="42.80149911543943" lon="10.387004141730545"><ele>312.0</ele><time>2026-04-23T11:27:52Z</time></trkpt><trkpt lat="42.80152639935688" lon="10.38691022852156"><ele>311.0</ele><time>2026-04-23T11:27:53Z</time></trkpt><trkpt lat="42.80155108308677" lon="10.386826877445765"><ele>310.0</ele><time>2026-04-23T11:27:54Z</time></trkpt><trkpt lat="42.80158488829025" lon="10.386742224577192"><ele>309.0</ele><time>2026-04-23T11:27:55Z</time></trkpt><trkpt lat="42.80161787235225" lon="10.386666684088413"><ele>308.0</ele><time>2026-04-23T11:27:56Z</time></trkpt><trkpt lat="42.80165106376172" lon="10.386587746462775"><ele>307.0</ele><time>2026-04-23T11:27:57Z</time></trkpt><trkpt lat="42.801681222130554" lon="10.386417083140051"><ele>306.0</ele><time>2026-04-23T11:27:59Z</time></trkpt><trkpt lat="42.80165353405949" lon="10.386319943610363"><ele>306.0</ele><time>2026-04-23T11:28:00Z</time></trkpt><trkpt lat="42.801613730862236" lon="10.386244147397807"><ele>306.0</ele><time>2026-04-23T11:28:01Z</time></trkpt><trkpt lat="42.80160743799133" lon="10.38608922417589"><ele>306.0</ele><time>2026-04-23T11:28:03Z</time></trkpt><trkpt lat="42.80167248377487" lon="10.386023143151878"><ele>306.0</ele><time>2026-04-23T11:28:05Z</time></trkpt><trkpt lat="42.801762125495415" lon="10.386085759212085"><ele>306.0</ele><time>2026-04-23T11:28:07Z</time></trkpt><trkpt lat="42.801863350188604" lon="10.386268802021753"><ele>310.6</ele><time>2026-04-23T11:28:11Z</time></trkpt><trkpt lat="42.80193089876895" lon="10.386371777649039"><ele>315.20000000000005</ele><time>2026-04-23T11:28:13Z</time></trkpt><trkpt lat="42.802007882466086" lon="10.386487596151287"><ele>319.79999999999995</ele><time>2026-04-23T11:28:15Z</time></trkpt><trkpt lat="42.80206381080429" lon="10.386529987862115"><ele>324.4</ele><time>2026-04-23T11:28:16Z</time></trkpt><trkpt lat="42.802175176589884" lon="10.386587874818277"><ele>329.0</ele><time>2026-04-23T11:28:18Z</time></trkpt><trkpt lat="42.80224141638848" lon="10.386564805263284"><ele>329.0</ele><time>2026-04-23T11:28:19Z</time></trkpt><trkpt lat="42.80235498691167" lon="10.386576939670377"><ele>329.0</ele><time>2026-04-23T11:28:21Z</time></trkpt><trkpt lat="42.80241828425635" lon="10.38664475430372"><ele>329.0</ele><time>2026-04-23T11:28:22Z</time></trkpt><trkpt lat="42.80249183122144" lon="10.38672274709365"><ele>329.0</ele><time>2026-04-23T11:28:23Z</time></trkpt><trkpt lat="42.80254321517016" lon="10.386777434237212"><ele>329.0</ele><time>2026-04-23T11:28:24Z</time></trkpt><trkpt lat="42.802594869411294" lon="10.386835550543923"><ele>329.0</ele><time>2026-04-23T11:28:25Z</time></trkpt><trkpt lat="42.80264622773119" lon="10.386901824715276"><ele>323.5</ele><time>2026-04-23T11:28:26Z</time></trkpt><trkpt lat="42.80271743007923" lon="10.387034649245656"><ele>318.0</ele><time>2026-04-23T11:28:28Z</time></trkpt><trkpt lat="42.802801159637774" lon="10.387297896976198"><ele>312.5</ele><time>2026-04-23T11:28:31Z</time></trkpt><trkpt lat="42.80283462008603" lon="10.387398863749707"><ele>307.0</ele><time>2026-04-23T11:28:32Z</time></trkpt><trkpt lat="42.8028721703798" lon="10.38751188541869"><ele>307.0</ele><time>2026-04-23T11:28:33Z</time></trkpt><trkpt lat="42.80291306516554" lon="10.387625936477242"><ele>307.0</ele><time>2026-04-23T11:28:34Z</time></trkpt><trkpt lat="42.802953458649455" lon="10.38774402353996"><ele>307.0</ele><time>2026-04-23T11:28:35Z</time></trkpt><trkpt lat="42.80300551404001" lon="10.387861667545508"><ele>307.0</ele><time>2026-04-23T11:28:36Z</time></trkpt><trkpt lat="42.80303007025654" lon="10.38799607092879"><ele>307.0</ele><time>2026-04-23T11:28:37Z</time></trkpt><trkpt lat="42.8030518817169" lon="10.38813012504873"><ele>309.0</ele><time>2026-04-23T11:28:38Z</time></trkpt><trkpt lat="42.80304818185373" lon="10.38826023801332"><ele>311.0</ele><time>2026-04-23T11:28:39Z</time></trkpt><trkpt lat="42.80306290257507" lon="10.388391960857003"><ele>313.0</ele><time>2026-04-23T11:28:40Z</time></trkpt><trkpt lat="42.80307700224236" lon="10.388519870942693"><ele>315.0</ele><time>2026-04-23T11:28:41Z</time></trkpt><trkpt lat="42.80309175627883" lon="10.388632801058302"><ele>317.0</ele><time>2026-04-23T11:28:42Z</time></trkpt><trkpt lat="42.803111927773124" lon="10.388746917044166"><ele>317.1666666666667</ele><time>2026-04-23T11:28:43Z</time></trkpt><trkpt lat="42.803134034892715" lon="10.388843209632823"><ele>317.33333333333337</ele><time>2026-04-23T11:28:44Z</time></trkpt><trkpt lat="42.8031477580921" lon="10.388945089290425"><ele>317.5</ele><time>2026-04-23T11:28:45Z</time></trkpt><trkpt lat="42.80312943954331" lon="10.389047824724427"><ele>317.6666666666667</ele><time>2026-04-23T11:28:46Z</time></trkpt><trkpt lat="42.80312082441953" lon="10.38916075647491"><ele>317.8333333333333</ele><time>2026-04-23T11:28:47Z</time></trkpt><trkpt lat="42.803082322394054" lon="10.389261564382611"><ele>318.0</ele><time>2026-04-23T11:28:48Z</time></trkpt><trkpt lat="42.80307104060348" lon="10.389351111612307"><ele>318.0</ele><time>2026-04-23T11:28:49Z</time></trkpt><trkpt lat="42.803093214427555" lon="10.389545966352745"><ele>318.0</ele><time>2026-04-23T11:28:51Z</time></trkpt><trkpt lat="42.803125170046634" lon="10.389631557794923"><ele>318.0</ele><time>2026-04-23T11:28:52Z</time></trkpt><trkpt lat="42.803162942312476" lon="10.389713833139638"><ele>318.0</ele><time>2026-04-23T11:28:53Z</time></trkpt><trkpt lat="42.80319439315668" lon="10.38978896863116"><ele>318.0</ele><time>2026-04-23T11:28:54Z</time></trkpt><trkpt lat="42.80321212929631" lon="10.389879260979196"><ele>318.0</ele><time>2026-04-23T11:28:55Z</time></trkpt><trkpt lat="42.80321162895981" lon="10.390058286110795"><ele>318.5</ele><time>2026-04-23T11:28:57Z</time></trkpt><trkpt lat="42.80322823491304" lon="10.390154714742938"><ele>319.0</ele><time>2026-04-23T11:28:58Z</time></trkpt><trkpt lat="42.80326582124039" lon="10.39024227095855"><ele>319.5</ele><time>2026-04-23T11:28:59Z</time></trkpt><trkpt lat="42.80332797053481" lon="10.390312249395565"><ele>320.0</ele><time>2026-04-23T11:29:00Z</time></trkpt><trkpt lat="42.80338815952065" lon="10.39034574320583"><ele>320.5</ele><time>2026-04-23T11:29:01Z</time></trkpt><trkpt lat="42.80350463495825" lon="10.390380403962054"><ele>321.0</ele><time>2026-04-23T11:29:03Z</time></trkpt><trkpt lat="42.80360812960898" lon="10.390439176724081"><ele>320.2</ele><time>2026-04-23T11:29:05Z</time></trkpt><trkpt lat="42.803672534798636" lon="10.390504510059408"><ele>319.40000000000003</ele><time>2026-04-23T11:29:06Z</time></trkpt><trkpt lat="42.80374053352991" lon="10.39056581910573"><ele>318.6</ele><time>2026-04-23T11:29:07Z</time></trkpt><trkpt lat="42.80378707480218" lon="10.390652777741028"><ele>317.8</ele><time>2026-04-23T11:29:08Z</time></trkpt><trkpt lat="42.803880310497696" lon="10.390779250624725"><ele>317.0</ele><time>2026-04-23T11:29:10Z</time></trkpt><trkpt lat="42.804001437925294" lon="10.390915652778373"><ele>317.0</ele><time>2026-04-23T11:29:12Z</time></trkpt><trkpt lat="42.8040838154947" lon="10.390943620117094"><ele>317.0</ele><time>2026-04-23T11:29:13Z</time></trkpt><trkpt lat="42.804147948694464" lon="10.39097719186692"><ele>317.0</ele><time>2026-04-23T11:29:14Z</time></trkpt><trkpt lat="42.804252263953195" lon="10.391015232148375"><ele>317.0</ele><time>2026-04-23T11:29:16Z</time></trkpt><trkpt lat="42.80433081512739" lon="10.391064029786781"><ele>317.0</ele><time>2026-04-23T11:29:18Z</time></trkpt><trkpt lat="42.80441093646846" lon="10.39116641473354"><ele>316.14285714285717</ele><time>2026-04-23T11:29:20Z</time></trkpt><trkpt lat="42.804453404355115" lon="10.391234968305392"><ele>315.2857142857143</ele><time>2026-04-23T11:29:21Z</time></trkpt><trkpt lat="42.80449878451343" lon="10.391305376129324"><ele>314.42857142857144</ele><time>2026-04-23T11:29:22Z</time></trkpt><trkpt lat="42.80452828578972" lon="10.391385377906852"><ele>313.57142857142856</ele><time>2026-04-23T11:29:23Z</time></trkpt><trkpt lat="42.80458837517321" lon="10.391453777233695"><ele>312.7142857142857</ele><time>2026-04-23T11:29:24Z</time></trkpt><trkpt lat="42.80464659927623" lon="10.391520681344131"><ele>311.85714285714283</ele><time>2026-04-23T11:29:25Z</time></trkpt><trkpt lat="42.804706668174944" lon="10.391588652920186"><ele>311.0</ele><time>2026-04-23T11:29:26Z</time></trkpt><trkpt lat="42.80476990303524" lon="10.391666608748565"><ele>311.0</ele><time>2026-04-23T11:29:27Z</time></trkpt><trkpt lat="42.804826611715946" lon="10.391755967994778"><ele>311.0</ele><time>2026-04-23T11:29:28Z</time></trkpt><trkpt lat="42.80488093656691" lon="10.391846479887239"><ele>311.0</ele><time>2026-04-23T11:29:29Z</time></trkpt><trkpt lat="42.804936540433154" lon="10.391933573246607"><ele>311.0</ele><time>2026-04-23T11:29:30Z</time></trkpt><trkpt lat="42.80498679344134" lon="10.39200855984422"><ele>311.0</ele><time>2026-04-23T11:29:31Z</time></trkpt><trkpt lat="42.80510189730432" lon="10.392122968804143"><ele>308.5</ele><time>2026-04-23T11:29:33Z</time></trkpt><trkpt lat="42.80517390956558" lon="10.392109260202217"><ele>306.0</ele><time>2026-04-23T11:29:34Z</time></trkpt><trkpt lat="42.805240257361994" lon="10.392113058166835"><ele>303.5</ele><time>2026-04-23T11:29:35Z</time></trkpt><trkpt lat="42.805303231250434" lon="10.392115559637212"><ele>301.0</ele><time>2026-04-23T11:29:36Z</time></trkpt><trkpt lat="42.80542493111643" lon="10.39212373317449"><ele>298.5</ele><time>2026-04-23T11:29:38Z</time></trkpt><trkpt lat="42.80548928062331" lon="10.392129611630418"><ele>296.0</ele><time>2026-04-23T11:29:39Z</time></trkpt><trkpt lat="42.80555643847693" lon="10.39213873828657"><ele>296.0</ele><time>2026-04-23T11:29:40Z</time></trkpt><trkpt lat="42.80562664546813" lon="10.392155667236857"><ele>296.0</ele><time>2026-04-23T11:29:41Z</time></trkpt><trkpt lat="42.80569777021689" lon="10.392187355758374"><ele>296.0</ele><time>2026-04-23T11:29:42Z</time></trkpt><trkpt lat="42.805765484991944" lon="10.392223487125577"><ele>296.0</ele><time>2026-04-23T11:29:43Z</time></trkpt><trkpt lat="42.805827236242045" lon="10.392253546186696"><ele>296.0</ele><time>2026-04-23T11:29:44Z</time></trkpt><trkpt lat="42.805941268434545" lon="10.392297741383116"><ele>296.0</ele><time>2026-04-23T11:29:46Z</time></trkpt><trkpt lat="42.80606054219438" lon="10.392328800401431"><ele>299.6</ele><time>2026-04-23T11:29:48Z</time></trkpt><trkpt lat="42.80612518458672" lon="10.392338407613076"><ele>303.20000000000005</ele><time>2026-04-23T11:29:49Z</time></trkpt><trkpt lat="42.80620130649146" lon="10.392357798707426"><ele>306.79999999999995</ele><time>2026-04-23T11:29:50Z</time></trkpt><trkpt lat="42.80628080217982" lon="10.39238773588605"><ele>310.4</ele><time>2026-04-23T11:29:51Z</time></trkpt><trkpt lat="42.80636366995945" lon="10.392431008428481"><ele>314.0</ele><time>2026-04-23T11:29:52Z</time></trkpt><trkpt lat="42.80654193661479" lon="10.392523489222608"><ele>314.0</ele><time>2026-04-23T11:29:54Z</time></trkpt><trkpt lat="42.806644880505424" lon="10.392567036983323"><ele>314.0</ele><time>2026-04-23T11:29:55Z</time></trkpt><trkpt lat="42.80675961911075" lon="10.392612480218023"><ele>314.0</ele><time>2026-04-23T11:29:56Z</time></trkpt><trkpt lat="42.80687634023234" lon="10.392662822242382"><ele>314.0</ele><time>2026-04-23T11:29:57Z</time></trkpt><trkpt lat="42.80699995325278" lon="10.392700017421982"><ele>312.0</ele><time>2026-04-23T11:29:58Z</time></trkpt><trkpt lat="42.80712042331138" lon="10.392734503588262"><ele>310.0</ele><time>2026-04-23T11:29:59Z</time></trkpt><trkpt lat="42.807231688054195" lon="10.392770942931879"><ele>308.0</ele><time>2026-04-23T11:30:00Z</time></trkpt><trkpt lat="42.807340105337516" lon="10.392805363994992"><ele>306.0</ele><time>2026-04-23T11:30:01Z</time></trkpt><trkpt lat="42.807450841283234" lon="10.392834963184429"><ele>306.0</ele><time>2026-04-23T11:30:02Z</time></trkpt><trkpt lat="42.80756373272624" lon="10.392857262996609"><ele>306.0</ele><time>2026-04-23T11:30:03Z</time></trkpt><trkpt lat="42.80766719909746" lon="10.392876062349485"><ele>306.0</ele><time>2026-04-23T11:30:04Z</time></trkpt><trkpt lat="42.80776569678605" lon="10.392896038933891"><ele>306.0</ele><time>2026-04-23T11:30:05Z</time></trkpt><trkpt lat="42.80786139752942" lon="10.392930050751035"><ele>306.0</ele><time>2026-04-23T11:30:06Z</time></trkpt><trkpt lat="42.80794717904592" lon="10.39296694161128"><ele>309.3333333333333</ele><time>2026-04-23T11:30:07Z</time></trkpt><trkpt lat="42.80802404145723" lon="10.393014721155815"><ele>312.6666666666667</ele><time>2026-04-23T11:30:08Z</time></trkpt><trkpt lat="42.80809333403762" lon="10.393051720793668"><ele>316.0</ele><time>2026-04-23T11:30:09Z</time></trkpt><trkpt lat="42.80815063841597" lon="10.39309033864916"><ele>319.33333333333337</ele><time>2026-04-23T11:30:10Z</time></trkpt><trkpt lat="42.808231929866196" lon="10.393159980383848"><ele>322.6666666666667</ele><time>2026-04-23T11:30:12Z</time></trkpt><trkpt lat="42.80830183319887" lon="10.393230327349405"><ele>326.0</ele><time>2026-04-23T11:30:15Z</time></trkpt><trkpt lat="42.80840699506996" lon="10.393352216764326"><ele>329.25</ele><time>2026-04-23T11:31:08Z</time></trkpt><trkpt lat="42.80856030691984" lon="10.393549097599347"><ele>332.5</ele><time>2026-04-23T11:31:13Z</time></trkpt><trkpt lat="42.80862230927938" lon="10.39359907500451"><ele>335.75</ele><time>2026-04-23T11:31:14Z</time></trkpt><trkpt lat="42.80869903975298" lon="10.393719466425143"><ele>339.0</ele><time>2026-04-23T11:31:16Z</time></trkpt><trkpt lat="42.80875250946883" lon="10.393783592857886"><ele>334.8</ele><time>2026-04-23T11:31:18Z</time></trkpt><trkpt lat="42.808715726091265" lon="10.393879650097816"><ele>330.59999999999997</ele><time>2026-04-23T11:31:20Z</time></trkpt><trkpt lat="42.80861281963568" lon="10.393946363410864"><ele>326.4</ele><time>2026-04-23T11:31:22Z</time></trkpt><trkpt lat="42.80852828486499" lon="10.393995323508841"><ele>322.2</ele><time>2026-04-23T11:31:24Z</time></trkpt><trkpt lat="42.8084772890217" lon="10.394048650763764"><ele>318.0</ele><time>2026-04-23T11:31:31Z</time></trkpt><trkpt lat="42.80831013329331" lon="10.394240735630728"><ele>318.0</ele><time>2026-04-23T11:31:41Z</time></trkpt><trkpt lat="42.80826340596999" lon="10.394307778305587"><ele>318.0</ele><time>2026-04-23T11:31:42Z</time></trkpt><trkpt lat="42.808216746726494" lon="10.394365757141385"><ele>318.0</ele><time>2026-04-23T11:31:43Z</time></trkpt><trkpt lat="42.80815580512005" lon="10.394413442440923"><ele>318.0</ele><time>2026-04-23T11:31:44Z</time></trkpt><trkpt lat="42.80809502871045" lon="10.39445956285607"><ele>318.0</ele><time>2026-04-23T11:31:45Z</time></trkpt><trkpt lat="42.80802702137988" lon="10.39451093263541"><ele>318.0</ele><time>2026-04-23T11:31:46Z</time></trkpt><trkpt lat="42.80795884461495" lon="10.394562430341024"><ele>318.0</ele><time>2026-04-23T11:31:47Z</time></trkpt><trkpt lat="42.80789561349663" lon="10.394603838513587"><ele>318.0</ele><time>2026-04-23T11:31:48Z</time></trkpt><trkpt lat="42.80782321073766" lon="10.394634638773505"><ele>318.0</ele><time>2026-04-23T11:31:49Z</time></trkpt><trkpt lat="42.807746654982985" lon="10.394660991553582"><ele>318.0</ele><time>2026-04-23T11:31:50Z</time></trkpt><trkpt lat="42.80766551697392" lon="10.394675165347028"><ele>318.0</ele><time>2026-04-23T11:31:51Z</time></trkpt><trkpt lat="42.80758169919652" lon="10.394684273124835"><ele>318.0</ele><time>2026-04-23T11:31:52Z</time></trkpt><trkpt lat="42.807416933022836" lon="10.394691991850914"><ele>313.2</ele><time>2026-04-23T11:31:54Z</time></trkpt><trkpt lat="42.80733585486157" lon="10.394700090135867"><ele>308.4</ele><time>2026-04-23T11:31:55Z</time></trkpt><trkpt lat="42.807248782624455" lon="10.394715814746096"><ele>303.59999999999997</ele><time>2026-04-23T11:31:56Z</time></trkpt><trkpt lat="42.80716043155467" lon="10.394764092146511"><ele>298.8</ele><time>2026-04-23T11:31:57Z</time></trkpt><trkpt lat="42.80707856916583" lon="10.394824180037832"><ele>294.0</ele><time>2026-04-23T11:31:58Z</time></trkpt><trkpt lat="42.806995466685734" lon="10.394886557870464"><ele>294.0</ele><time>2026-04-23T11:31:59Z</time></trkpt><trkpt lat="42.80691594311863" lon="10.394943961865474"><ele>294.0</ele><time>2026-04-23T11:32:00Z</time></trkpt><trkpt lat="42.806825880849686" lon="10.395004563418677"><ele>294.0</ele><time>2026-04-23T11:32:01Z</time></trkpt><trkpt lat="42.80673851355658" lon="10.395063351583028"><ele>294.0</ele><time>2026-04-23T11:32:02Z</time></trkpt><trkpt lat="42.80666201158195" lon="10.39513958324301"><ele>294.0</ele><time>2026-04-23T11:32:03Z</time></trkpt><trkpt lat="42.806584524503094" lon="10.395192950159212"><ele>295.3333333333333</ele><time>2026-04-23T11:32:04Z</time></trkpt><trkpt lat="42.80650113316407" lon="10.39523227333012"><ele>296.6666666666667</ele><time>2026-04-23T11:32:05Z</time></trkpt><trkpt lat="42.806429724544955" lon="10.395297848589442"><ele>298.0</ele><time>2026-04-23T11:32:06Z</time></trkpt><trkpt lat="42.806370809274114" lon="10.395399379348916"><ele>299.33333333333337</ele><time>2026-04-23T11:32:07Z</time></trkpt><trkpt lat="42.80631211910656" lon="10.395488171728076"><ele>300.6666666666667</ele><time>2026-04-23T11:32:08Z</time></trkpt><trkpt lat="42.80625886467168" lon="10.395589979697354"><ele>302.0</ele><time>2026-04-23T11:32:09Z</time></trkpt><trkpt lat="42.8062121415674" lon="10.39569710322723"><ele>300.75</ele><time>2026-04-23T11:32:10Z</time></trkpt><trkpt lat="42.806161735911054" lon="10.395794109646895"><ele>299.5</ele><time>2026-04-23T11:32:11Z</time></trkpt><trkpt lat="42.80610808916234" lon="10.395902100556986"><ele>298.25</ele><time>2026-04-23T11:32:12Z</time></trkpt><trkpt lat="42.806059121624784" lon="10.396011360992578"><ele>297.0</ele><time>2026-04-23T11:32:13Z</time></trkpt><trkpt lat="42.80595438490037" lon="10.396242286784602"><ele>293.4</ele><time>2026-04-23T11:32:15Z</time></trkpt><trkpt lat="42.8058980058089" lon="10.396353983559544"><ele>289.79999999999995</ele><time>2026-04-23T11:32:16Z</time></trkpt><trkpt lat="42.80584583726093" lon="10.396458450046785"><ele>286.2</ele><time>2026-04-23T11:32:17Z</time></trkpt><trkpt lat="42.805789123409085" lon="10.396560318288403"><ele>282.59999999999997</ele><time>2026-04-23T11:32:18Z</time></trkpt><trkpt lat="42.805738230566796" lon="10.396671320434576"><ele>279.0</ele><time>2026-04-23T11:32:19Z</time></trkpt><trkpt lat="42.80568993189746" lon="10.396789815708175"><ele>279.0</ele><time>2026-04-23T11:32:20Z</time></trkpt><trkpt lat="42.80564747475518" lon="10.396916289250258"><ele>279.0</ele><time>2026-04-23T11:32:21Z</time></trkpt><trkpt lat="42.80560605989348" lon="10.39705392778885"><ele>279.0</ele><time>2026-04-23T11:32:22Z</time></trkpt><trkpt lat="42.8055663864185" lon="10.397185723617133"><ele>279.0</ele><time>2026-04-23T11:32:23Z</time></trkpt><trkpt lat="42.80552177769148" lon="10.39731860892435"><ele>279.0</ele><time>2026-04-23T11:32:24Z</time></trkpt><trkpt lat="42.80547708606858" lon="10.397444714379349"><ele>274.59999999999997</ele><time>2026-04-23T11:32:25Z</time></trkpt><trkpt lat="42.80543446378962" lon="10.397560690491906"><ele>270.2</ele><time>2026-04-23T11:32:26Z</time></trkpt><trkpt lat="42.80539142740394" lon="10.397679337415463"><ele>265.79999999999995</ele><time>2026-04-23T11:32:27Z</time></trkpt><trkpt lat="42.80534675713256" lon="10.39778414183329"><ele>261.4</ele><time>2026-04-23T11:32:28Z</time></trkpt><trkpt lat="42.80529569203323" lon="10.397895663736035"><ele>257.0</ele><time>2026-04-23T11:32:29Z</time></trkpt><trkpt lat="42.80524573046435" lon="10.39800905754699"><ele>257.0</ele><time>2026-04-23T11:32:30Z</time></trkpt><trkpt lat="42.80519298400917" lon="10.398103421721821"><ele>257.0</ele><time>2026-04-23T11:32:31Z</time></trkpt><trkpt lat="42.80513781622191" lon="10.398198016526907"><ele>257.0</ele><time>2026-04-23T11:32:32Z</time></trkpt><trkpt lat="42.805085248389474" lon="10.398278938097985"><ele>257.0</ele><time>2026-04-23T11:32:33Z</time></trkpt><trkpt lat="42.80503840389985" lon="10.3983537048808"><ele>257.0</ele><time>2026-04-23T11:32:34Z</time></trkpt><trkpt lat="42.8049076066452" lon="10.39852903497988"><ele>257.0</ele><time>2026-04-23T11:32:37Z</time></trkpt><trkpt lat="42.804799844280446" lon="10.398513591961589"><ele>257.0</ele><time>2026-04-23T11:32:39Z</time></trkpt><trkpt lat="42.804757059862425" lon="10.398443480596969"><ele>257.0</ele><time>2026-04-23T11:32:40Z</time></trkpt><trkpt lat="42.804709915681556" lon="10.398380824023914"><ele>257.0</ele><time>2026-04-23T11:32:41Z</time></trkpt><trkpt lat="42.80466458620949" lon="10.398307741707752"><ele>257.0</ele><time>2026-04-23T11:32:42Z</time></trkpt><trkpt lat="42.80462480596331" lon="10.398226852900596"><ele>257.0</ele><time>2026-04-23T11:32:43Z</time></trkpt><trkpt lat="42.80459489124062" lon="10.398139520606517"><ele>257.0</ele><time>2026-04-23T11:32:44Z</time></trkpt><trkpt lat="42.8045684697453" lon="10.398044841008547"><ele>257.0</ele><time>2026-04-23T11:32:45Z</time></trkpt><trkpt lat="42.8045409660451" lon="10.397944776672988"><ele>257.0</ele><time>2026-04-23T11:32:46Z</time></trkpt><trkpt lat="42.80452013858568" lon="10.397856294537142"><ele>257.0</ele><time>2026-04-23T11:32:47Z</time></trkpt><trkpt lat="42.80449923906255" lon="10.397767506393102"><ele>257.0</ele><time>2026-04-23T11:32:48Z</time></trkpt><trkpt lat="42.804462924403715" lon="10.397632808031641"><ele>257.0</ele><time>2026-04-23T11:32:50Z</time></trkpt><trkpt lat="42.804419857788886" lon="10.397569705820251"><ele>256.0</ele><time>2026-04-23T11:32:51Z</time></trkpt><trkpt lat="42.80434336295754" lon="10.397578433075735"><ele>255.0</ele><time>2026-04-23T11:32:52Z</time></trkpt><trkpt lat="42.80427806063079" lon="10.397543832820789"><ele>254.0</ele><time>2026-04-23T11:32:53Z</time></trkpt><trkpt lat="42.804203731597326" lon="10.397531710713544"><ele>253.0</ele><time>2026-04-23T11:32:54Z</time></trkpt><trkpt lat="42.804136909600814" lon="10.397519463845102"><ele>252.00000000000003</ele><time>2026-04-23T11:32:55Z</time></trkpt><trkpt lat="42.80400553411134" lon="10.397472528811644"><ele>251.0</ele><time>2026-04-23T11:32:57Z</time></trkpt><trkpt lat="42.80394766736761" lon="10.397431408250112"><ele>251.00000000000003</ele><time>2026-04-23T11:32:58Z</time></trkpt><trkpt lat="42.803896510912956" lon="10.397377723983732"><ele>251.0</ele><time>2026-04-23T11:32:59Z</time></trkpt><trkpt lat="42.803845756924765" lon="10.397310551745843"><ele>251.0</ele><time>2026-04-23T11:33:00Z</time></trkpt><trkpt lat="42.80377438080816" lon="10.39717705354867"><ele>251.0</ele><time>2026-04-23T11:33:02Z</time></trkpt><trkpt lat="42.803684223735296" lon="10.397087422123363"><ele>251.00000000000003</ele><time>2026-04-23T11:33:04Z</time></trkpt><trkpt lat="42.803608899075584" lon="10.397101201460622"><ele>251.0</ele><time>2026-04-23T11:33:05Z</time></trkpt><trkpt lat="42.8035472847679" lon="10.397155265004532"><ele>248.4285714285714</ele><time>2026-04-23T11:33:06Z</time></trkpt><trkpt lat="42.80348679692643" lon="10.39720458224293"><ele>245.85714285714283</ele><time>2026-04-23T11:33:07Z</time></trkpt><trkpt lat="42.80342569926276" lon="10.397267053864315"><ele>243.28571428571428</ele><time>2026-04-23T11:33:08Z</time></trkpt><trkpt lat="42.80336790164828" lon="10.397325151338487"><ele>240.7142857142857</ele><time>2026-04-23T11:33:09Z</time></trkpt><trkpt lat="42.80330649093317" lon="10.397380544302287"><ele>238.1428571428571</ele><time>2026-04-23T11:33:10Z</time></trkpt><trkpt lat="42.80324090023138" lon="10.39742909673567"><ele>235.57142857142858</ele><time>2026-04-23T11:33:11Z</time></trkpt><trkpt lat="42.803175288496526" lon="10.39747160250859"><ele>233.0</ele><time>2026-04-23T11:33:12Z</time></trkpt><trkpt lat="42.8031000389871" lon="10.397488803960526"><ele>233.0</ele><time>2026-04-23T11:33:13Z</time></trkpt><trkpt lat="42.80302725874393" lon="10.397520532185336"><ele>233.0</ele><time>2026-04-23T11:33:14Z</time></trkpt><trkpt lat="42.802958517680786" lon="10.397526897708971"><ele>233.0</ele><time>2026-04-23T11:33:15Z</time></trkpt><trkpt lat="42.802889663874325" lon="10.397524984639023"><ele>233.0</ele><time>2026-04-23T11:33:16Z</time></trkpt><trkpt lat="42.8027602301258" lon="10.397463058494592"><ele>233.0</ele><time>2026-04-23T11:33:18Z</time></trkpt><trkpt lat="42.80264568324989" lon="10.397367335033088"><ele>232.33333333333334</ele><time>2026-04-23T11:33:20Z</time></trkpt><trkpt lat="42.80258636714229" lon="10.397321144379589"><ele>231.66666666666669</ele><time>2026-04-23T11:33:21Z</time></trkpt><trkpt lat="42.80249137171359" lon="10.397217703077018"><ele>231.0</ele><time>2026-04-23T11:33:23Z</time></trkpt><trkpt lat="42.80240043154974" lon="10.397133051266707"><ele>230.33333333333331</ele><time>2026-04-23T11:33:25Z</time></trkpt><trkpt lat="42.80233565370608" lon="10.397122584628402"><ele>229.66666666666666</ele><time>2026-04-23T11:33:26Z</time></trkpt><trkpt lat="42.80227235859495" lon="10.397174234934944"><ele>229.0</ele><time>2026-04-23T11:33:27Z</time></trkpt><trkpt lat="42.80226011589072" lon="10.397263659504931"><ele>229.0</ele><time>2026-04-23T11:33:28Z</time></trkpt><trkpt lat="42.80228423274591" lon="10.397402475311265"><ele>228.99999999999997</ele><time>2026-04-23T11:33:30Z</time></trkpt><trkpt lat="42.80239796980057" lon="10.397491243285131"><ele>228.99999999999997</ele><time>2026-04-23T11:33:32Z</time></trkpt><trkpt lat="42.802461343741065" lon="10.397548673336425"><ele>229.0</ele><time>2026-04-23T11:33:33Z</time></trkpt><trkpt lat="42.80252234140783" lon="10.397603459028273"><ele>229.0</ele><time>2026-04-23T11:33:34Z</time></trkpt><trkpt lat="42.80258313127367" lon="10.397672857427173"><ele>229.0</ele><time>2026-04-23T11:33:35Z</time></trkpt><trkpt lat="42.802646490085024" lon="10.397746537397701"><ele>228.99999999999997</ele><time>2026-04-23T11:33:36Z</time></trkpt><trkpt lat="42.802704320341206" lon="10.39782033325303"><ele>228.99999999999997</ele><time>2026-04-23T11:33:37Z</time></trkpt><trkpt lat="42.80284684733273" lon="10.39795691639296"><ele>229.0</ele><time>2026-04-23T11:33:39Z</time></trkpt><trkpt lat="42.80292098517373" lon="10.39800715111463"><ele>229.0</ele><time>2026-04-23T11:33:40Z</time></trkpt><trkpt lat="42.80301015841872" lon="10.398050416208568"><ele>228.83333333333331</ele><time>2026-04-23T11:33:41Z</time></trkpt><trkpt lat="42.80308958863798" lon="10.398074199134296"><ele>228.66666666666666</ele><time>2026-04-23T11:33:42Z</time></trkpt><trkpt lat="42.8031761069999" lon="10.398083659526124"><ele>228.5</ele><time>2026-04-23T11:33:43Z</time></trkpt><trkpt lat="42.8032646312889" lon="10.398077952161021"><ele>228.33333333333331</ele><time>2026-04-23T11:33:44Z</time></trkpt><trkpt lat="42.80335235815098" lon="10.398061296283204"><ele>228.16666666666666</ele><time>2026-04-23T11:33:45Z</time></trkpt><trkpt lat="42.80342660501744" lon="10.398039342600933"><ele>228.0</ele><time>2026-04-23T11:33:46Z</time></trkpt><trkpt lat="42.80353218066637" lon="10.398061595284274"><ele>228.0</ele><time>2026-04-23T11:33:48Z</time></trkpt><trkpt lat="42.803618472068194" lon="10.398175262621695"><ele>228.0</ele><time>2026-04-23T11:33:50Z</time></trkpt><trkpt lat="42.80366284800419" lon="10.398252830637881"><ele>228.0</ele><time>2026-04-23T11:33:51Z</time></trkpt><trkpt lat="42.803710265725506" lon="10.398330155198062"><ele>228.0</ele><time>2026-04-23T11:33:52Z</time></trkpt><trkpt lat="42.803751444761545" lon="10.398397676064882"><ele>228.0</ele><time>2026-04-23T11:33:53Z</time></trkpt><trkpt lat="42.80377814129796" lon="10.398548103798898"><ele>228.0</ele><time>2026-04-23T11:33:55Z</time></trkpt><trkpt lat="42.803752240231496" lon="10.398710040291075"><ele>228.0</ele><time>2026-04-23T11:33:57Z</time></trkpt><trkpt lat="42.80374211270317" lon="10.398805368172914"><ele>228.0</ele><time>2026-04-23T11:33:58Z</time></trkpt><trkpt lat="42.80372118722382" lon="10.399006997567898"><ele>228.0</ele><time>2026-04-23T11:34:00Z</time></trkpt><trkpt lat="42.80370545730419" lon="10.399099812879152"><ele>228.0</ele><time>2026-04-23T11:34:01Z</time></trkpt><trkpt lat="42.80368021445335" lon="10.399181567478152"><ele>228.0</ele><time>2026-04-23T11:34:02Z</time></trkpt><trkpt lat="42.80366476294098" lon="10.399343237947608"><ele>226.28571428571428</ele><time>2026-04-23T11:34:04Z</time></trkpt><trkpt lat="42.803680262927514" lon="10.399442052636227"><ele>224.57142857142856</ele><time>2026-04-23T11:34:05Z</time></trkpt><trkpt lat="42.80370245477928" lon="10.399540252541266"><ele>222.85714285714283</ele><time>2026-04-23T11:34:06Z</time></trkpt><trkpt lat="42.80372665072301" lon="10.399626063817246"><ele>221.14285714285714</ele><time>2026-04-23T11:34:07Z</time></trkpt><trkpt lat="42.803733821376504" lon="10.399711793570138"><ele>219.42857142857142</ele><time>2026-04-23T11:34:08Z</time></trkpt><trkpt lat="42.803713867354226" lon="10.39979880991101"><ele>217.71428571428572</ele><time>2026-04-23T11:34:09Z</time></trkpt><trkpt lat="42.803680834751674" lon="10.39988499368236"><ele>216.0</ele><time>2026-04-23T11:34:10Z</time></trkpt><trkpt lat="42.8036593358896" lon="10.39997326399509"><ele>213.20000000000002</ele><time>2026-04-23T11:34:11Z</time></trkpt><trkpt lat="42.803663535778796" lon="10.40013597560464"><ele>210.40000000000003</ele><time>2026-04-23T11:34:13Z</time></trkpt><trkpt lat="42.80373864413731" lon="10.400269332329724"><ele>207.6</ele><time>2026-04-23T11:34:15Z</time></trkpt><trkpt lat="42.80379514791321" lon="10.400323802631005"><ele>204.8</ele><time>2026-04-23T11:34:16Z</time></trkpt><trkpt lat="42.80385961151935" lon="10.400379955722862"><ele>202.0</ele><time>2026-04-23T11:34:17Z</time></trkpt><trkpt lat="42.80392932546149" lon="10.40042495461294"><ele>202.0</ele><time>2026-04-23T11:34:18Z</time></trkpt><trkpt lat="42.80401274778875" lon="10.40046675010678"><ele>202.0</ele><time>2026-04-23T11:34:19Z</time></trkpt><trkpt lat="42.80417093782799" lon="10.400536984272982"><ele>202.0</ele><time>2026-04-23T11:34:21Z</time></trkpt><trkpt lat="42.804241626515505" lon="10.40060163438573"><ele>202.0</ele><time>2026-04-23T11:34:22Z</time></trkpt><trkpt lat="42.80430215297325" lon="10.400675314335484"><ele>202.0</ele><time>2026-04-23T11:34:23Z</time></trkpt><trkpt lat="42.80436168855272" lon="10.400744941793857"><ele>199.49999999999997</ele><time>2026-04-23T11:34:24Z</time></trkpt><trkpt lat="42.8044266588129" lon="10.40081206034107"><ele>197.0</ele><time>2026-04-23T11:34:25Z</time></trkpt><trkpt lat="42.804476257991425" lon="10.400892288851333"><ele>194.5</ele><time>2026-04-23T11:34:26Z</time></trkpt><trkpt lat="42.80453649594551" lon="10.40096868489201"><ele>192.0</ele><time>2026-04-23T11:34:27Z</time></trkpt><trkpt lat="42.804603557499995" lon="10.401030256718103"><ele>189.5</ele><time>2026-04-23T11:34:28Z</time></trkpt><trkpt lat="42.804664599626406" lon="10.401069767074578"><ele>187.0</ele><time>2026-04-23T11:34:29Z</time></trkpt><trkpt lat="42.80473940986552" lon="10.40111862047594"><ele>187.0</ele><time>2026-04-23T11:34:30Z</time></trkpt><trkpt lat="42.80481947171576" lon="10.4011209153388"><ele>187.0</ele><time>2026-04-23T11:34:31Z</time></trkpt><trkpt lat="42.804901678618634" lon="10.401095880840218"><ele>187.0</ele><time>2026-04-23T11:34:32Z</time></trkpt><trkpt lat="42.8049764126853" lon="10.4010612035738"><ele>187.0</ele><time>2026-04-23T11:34:33Z</time></trkpt><trkpt lat="42.80504635323583" lon="10.40102192479763"><ele>187.0</ele><time>2026-04-23T11:34:34Z</time></trkpt><trkpt lat="42.80511191916735" lon="10.400975692595548"><ele>187.0</ele><time>2026-04-23T11:34:35Z</time></trkpt><trkpt lat="42.805218779579" lon="10.400940815538972"><ele>184.39999999999998</ele><time>2026-04-23T11:34:37Z</time></trkpt><trkpt lat="42.805321080670204" lon="10.401005918829211"><ele>181.79999999999998</ele><time>2026-04-23T11:34:39Z</time></trkpt><trkpt lat="42.80534702065894" lon="10.401098842161526"><ele>179.2</ele><time>2026-04-23T11:34:40Z</time></trkpt><trkpt lat="42.80548372825637" lon="10.401147438499722"><ele>176.6</ele><time>2026-04-23T11:34:42Z</time></trkpt><trkpt lat="42.80554766893887" lon="10.401141271474055"><ele>174.0</ele><time>2026-04-23T11:34:43Z</time></trkpt><trkpt lat="42.805610208057615" lon="10.40110424054294"><ele>174.0</ele><time>2026-04-23T11:34:44Z</time></trkpt><trkpt lat="42.805666792020034" lon="10.401038926724675"><ele>174.0</ele><time>2026-04-23T11:34:45Z</time></trkpt><trkpt lat="42.805717064105885" lon="10.400954736210759"><ele>174.0</ele><time>2026-04-23T11:34:46Z</time></trkpt><trkpt lat="42.80576270617947" lon="10.400857810025881"><ele>174.0</ele><time>2026-04-23T11:34:47Z</time></trkpt><trkpt lat="42.80579491714082" lon="10.400758565768696"><ele>174.0</ele><time>2026-04-23T11:34:48Z</time></trkpt><trkpt lat="42.805842463068466" lon="10.400685441098519"><ele>174.0</ele><time>2026-04-23T11:34:49Z</time></trkpt><trkpt lat="42.80590913110648" lon="10.400635429168657"><ele>174.0</ele><time>2026-04-23T11:34:50Z</time></trkpt><trkpt lat="42.805988038367445" lon="10.400620360838305"><ele>174.0</ele><time>2026-04-23T11:34:51Z</time></trkpt><trkpt lat="42.80606277527493" lon="10.400595726214911"><ele>174.0</ele><time>2026-04-23T11:34:52Z</time></trkpt><trkpt lat="42.80613578241283" lon="10.40057286460851"><ele>174.0</ele><time>2026-04-23T11:34:53Z</time></trkpt><trkpt lat="42.806199674920606" lon="10.400539373349982"><ele>174.0</ele><time>2026-04-23T11:34:54Z</time></trkpt><trkpt lat="42.80625198303285" lon="10.400473269951597"><ele>174.0</ele><time>2026-04-23T11:34:55Z</time></trkpt><trkpt lat="42.80626873600428" lon="10.40038250751387"><ele>174.0</ele><time>2026-04-23T11:34:56Z</time></trkpt><trkpt lat="42.80629176711646" lon="10.40021919897599"><ele>173.0</ele><time>2026-04-23T11:34:58Z</time></trkpt><trkpt lat="42.80632259970193" lon="10.400073878201916"><ele>172.0</ele><time>2026-04-23T11:35:00Z</time></trkpt><trkpt lat="42.80642731951451" lon="10.400050202884684"><ele>171.0</ele><time>2026-04-23T11:35:02Z</time></trkpt><trkpt lat="42.80657319437833" lon="10.400046775578291"><ele>170.0</ele><time>2026-04-23T11:35:04Z</time></trkpt><trkpt lat="42.806650048835586" lon="10.400032073118664"><ele>169.0</ele><time>2026-04-23T11:35:05Z</time></trkpt><trkpt lat="42.80672472110545" lon="10.400003157151126"><ele>169.0</ele><time>2026-04-23T11:35:06Z</time></trkpt><trkpt lat="42.80679946700668" lon="10.399967703355783"><ele>169.0</ele><time>2026-04-23T11:35:07Z</time></trkpt><trkpt lat="42.80686152170258" lon="10.399894659823566"><ele>169.0</ele><time>2026-04-23T11:35:08Z</time></trkpt><trkpt lat="42.80692167429616" lon="10.399828193178141"><ele>169.0</ele><time>2026-04-23T11:35:09Z</time></trkpt><trkpt lat="42.80697628596147" lon="10.39974708481919"><ele>169.0</ele><time>2026-04-23T11:35:10Z</time></trkpt><trkpt lat="42.807019319330585" lon="10.399661271575855"><ele>169.0</ele><time>2026-04-23T11:35:11Z</time></trkpt><trkpt lat="42.807059810806756" lon="10.399559602761244"><ele>168.66666666666669</ele><time>2026-04-23T11:35:12Z</time></trkpt><trkpt lat="42.80709358022586" lon="10.399459215795881"><ele>168.33333333333334</ele><time>2026-04-23T11:35:13Z</time></trkpt><trkpt lat="42.80713116247802" lon="10.39935417899503"><ele>168.0</ele><time>2026-04-23T11:35:14Z</time></trkpt><trkpt lat="42.807164449681686" lon="10.399251659101832"><ele>167.66666666666666</ele><time>2026-04-23T11:35:15Z</time></trkpt><trkpt lat="42.80719633208548" lon="10.399150582830691"><ele>167.33333333333331</ele><time>2026-04-23T11:35:16Z</time></trkpt><trkpt lat="42.80721928273537" lon="10.39905241230844"><ele>167.0</ele><time>2026-04-23T11:35:17Z</time></trkpt><trkpt lat="42.80724728446517" lon="10.398927663134113"><ele>167.0</ele><time>2026-04-23T11:35:18Z</time></trkpt><trkpt lat="42.80725331104418" lon="10.39882081742888"><ele>167.0</ele><time>2026-04-23T11:35:19Z</time></trkpt><trkpt lat="42.80726023345688" lon="10.398730089867357"><ele>167.0</ele><time>2026-04-23T11:35:20Z</time></trkpt><trkpt lat="42.80732656752144" lon="10.398652894552166"><ele>167.0</ele><time>2026-04-23T11:35:22Z</time></trkpt><trkpt lat="42.80740195855344" lon="10.398693882819247"><ele>167.0</ele><time>2026-04-23T11:35:24Z</time></trkpt><trkpt lat="42.80753440704047" lon="10.398899899329743"><ele>167.0</ele><time>2026-04-23T11:35:27Z</time></trkpt><trkpt lat="42.807581985778796" lon="10.3989941929186"><ele>167.0</ele><time>2026-04-23T11:35:28Z</time></trkpt><trkpt lat="42.807638557299846" lon="10.399083399504576"><ele>167.0</ele><time>2026-04-23T11:35:29Z</time></trkpt><trkpt lat="42.80770033769307" lon="10.39916324992233"><ele>167.0</ele><time>2026-04-23T11:35:30Z</time></trkpt><trkpt lat="42.807767989026736" lon="10.399231774178958"><ele>167.0</ele><time>2026-04-23T11:35:31Z</time></trkpt><trkpt lat="42.807846653247395" lon="10.399295072489952"><ele>167.0</ele><time>2026-04-23T11:35:32Z</time></trkpt><trkpt lat="42.80792773662255" lon="10.399356025207606"><ele>168.0</ele><time>2026-04-23T11:35:33Z</time></trkpt><trkpt lat="42.80801076235141" lon="10.399394315040102"><ele>169.0</ele><time>2026-04-23T11:35:34Z</time></trkpt><trkpt lat="42.80808937633569" lon="10.399453059514146"><ele>170.0</ele><time>2026-04-23T11:35:35Z</time></trkpt><trkpt lat="42.808158717972525" lon="10.399531835143499"><ele>171.0</ele><time>2026-04-23T11:35:36Z</time></trkpt><trkpt lat="42.80823677423798" lon="10.399593834391947"><ele>172.0</ele><time>2026-04-23T11:35:37Z</time></trkpt><trkpt lat="42.808321609937046" lon="10.399655000425799"><ele>169.66666666666669</ele><time>2026-04-23T11:35:38Z</time></trkpt><trkpt lat="42.80840582913264" lon="10.399708167724572"><ele>167.33333333333334</ele><time>2026-04-23T11:35:39Z</time></trkpt><trkpt lat="42.80848853991978" lon="10.399753832074396"><ele>165.0</ele><time>2026-04-23T11:35:40Z</time></trkpt><trkpt lat="42.80857223150452" lon="10.399789590799646"><ele>162.66666666666666</ele><time>2026-04-23T11:35:41Z</time></trkpt><trkpt lat="42.80866004068158" lon="10.399818228879967"><ele>160.33333333333331</ele><time>2026-04-23T11:35:42Z</time></trkpt><trkpt lat="42.80874242916675" lon="10.399830443592101"><ele>158.0</ele><time>2026-04-23T11:35:43Z</time></trkpt><trkpt lat="42.80882189815549" lon="10.39983535337493"><ele>158.0</ele><time>2026-04-23T11:35:44Z</time></trkpt><trkpt lat="42.808887508059804" lon="10.399851298938092"><ele>158.0</ele><time>2026-04-23T11:35:45Z</time></trkpt><trkpt lat="42.80897209713388" lon="10.399986321206342"><ele>158.0</ele><time>2026-04-23T11:35:47Z</time></trkpt><trkpt lat="42.809001594420536" lon="10.400081389537196"><ele>158.0</ele><time>2026-04-23T11:35:48Z</time></trkpt><trkpt lat="42.80903495053672" lon="10.400178289122808"><ele>158.0</ele><time>2026-04-23T11:35:49Z</time></trkpt><trkpt lat="42.80908106466138" lon="10.400274928250937"><ele>158.0</ele><time>2026-04-23T11:35:50Z</time></trkpt><trkpt lat="42.809139676330865" lon="10.400370024957699"><ele>158.0</ele><time>2026-04-23T11:35:51Z</time></trkpt><trkpt lat="42.80920501383457" lon="10.40045986655318"><ele>158.0</ele><time>2026-04-23T11:35:52Z</time></trkpt><trkpt lat="42.80926880898947" lon="10.400541442957861"><ele>158.0</ele><time>2026-04-23T11:35:53Z</time></trkpt><trkpt lat="42.809331748832015" lon="10.400617187096234"><ele>158.0</ele><time>2026-04-23T11:35:54Z</time></trkpt><trkpt lat="42.80939641719985" lon="10.400698582260583"><ele>158.0</ele><time>2026-04-23T11:35:55Z</time></trkpt><trkpt lat="42.80946264233326" lon="10.40077976585213"><ele>158.0</ele><time>2026-04-23T11:35:56Z</time></trkpt><trkpt lat="42.80953720926722" lon="10.400845320706575"><ele>157.16666666666666</ele><time>2026-04-23T11:35:57Z</time></trkpt><trkpt lat="42.80958085575597" lon="10.40093656495711"><ele>156.33333333333331</ele><time>2026-04-23T11:35:58Z</time></trkpt><trkpt lat="42.809644316851575" lon="10.401017104924101"><ele>155.5</ele><time>2026-04-23T11:35:59Z</time></trkpt><trkpt lat="42.80970724086427" lon="10.401092953447977"><ele>154.66666666666666</ele><time>2026-04-23T11:36:00Z</time></trkpt><trkpt lat="42.80977227650832" lon="10.401164277802314"><ele>153.83333333333334</ele><time>2026-04-23T11:36:01Z</time></trkpt><trkpt lat="42.80982461688791" lon="10.401236440054761"><ele>153.0</ele><time>2026-04-23T11:36:02Z</time></trkpt><trkpt lat="42.80987384770213" lon="10.401318296359278"><ele>151.0</ele><time>2026-04-23T11:36:03Z</time></trkpt><trkpt lat="42.80989813735112" lon="10.401423045648226"><ele>149.0</ele><time>2026-04-23T11:36:04Z</time></trkpt><trkpt lat="42.809898156828126" lon="10.401528629914173"><ele>147.0</ele><time>2026-04-23T11:36:05Z</time></trkpt><trkpt lat="42.809886208680815" lon="10.401633658346848"><ele>145.0</ele><time>2026-04-23T11:36:06Z</time></trkpt><trkpt lat="42.809856792416305" lon="10.401859097929519"><ele>143.0</ele><time>2026-04-23T11:36:08Z</time></trkpt><trkpt lat="42.80983669899112" lon="10.401977089953483"><ele>143.0</ele><time>2026-04-23T11:36:09Z</time></trkpt><trkpt lat="42.809817708149986" lon="10.402086259407731"><ele>143.0</ele><time>2026-04-23T11:36:10Z</time></trkpt><trkpt lat="42.80980801523485" lon="10.402193237052806"><ele>143.0</ele><time>2026-04-23T11:36:11Z</time></trkpt><trkpt lat="42.8098169220391" lon="10.402292841025602"><ele>143.0</ele><time>2026-04-23T11:36:12Z</time></trkpt><trkpt lat="42.80983344734541" lon="10.402391212346354"><ele>143.0</ele><time>2026-04-23T11:36:13Z</time></trkpt><trkpt lat="42.80985809335573" lon="10.402478739361724"><ele>143.0</ele><time>2026-04-23T11:36:14Z</time></trkpt><trkpt lat="42.80989297415556" lon="10.402579014162509"><ele>141.16666666666666</ele><time>2026-04-23T11:36:15Z</time></trkpt><trkpt lat="42.80993635190935" lon="10.402645943368833"><ele>139.33333333333331</ele><time>2026-04-23T11:36:16Z</time></trkpt><trkpt lat="42.81000165183731" lon="10.402730743324573"><ele>137.5</ele><time>2026-04-23T11:36:18Z</time></trkpt><trkpt lat="42.81005114187291" lon="10.402855672705629"><ele>135.66666666666666</ele><time>2026-04-23T11:36:22Z</time></trkpt><trkpt lat="42.81002483352458" lon="10.402996382368451"><ele>133.83333333333334</ele><time>2026-04-23T11:36:24Z</time></trkpt><trkpt lat="42.810035301905266" lon="10.403086627032941"><ele>132.0</ele><time>2026-04-23T11:36:25Z</time></trkpt><trkpt lat="42.810067514866525" lon="10.403187968806588"><ele>131.25</ele><time>2026-04-23T11:36:26Z</time></trkpt><trkpt lat="42.81010142423288" lon="10.403285958956452"><ele>130.5</ele><time>2026-04-23T11:36:27Z</time></trkpt><trkpt lat="42.81019070622763" lon="10.40351791201876"><ele>129.75</ele><time>2026-04-23T11:36:29Z</time></trkpt><trkpt lat="42.810239504971946" lon="10.40363249639455"><ele>129.0</ele><time>2026-04-23T11:36:30Z</time></trkpt><trkpt lat="42.81029328766713" lon="10.403741931896793"><ele>126.6</ele><time>2026-04-23T11:36:31Z</time></trkpt><trkpt lat="42.81035435130632" lon="10.403846616132297"><ele>124.2</ele><time>2026-04-23T11:36:32Z</time></trkpt><trkpt lat="42.81042235751233" lon="10.403948837113367"><ele>121.79999999999998</ele><time>2026-04-23T11:36:33Z</time></trkpt><trkpt lat="42.810494688906104" lon="10.404045954750408"><ele>119.39999999999999</ele><time>2026-04-23T11:36:34Z</time></trkpt><trkpt lat="42.81056698398058" lon="10.40413436542399"><ele>117.0</ele><time>2026-04-23T11:36:35Z</time></trkpt><trkpt lat="42.81064542097749" lon="10.404218294112368"><ele>117.0</ele><time>2026-04-23T11:36:36Z</time></trkpt><trkpt lat="42.81072078117283" lon="10.40429565920697"><ele>116.99999999999999</ele><time>2026-04-23T11:36:37Z</time></trkpt><trkpt lat="42.810799694135916" lon="10.404366599319268"><ele>116.99999999999999</ele><time>2026-04-23T11:36:38Z</time></trkpt><trkpt lat="42.81085656666181" lon="10.404454005157131"><ele>117.0</ele><time>2026-04-23T11:36:39Z</time></trkpt><trkpt lat="42.810933587505495" lon="10.404529950689692"><ele>117.0</ele><time>2026-04-23T11:36:40Z</time></trkpt><trkpt lat="42.81100760929313" lon="10.404608050481812"><ele>112.39999999999999</ele><time>2026-04-23T11:36:41Z</time></trkpt><trkpt lat="42.811066991083294" lon="10.40470001037312"><ele>107.79999999999998</ele><time>2026-04-23T11:36:42Z</time></trkpt><trkpt lat="42.81111273926172" lon="10.404804701853722"><ele>103.2</ele><time>2026-04-23T11:36:43Z</time></trkpt><trkpt lat="42.81113258159397" lon="10.404923062060861"><ele>98.6</ele><time>2026-04-23T11:36:44Z</time></trkpt><trkpt lat="42.81114491727672" lon="10.405049864653298"><ele>94.0</ele><time>2026-04-23T11:36:45Z</time></trkpt><trkpt lat="42.811148840915166" lon="10.405181466232724"><ele>94.0</ele><time>2026-04-23T11:36:46Z</time></trkpt><trkpt lat="42.81114639816277" lon="10.40531394490215"><ele>94.0</ele><time>2026-04-23T11:36:47Z</time></trkpt><trkpt lat="42.81113234856232" lon="10.405440175438848"><ele>94.0</ele><time>2026-04-23T11:36:48Z</time></trkpt><trkpt lat="42.81105805461284" lon="10.405655874664358"><ele>94.0</ele><time>2026-04-23T11:36:50Z</time></trkpt><trkpt lat="42.81103125735182" lon="10.405750875433277"><ele>94.0</ele><time>2026-04-23T11:36:51Z</time></trkpt><trkpt lat="42.81101516887655" lon="10.405854415341823"><ele>93.33333333333333</ele><time>2026-04-23T11:36:52Z</time></trkpt><trkpt lat="42.811015253065854" lon="10.40596212533843"><ele>92.66666666666666</ele><time>2026-04-23T11:36:53Z</time></trkpt><trkpt lat="42.81103465400336" lon="10.406071881350346"><ele>92.0</ele><time>2026-04-23T11:36:54Z</time></trkpt><trkpt lat="42.81106897310272" lon="10.406182475458976"><ele>91.33333333333333</ele><time>2026-04-23T11:36:55Z</time></trkpt><trkpt lat="42.81111024505654" lon="10.406287816498262"><ele>90.66666666666667</ele><time>2026-04-23T11:36:56Z</time></trkpt><trkpt lat="42.811153667072375" lon="10.406393861502528"><ele>90.0</ele><time>2026-04-23T11:36:57Z</time></trkpt><trkpt lat="42.81118422177108" lon="10.4065038836183"><ele>89.4</ele><time>2026-04-23T11:36:58Z</time></trkpt><trkpt lat="42.81120219715911" lon="10.406621719665234"><ele>88.8</ele><time>2026-04-23T11:36:59Z</time></trkpt><trkpt lat="42.811203078387855" lon="10.406741887635807"><ele>88.19999999999999</ele><time>2026-04-23T11:37:00Z</time></trkpt><trkpt lat="42.811188903367636" lon="10.406866096996614"><ele>87.6</ele><time>2026-04-23T11:37:01Z</time></trkpt><trkpt lat="42.811163511199666" lon="10.406991174826297"><ele>87.0</ele><time>2026-04-23T11:37:02Z</time></trkpt><trkpt lat="42.811120594198336" lon="10.407121710859276"><ele>85.39999999999999</ele><time>2026-04-23T11:37:03Z</time></trkpt><trkpt lat="42.811074474593326" lon="10.407250303085544"><ele>83.8</ele><time>2026-04-23T11:37:04Z</time></trkpt><trkpt lat="42.811031537097676" lon="10.407379148451227"><ele>82.2</ele><time>2026-04-23T11:37:05Z</time></trkpt><trkpt lat="42.81098825906576" lon="10.407505686962288"><ele>80.6</ele><time>2026-04-23T11:37:06Z</time></trkpt><trkpt lat="42.81094604012979" lon="10.407632820608102"><ele>79.0</ele><time>2026-04-23T11:37:07Z</time></trkpt><trkpt lat="42.81090124782349" lon="10.407750029424744"><ele>80.5</ele><time>2026-04-23T11:37:08Z</time></trkpt><trkpt lat="42.81085429345137" lon="10.407856249730264"><ele>82.0</ele><time>2026-04-23T11:37:09Z</time></trkpt><trkpt lat="42.81072263433167" lon="10.408030141294708"><ele>83.5</ele><time>2026-04-23T11:37:11Z</time></trkpt><trkpt lat="42.8106424448191" lon="10.408091821842909"><ele>85.0</ele><time>2026-04-23T11:37:12Z</time></trkpt><trkpt lat="42.810556244131696" lon="10.40813640494353"><ele>85.0</ele><time>2026-04-23T11:37:13Z</time></trkpt><trkpt lat="42.81046513869007" lon="10.408181960460748"><ele>85.0</ele><time>2026-04-23T11:37:14Z</time></trkpt><trkpt lat="42.81037097640061" lon="10.408225747531802"><ele>85.0</ele><time>2026-04-23T11:37:15Z</time></trkpt><trkpt lat="42.81027801850139" lon="10.408246726501806"><ele>85.0</ele><time>2026-04-23T11:37:16Z</time></trkpt><trkpt lat="42.81018427842697" lon="10.408294176813426"><ele>85.0</ele><time>2026-04-23T11:37:17Z</time></trkpt><trkpt lat="42.81009311155695" lon="10.408342069854598"><ele>85.83333333333333</ele><time>2026-04-23T11:37:18Z</time></trkpt><trkpt lat="42.81000859655196" lon="10.408391629735368"><ele>86.66666666666666</ele><time>2026-04-23T11:37:19Z</time></trkpt><trkpt lat="42.809931825131045" lon="10.408442884382852"><ele>87.5</ele><time>2026-04-23T11:37:20Z</time></trkpt><trkpt lat="42.8098646121111" lon="10.408498782350096"><ele>88.33333333333333</ele><time>2026-04-23T11:37:21Z</time></trkpt><trkpt lat="42.80981583585355" lon="10.408560456388285"><ele>89.16666666666667</ele><time>2026-04-23T11:37:22Z</time></trkpt><trkpt lat="42.80976284974133" lon="10.408710876153831"><ele>90.0</ele><time>2026-04-23T11:37:24Z</time></trkpt><trkpt lat="42.80976494345002" lon="10.408802687849585"><ele>87.5</ele><time>2026-04-23T11:37:25Z</time></trkpt><trkpt lat="42.80978997791585" lon="10.408881800496925"><ele>85.0</ele><time>2026-04-23T11:37:26Z</time></trkpt><trkpt lat="42.80983807397178" lon="10.408942551000726"><ele>82.5</ele><time>2026-04-23T11:37:27Z</time></trkpt><trkpt lat="42.80990343548659" lon="10.40898472056571"><ele>80.0</ele><time>2026-04-23T11:37:28Z</time></trkpt><trkpt lat="42.80997893307845" lon="10.409014697585139"><ele>77.5</ele><time>2026-04-23T11:37:29Z</time></trkpt><trkpt lat="42.81005317251806" lon="10.40902525451137"><ele>75.0</ele><time>2026-04-23T11:37:30Z</time></trkpt><trkpt lat="42.810207560682116" lon="10.409040176086231"><ele>74.4</ele><time>2026-04-23T11:37:32Z</time></trkpt><trkpt lat="42.810294008709256" lon="10.409047890741787"><ele>73.8</ele><time>2026-04-23T11:37:33Z</time></trkpt><trkpt lat="42.81038514133718" lon="10.409065999022543"><ele>73.2</ele><time>2026-04-23T11:37:34Z</time></trkpt><trkpt lat="42.810481913771625" lon="10.409096837850594"><ele>72.6</ele><time>2026-04-23T11:37:35Z</time></trkpt><trkpt lat="42.81057544077287" lon="10.409137855147288"><ele>72.0</ele><time>2026-04-23T11:37:36Z</time></trkpt><trkpt lat="42.81067074837207" lon="10.409198534285077"><ele>72.0</ele><time>2026-04-23T11:37:37Z</time></trkpt><trkpt lat="42.810760636707315" lon="10.409267066960235"><ele>72.0</ele><time>2026-04-23T11:37:38Z</time></trkpt><trkpt lat="42.81085073703286" lon="10.409319946864123"><ele>72.0</ele><time>2026-04-23T11:37:39Z</time></trkpt><trkpt lat="42.81094677005204" lon="10.409363192145488"><ele>72.0</ele><time>2026-04-23T11:37:40Z</time></trkpt><trkpt lat="42.81104651417474" lon="10.409385654222598"><ele>72.0</ele><time>2026-04-23T11:37:41Z</time></trkpt><trkpt lat="42.8111466686489" lon="10.409394468925488"><ele>70.4</ele><time>2026-04-23T11:37:42Z</time></trkpt><trkpt lat="42.811252264579565" lon="10.409392995023397"><ele>68.80000000000001</ele><time>2026-04-23T11:37:43Z</time></trkpt><trkpt lat="42.811353604374354" lon="10.409388508651334"><ele>67.2</ele><time>2026-04-23T11:37:44Z</time></trkpt><trkpt lat="42.81145329305506" lon="10.409374678558308"><ele>65.60000000000001</ele><time>2026-04-23T11:37:45Z</time></trkpt><trkpt lat="42.811550239120805" lon="10.409334987335964"><ele>64.0</ele><time>2026-04-23T11:37:46Z</time></trkpt><trkpt lat="42.81163967405661" lon="10.409277228611531"><ele>64.0</ele><time>2026-04-23T11:37:47Z</time></trkpt><trkpt lat="42.81172689940836" lon="10.409200130012323"><ele>64.0</ele><time>2026-04-23T11:37:48Z</time></trkpt><trkpt lat="42.81181241995785" lon="10.409108113054346"><ele>64.0</ele><time>2026-04-23T11:37:49Z</time></trkpt><trkpt lat="42.81189231360322" lon="10.409019623948765"><ele>64.0</ele><time>2026-04-23T11:37:50Z</time></trkpt><trkpt lat="42.81197277638948" lon="10.408924812328149"><ele>64.0</ele><time>2026-04-23T11:37:51Z</time></trkpt><trkpt lat="42.812124631004316" lon="10.40876480123604"><ele>63.83333333333333</ele><time>2026-04-23T11:37:53Z</time></trkpt><trkpt lat="42.81219979310379" lon="10.40870131403576"><ele>63.666666666666664</ele><time>2026-04-23T11:37:54Z</time></trkpt><trkpt lat="42.812278289284386" lon="10.408667620621712"><ele>63.5</ele><time>2026-04-23T11:37:55Z</time></trkpt><trkpt lat="42.812355082979714" lon="10.408655361245694"><ele>63.33333333333333</ele><time>2026-04-23T11:37:56Z</time></trkpt><trkpt lat="42.812440855061844" lon="10.408653547303578"><ele>63.166666666666664</ele><time>2026-04-23T11:37:57Z</time></trkpt><trkpt lat="42.81252155508078" lon="10.40867557986221"><ele>63.0</ele><time>2026-04-23T11:37:58Z</time></trkpt><trkpt lat="42.812590608463005" lon="10.408717689881147"><ele>63.0</ele><time>2026-04-23T11:37:59Z</time></trkpt><trkpt lat="42.81264622803156" lon="10.4087774253575"><ele>63.0</ele><time>2026-04-23T11:38:00Z</time></trkpt><trkpt lat="42.81268507998945" lon="10.408859703197786"><ele>63.0</ele><time>2026-04-23T11:38:01Z</time></trkpt><trkpt lat="42.812708266745474" lon="10.4089588718385"><ele>63.0</ele><time>2026-04-23T11:38:02Z</time></trkpt><trkpt lat="42.81271416879204" lon="10.409065994423424"><ele>63.0</ele><time>2026-04-23T11:38:03Z</time></trkpt><trkpt lat="42.81270699960612" lon="10.409186799621615"><ele>63.0</ele><time>2026-04-23T11:38:04Z</time></trkpt><trkpt lat="42.81268811822528" lon="10.409314671625422"><ele>62.0</ele><time>2026-04-23T11:38:05Z</time></trkpt><trkpt lat="42.81266055351726" lon="10.409452675008293"><ele>61.0</ele><time>2026-04-23T11:38:06Z</time></trkpt><trkpt lat="42.81263428173686" lon="10.409589464024341"><ele>60.0</ele><time>2026-04-23T11:38:07Z</time></trkpt><trkpt lat="42.81260733701327" lon="10.409723364441732"><ele>59.0</ele><time>2026-04-23T11:38:08Z</time></trkpt><trkpt lat="42.812587560048215" lon="10.409865437445651"><ele>58.0</ele><time>2026-04-23T11:38:09Z</time></trkpt><trkpt lat="42.81257242134772" lon="10.40999523293884"><ele>57.25</ele><time>2026-04-23T11:38:10Z</time></trkpt><trkpt lat="42.8125587811077" lon="10.410127090361934"><ele>56.5</ele><time>2026-04-23T11:38:11Z</time></trkpt><trkpt lat="42.81254922197608" lon="10.4102579087694"><ele>55.75</ele><time>2026-04-23T11:38:12Z</time></trkpt><trkpt lat="42.8125469050505" lon="10.410514993855903"><ele>55.0</ele><time>2026-04-23T11:38:14Z</time></trkpt><trkpt lat="42.81254205010086" lon="10.410642180141453"><ele>54.4</ele><time>2026-04-23T11:38:15Z</time></trkpt><trkpt lat="42.81253804820424" lon="10.410764682667619"><ele>53.8</ele><time>2026-04-23T11:38:16Z</time></trkpt><trkpt lat="42.8125361369541" lon="10.410885224377344"><ele>53.2</ele><time>2026-04-23T11:38:17Z</time></trkpt><trkpt lat="42.81253301621535" lon="10.411004016285311"><ele>52.6</ele><time>2026-04-23T11:38:18Z</time></trkpt><trkpt lat="42.81252853890501" lon="10.411132309461781"><ele>52.0</ele><time>2026-04-23T11:38:19Z</time></trkpt><trkpt lat="42.812523479730345" lon="10.411263230641515"><ele>51.2</ele><time>2026-04-23T11:38:20Z</time></trkpt><trkpt lat="42.81251890236116" lon="10.411395592841025"><ele>50.400000000000006</ele><time>2026-04-23T11:38:21Z</time></trkpt><trkpt lat="42.812514926753245" lon="10.411522461619326"><ele>49.599999999999994</ele><time>2026-04-23T11:38:22Z</time></trkpt><trkpt lat="42.812504852279396" lon="10.411654815969158"><ele>48.8</ele><time>2026-04-23T11:38:23Z</time></trkpt><trkpt lat="42.81249013013967" lon="10.411778017881204"><ele>48.0</ele><time>2026-04-23T11:38:24Z</time></trkpt><trkpt lat="42.81246931889613" lon="10.411899601264059"><ele>48.0</ele><time>2026-04-23T11:38:25Z</time></trkpt><trkpt lat="42.812449099946946" lon="10.41202447470945"><ele>48.0</ele><time>2026-04-23T11:38:26Z</time></trkpt><trkpt lat="42.81242471473983" lon="10.412137220787532"><ele>48.0</ele><time>2026-04-23T11:38:27Z</time></trkpt><trkpt lat="42.81239624265225" lon="10.41224701687492"><ele>48.0</ele><time>2026-04-23T11:38:28Z</time></trkpt><trkpt lat="42.81236860442026" lon="10.412361574912437"><ele>48.0</ele><time>2026-04-23T11:38:29Z</time></trkpt><trkpt lat="42.812339356103" lon="10.412466501413979"><ele>48.0</ele><time>2026-04-23T11:38:30Z</time></trkpt><trkpt lat="42.812306069752815" lon="10.41257212444069"><ele>46.599999999999994</ele><time>2026-04-23T11:38:31Z</time></trkpt><trkpt lat="42.812275217064396" lon="10.412670256691275"><ele>45.199999999999996</ele><time>2026-04-23T11:38:32Z</time></trkpt><trkpt lat="42.81224715986741" lon="10.41276883352327"><ele>43.8</ele><time>2026-04-23T11:38:33Z</time></trkpt><trkpt lat="42.812213485435535" lon="10.412958693941652"><ele>42.4</ele><time>2026-04-23T11:38:35Z</time></trkpt><trkpt lat="42.81221400982525" lon="10.413069255791923"><ele>41.0</ele><time>2026-04-23T11:38:36Z</time></trkpt><trkpt lat="42.8122258761414" lon="10.413183446023385"><ele>40.199999999999996</ele><time>2026-04-23T11:38:37Z</time></trkpt><trkpt lat="42.812246730628445" lon="10.413300243889477"><ele>39.4</ele><time>2026-04-23T11:38:38Z</time></trkpt><trkpt lat="42.81227092023932" lon="10.413419823959375"><ele>38.6</ele><time>2026-04-23T11:38:39Z</time></trkpt><trkpt lat="42.812295887181165" lon="10.413541347202097"><ele>37.8</ele><time>2026-04-23T11:38:40Z</time></trkpt><trkpt lat="42.812323110708164" lon="10.413662810697378"><ele>37.0</ele><time>2026-04-23T11:38:41Z</time></trkpt><trkpt lat="42.81235064294174" lon="10.413777839632338"><ele>36.66666666666667</ele><time>2026-04-23T11:38:42Z</time></trkpt><trkpt lat="42.81237592095237" lon="10.413887412819305"><ele>36.333333333333336</ele><time>2026-04-23T11:38:43Z</time></trkpt><trkpt lat="42.81240629812335" lon="10.41399030526107"><ele>36.0</ele><time>2026-04-23T11:38:44Z</time></trkpt><trkpt lat="42.8124488679408" lon="10.414086540174807"><ele>35.666666666666664</ele><time>2026-04-23T11:38:45Z</time></trkpt><trkpt lat="42.8125022309527" lon="10.414177136706273"><ele>35.33333333333333</ele><time>2026-04-23T11:38:46Z</time></trkpt><trkpt lat="42.812561527692345" lon="10.414272341106335"><ele>35.0</ele><time>2026-04-23T11:38:47Z</time></trkpt><trkpt lat="42.812623794442246" lon="10.414358637678722"><ele>35.0</ele><time>2026-04-23T11:38:48Z</time></trkpt><trkpt lat="42.812680419496374" lon="10.414435341310005"><ele>35.0</ele><time>2026-04-23T11:38:49Z</time></trkpt><trkpt lat="42.81273148370991" lon="10.41451783408456"><ele>35.0</ele><time>2026-04-23T11:38:50Z</time></trkpt><trkpt lat="42.81277586385549" lon="10.414616350038964"><ele>35.0</ele><time>2026-04-23T11:38:51Z</time></trkpt><trkpt lat="42.81279561194289" lon="10.414722341172787"><ele>35.0</ele><time>2026-04-23T11:38:52Z</time></trkpt><trkpt lat="42.81279950794014" lon="10.41484047005375"><ele>35.0</ele><time>2026-04-23T11:38:53Z</time></trkpt><trkpt lat="42.81280806362424" lon="10.41496825269325"><ele>35.0</ele><time>2026-04-23T11:38:54Z</time></trkpt><trkpt lat="42.81282566195751" lon="10.415238163155081"><ele>35.0</ele><time>2026-04-23T11:38:56Z</time></trkpt><trkpt lat="42.812837317270905" lon="10.415362578768356"><ele>35.0</ele><time>2026-04-23T11:38:57Z</time></trkpt><trkpt lat="42.81286137605889" lon="10.415479344221485"><ele>35.0</ele><time>2026-04-23T11:38:58Z</time></trkpt><trkpt lat="42.812865727294586" lon="10.41558678813339"><ele>34.4</ele><time>2026-04-23T11:38:59Z</time></trkpt><trkpt lat="42.81295077473536" lon="10.415672196239944"><ele>33.8</ele><time>2026-04-23T11:39:00Z</time></trkpt><trkpt lat="42.81301632559703" lon="10.41576037760353"><ele>33.2</ele><time>2026-04-23T11:39:01Z</time></trkpt><trkpt lat="42.8130761815154" lon="10.415862077000169"><ele>32.6</ele><time>2026-04-23T11:39:02Z</time></trkpt><trkpt lat="42.81314582391237" lon="10.415956065267132"><ele>32.0</ele><time>2026-04-23T11:39:03Z</time></trkpt><trkpt lat="42.81321202651235" lon="10.41605052469979"><ele>32.0</ele><time>2026-04-23T11:39:04Z</time></trkpt><trkpt lat="42.81327997814748" lon="10.416147605773729"><ele>32.0</ele><time>2026-04-23T11:39:05Z</time></trkpt><trkpt lat="42.81334999089151" lon="10.416245066550234"><ele>32.0</ele><time>2026-04-23T11:39:06Z</time></trkpt><trkpt lat="42.81341923702845" lon="10.416341460174417"><ele>32.0</ele><time>2026-04-23T11:39:07Z</time></trkpt><trkpt lat="42.81349510579484" lon="10.41642835373759"><ele>32.0</ele><time>2026-04-23T11:39:08Z</time></trkpt><trkpt lat="42.813546734515874" lon="10.416536924097612"><ele>32.800000000000004</ele><time>2026-04-23T11:39:09Z</time></trkpt><trkpt lat="42.81360215623333" lon="10.416630865871374"><ele>33.6</ele><time>2026-04-23T11:39:10Z</time></trkpt><trkpt lat="42.81365932182754" lon="10.41672042484589"><ele>34.400000000000006</ele><time>2026-04-23T11:39:11Z</time></trkpt><trkpt lat="42.81370105653594" lon="10.416822281253788"><ele>35.2</ele><time>2026-04-23T11:39:12Z</time></trkpt><trkpt lat="42.81374237011515" lon="10.416939501524878"><ele>36.0</ele><time>2026-04-23T11:39:13Z</time></trkpt><trkpt lat="42.81377564971127" lon="10.41706155803039"><ele>36.0</ele><time>2026-04-23T11:39:14Z</time></trkpt><trkpt lat="42.81380773802557" lon="10.417186759735726"><ele>36.0</ele><time>2026-04-23T11:39:15Z</time></trkpt><trkpt lat="42.81385310921711" lon="10.417449614099144"><ele>36.0</ele><time>2026-04-23T11:39:17Z</time></trkpt><trkpt lat="42.813851392930204" lon="10.417586421143305"><ele>36.0</ele><time>2026-04-23T11:39:18Z</time></trkpt><trkpt lat="42.81382495816564" lon="10.417722405343001"><ele>36.0</ele><time>2026-04-23T11:39:19Z</time></trkpt><trkpt lat="42.813795010522085" lon="10.417857787622983"><ele>36.0</ele><time>2026-04-23T11:39:20Z</time></trkpt><trkpt lat="42.81376702495871" lon="10.417995189416601"><ele>36.0</ele><time>2026-04-23T11:39:21Z</time></trkpt><trkpt lat="42.81373225066486" lon="10.418133114224878"><ele>36.0</ele><time>2026-04-23T11:39:22Z</time></trkpt><trkpt lat="42.81368756125109" lon="10.418268029789457"><ele>36.0</ele><time>2026-04-23T11:39:23Z</time></trkpt><trkpt lat="42.81365608317666" lon="10.418407652786652"><ele>39.0</ele><time>2026-04-23T11:39:24Z</time></trkpt><trkpt lat="42.8136390676153" lon="10.418553470806046"><ele>42.0</ele><time>2026-04-23T11:39:25Z</time></trkpt><trkpt lat="42.81362663725987" lon="10.418699804825282"><ele>45.0</ele><time>2026-04-23T11:39:26Z</time></trkpt><trkpt lat="42.81361293463349" lon="10.418850532672986"><ele>48.0</ele><time>2026-04-23T11:39:27Z</time></trkpt><trkpt lat="42.81358786639236" lon="10.419006146497"><ele>51.0</ele><time>2026-04-23T11:39:28Z</time></trkpt><trkpt lat="42.81356006729622" lon="10.41915414348494"><ele>52.8</ele><time>2026-04-23T11:39:29Z</time></trkpt><trkpt lat="42.8135368626815" lon="10.419294761906103"><ele>54.599999999999994</ele><time>2026-04-23T11:39:30Z</time></trkpt><trkpt lat="42.813528107625196" lon="10.419438434045734"><ele>56.4</ele><time>2026-04-23T11:39:31Z</time></trkpt><trkpt lat="42.81352648609842" lon="10.419586372058166"><ele>58.2</ele><time>2026-04-23T11:39:32Z</time></trkpt><trkpt lat="42.81353554928748" lon="10.419741157784763"><ele>60.0</ele><time>2026-04-23T11:39:33Z</time></trkpt><trkpt lat="42.81354822607487" lon="10.419890921740398"><ele>60.0</ele><time>2026-04-23T11:39:34Z</time></trkpt><trkpt lat="42.813558784426235" lon="10.42003532278477"><ele>60.0</ele><time>2026-04-23T11:39:35Z</time></trkpt><trkpt lat="42.813584160596356" lon="10.420170070418967"><ele>60.0</ele><time>2026-04-23T11:39:36Z</time></trkpt><trkpt lat="42.81367387869455" lon="10.420410756892345"><ele>60.0</ele><time>2026-04-23T11:39:38Z</time></trkpt><trkpt lat="42.81371414393588" lon="10.420539098924962"><ele>56.0</ele><time>2026-04-23T11:39:39Z</time></trkpt><trkpt lat="42.81377513601187" lon="10.420656789895375"><ele>52.0</ele><time>2026-04-23T11:39:40Z</time></trkpt><trkpt lat="42.81384900694555" lon="10.420758833147483"><ele>48.0</ele><time>2026-04-23T11:39:41Z</time></trkpt><trkpt lat="42.813918716162796" lon="10.420864938847396"><ele>44.0</ele><time>2026-04-23T11:39:42Z</time></trkpt><trkpt lat="42.81398630956694" lon="10.420971033700365"><ele>40.0</ele><time>2026-04-23T11:39:43Z</time></trkpt><trkpt lat="42.81404347150174" lon="10.421083245972714"><ele>40.0</ele><time>2026-04-23T11:39:44Z</time></trkpt><trkpt lat="42.81409380726549" lon="10.421196047439725"><ele>40.0</ele><time>2026-04-23T11:39:45Z</time></trkpt><trkpt lat="42.81414071692878" lon="10.42130421572009"><ele>40.0</ele><time>2026-04-23T11:39:46Z</time></trkpt><trkpt lat="42.81417796813819" lon="10.421414372816907"><ele>40.0</ele><time>2026-04-23T11:39:47Z</time></trkpt><trkpt lat="42.81420206772958" lon="10.421504040491863"><ele>40.0</ele><time>2026-04-23T11:39:48Z</time></trkpt><trkpt lat="42.814204379351175" lon="10.421621350788419"><ele>40.0</ele><time>2026-04-23T11:39:50Z</time></trkpt><trkpt lat="42.814171695786655" lon="10.421713924469525"><ele>37.0</ele><time>2026-04-23T11:39:52Z</time></trkpt><trkpt lat="42.81404480983606" lon="10.421764773341248"><ele>34.0</ele><time>2026-04-23T11:39:54Z</time></trkpt><trkpt lat="42.81396451873639" lon="10.421783673332534"><ele>31.0</ele><time>2026-04-23T11:39:55Z</time></trkpt><trkpt lat="42.81389445187851" lon="10.42182336784761"><ele>28.0</ele><time>2026-04-23T11:39:56Z</time></trkpt><trkpt lat="42.8138243542875" lon="10.421834968850275"><ele>25.0</ele><time>2026-04-23T11:39:57Z</time></trkpt><trkpt lat="42.81368785134231" lon="10.421891106116323"><ele>25.000000000000004</ele><time>2026-04-23T11:39:59Z</time></trkpt><trkpt lat="42.81363300578946" lon="10.421952758612708"><ele>25.0</ele><time>2026-04-23T11:40:00Z</time></trkpt><trkpt lat="42.81358862716008" lon="10.42202869755167"><ele>25.0</ele><time>2026-04-23T11:40:01Z</time></trkpt><trkpt lat="42.8135568507148" lon="10.422125439538348"><ele>25.0</ele><time>2026-04-23T11:40:02Z</time></trkpt><trkpt lat="42.81354633323365" lon="10.422231640523924"><ele>25.000000000000004</ele><time>2026-04-23T11:40:03Z</time></trkpt><trkpt lat="42.813542762397134" lon="10.42235072522746"><ele>25.0</ele><time>2026-04-23T11:40:04Z</time></trkpt><trkpt lat="42.813539511694145" lon="10.422460284529741"><ele>24.166666666666668</ele><time>2026-04-23T11:40:05Z</time></trkpt><trkpt lat="42.8135342920231" lon="10.422566708139023"><ele>23.333333333333336</ele><time>2026-04-23T11:40:06Z</time></trkpt><trkpt lat="42.813534079030475" lon="10.422675220102485"><ele>22.5</ele><time>2026-04-23T11:40:07Z</time></trkpt><trkpt lat="42.8135370484669" lon="10.42278802832114"><ele>21.666666666666668</ele><time>2026-04-23T11:40:08Z</time></trkpt><trkpt lat="42.81353693858701" lon="10.42289700168259"><ele>20.833333333333336</ele><time>2026-04-23T11:40:09Z</time></trkpt><trkpt lat="42.81353221014763" lon="10.423016975903208"><ele>20.0</ele><time>2026-04-23T11:40:10Z</time></trkpt><trkpt lat="42.81353123568685" lon="10.42313893662021"><ele>19.6</ele><time>2026-04-23T11:40:11Z</time></trkpt><trkpt lat="42.813524635405635" lon="10.423259356137272"><ele>19.2</ele><time>2026-04-23T11:40:12Z</time></trkpt><trkpt lat="42.813511793558106" lon="10.423381795415551"><ele>18.8</ele><time>2026-04-23T11:40:13Z</time></trkpt><trkpt lat="42.813483734962055" lon="10.423501103239753"><ele>18.4</ele><time>2026-04-23T11:40:14Z</time></trkpt><trkpt lat="42.813448564693914" lon="10.423615924976747"><ele>18.0</ele><time>2026-04-23T11:40:15Z</time></trkpt><trkpt lat="42.813399120832024" lon="10.423730824459852"><ele>21.25</ele><time>2026-04-23T11:40:16Z</time></trkpt><trkpt lat="42.81334031412476" lon="10.423844484662256"><ele>24.5</ele><time>2026-04-23T11:40:17Z</time></trkpt><trkpt lat="42.81328686698434" lon="10.423958270707534"><ele>27.75</ele><time>2026-04-23T11:40:18Z</time></trkpt><trkpt lat="42.81317709817151" lon="10.424191829182256"><ele>31.0</ele><time>2026-04-23T11:40:20Z</time></trkpt><trkpt lat="42.81314696067178" lon="10.424332559395573"><ele>31.000000000000004</ele><time>2026-04-23T11:40:21Z</time></trkpt><trkpt lat="42.81310401641786" lon="10.424457142518648"><ele>31.0</ele><time>2026-04-23T11:40:22Z</time></trkpt><trkpt lat="42.81306167799266" lon="10.424567007529905"><ele>31.0</ele><time>2026-04-23T11:40:23Z</time></trkpt><trkpt lat="42.813029919551376" lon="10.424676662417216"><ele>31.0</ele><time>2026-04-23T11:40:24Z</time></trkpt><trkpt lat="42.81300349409284" lon="10.424777161498303"><ele>31.000000000000004</ele><time>2026-04-23T11:40:25Z</time></trkpt><trkpt lat="42.81297728220534" lon="10.424880346919084"><ele>31.0</ele><time>2026-04-23T11:40:26Z</time></trkpt><trkpt lat="42.81294688850429" lon="10.42497610062665"><ele>29.571428571428573</ele><time>2026-04-23T11:40:27Z</time></trkpt><trkpt lat="42.8129135049059" lon="10.425065949773321"><ele>28.142857142857146</ele><time>2026-04-23T11:40:28Z</time></trkpt><trkpt lat="42.812870966149404" lon="10.425133481864231"><ele>26.714285714285715</ele><time>2026-04-23T11:40:29Z</time></trkpt><trkpt lat="42.812814767579056" lon="10.425192947021193"><ele>25.285714285714285</ele><time>2026-04-23T11:40:30Z</time></trkpt><trkpt lat="42.81275349454345" lon="10.425241393062336"><ele>23.857142857142858</ele><time>2026-04-23T11:40:31Z</time></trkpt><trkpt lat="42.8126894893914" lon="10.425282315696261"><ele>22.42857142857143</ele><time>2026-04-23T11:40:32Z</time></trkpt><trkpt lat="42.812624528681596" lon="10.425322568686104"><ele>21.0</ele><time>2026-04-23T11:40:33Z</time></trkpt><trkpt lat="42.812562359655864" lon="10.425360897316375"><ele>24.200000000000003</ele><time>2026-04-23T11:40:34Z</time></trkpt><trkpt lat="42.81246204403282" lon="10.42542630522104"><ele>27.400000000000002</ele><time>2026-04-23T11:40:36Z</time></trkpt><trkpt lat="42.812397039398746" lon="10.425498721009918"><ele>30.6</ele><time>2026-04-23T11:40:38Z</time></trkpt><trkpt lat="42.81238365898981" lon="10.425596524904321"><ele>33.800000000000004</ele><time>2026-04-23T11:40:40Z</time></trkpt><trkpt lat="42.8123727053973" lon="10.42559018674493"><ele>37.0</ele><time>2026-04-23T11:41:17Z</time></trkpt><trkpt lat="42.81248671258552" lon="10.425414118900779"><ele>40.333333333333336</ele><time>2026-04-23T11:41:21Z</time></trkpt><trkpt lat="42.812541016720346" lon="10.42531501196927"><ele>43.666666666666664</ele><time>2026-04-23T11:41:23Z</time></trkpt><trkpt lat="42.81262236593672" lon="10.425287070709457"><ele>47.0</ele><time>2026-04-23T11:41:26Z</time></trkpt><trkpt lat="42.812460120205444" lon="10.424965325439864"><ele>47.0</ele><time>2026-04-23T11:41:35Z</time></trkpt><trkpt lat="42.81250683882282" lon="10.425035548783793"><ele>47.0</ele><time>2026-04-23T11:42:06Z</time></trkpt></trkseg></trk></gpx>